Provisional Data: Little Muncy Creek near Moreland, PA


Please select a monitoring station.
Please select start date.
Please select start date.

Toggle Unit: C/F Toggle Unit: C/F
Sample Time Temperature (C) Temperature (F) Specific Conductivity (mS/cm) pH   Turbidity (NTU+) DO (mg/L)
4/13/2022 12:00:00 AM 11.52 52.736 0.085 7.04 31.35 10.15
4/13/2022 12:15:00 AM 11.41 52.538 0.084 7.04 31.56 10.17
4/13/2022 12:30:00 AM 11.31 52.358 0.085 7.04 30.98 10.2
4/13/2022 12:45:00 AM 11.2 52.16 0.086 7.04 30.53 10.22
4/13/2022 1:00:00 AM 11.1 51.98 0.085 7.04 30.78 10.24
4/13/2022 1:15:00 AM 11 51.8 0.086 7.04 30.86 10.28
4/13/2022 1:30:00 AM 10.9 51.62 0.087 7.04 31.4 10.3
4/13/2022 1:45:00 AM 10.81 51.458 0.086 7.04 30.35 10.33
4/13/2022 2:00:00 AM 10.72 51.296 0.085 7.04 26.3 10.34
4/13/2022 2:15:00 AM 10.63 51.134 0.086 7.04 30.72 10.38
4/13/2022 2:30:00 AM 10.55 50.99 0.086 7.04 30.56 10.39
4/13/2022 2:45:00 AM 10.48 50.864 0.086 7.04 30.39 10.42
4/13/2022 3:00:00 AM 10.41 50.738 0.087 7.04 33.96 10.44
4/13/2022 3:15:00 AM 10.35 50.63 0.087 7.04 32.7 10.46
4/13/2022 3:30:00 AM 10.28 50.504 0.086 7.04 32.12 10.48
4/13/2022 3:45:00 AM 10.23 50.414 0.086 7.04 32.3 10.49
4/13/2022 4:00:00 AM 10.18 50.324 0.088 7.04 31.86 10.51
4/13/2022 4:15:00 AM 10.13 50.234 0.087 7.04 32.16 10.53
4/13/2022 4:30:00 AM 10.08 50.144 0.087 7.04 32.05 10.54
4/13/2022 4:45:00 AM 10.03 50.054 0.087 7.05 31.99 10.56
4/13/2022 5:00:00 AM 9.99 49.982 0.087 7.05 31.71 10.57
4/13/2022 5:15:00 AM 9.94 49.892 0.085 7.05 31.9 10.58
4/13/2022 5:30:00 AM 9.9 49.82 0.086 7.04 32.66 10.6
4/13/2022 5:45:00 AM 9.86 49.748 0.086 7.05 32.77 10.61
4/13/2022 6:00:00 AM 9.83 49.694 0.087 7.05 29.6 10.62
4/13/2022 6:15:00 AM 9.79 49.622 0.086 7.04 36.35 10.63
4/13/2022 6:30:00 AM 9.76 49.568 0.086 7.04 28.99 10.65
4/13/2022 6:45:00 AM 9.72 49.496 0.088 7.04 28.26 10.67
4/13/2022 7:00:00 AM 9.69 49.442 0.085 7.04 79.42 10.68
4/13/2022 7:15:00 AM 9.67 49.406 0.088 7.05 26.39 10.71
4/13/2022 7:30:00 AM 9.65 49.37 0.087 7.05 29.26 10.74
4/13/2022 7:45:00 AM 9.64 49.352 0.087 7.06 28.88 10.78
4/13/2022 8:00:00 AM 9.66 49.388 0.087 7.07 29.52 10.84
4/13/2022 8:15:00 AM 9.67 49.406 0.086 7.08 28.71 10.87
4/13/2022 8:30:00 AM 9.68 49.424 0.086 7.1 28.57 10.91
4/13/2022 8:45:00 AM 9.71 49.478 0.087 7.11 28.31 10.95
4/13/2022 9:00:00 AM 9.75 49.55 0.087 7.13 28.48 10.98
4/13/2022 9:15:00 AM 9.83 49.694 0.085 7.14 28.39 11.01
4/13/2022 9:30:00 AM 9.93 49.874 0.087 7.16 28.24 11.03
4/13/2022 9:45:00 AM 10.04 50.072 0.088 7.17 28.14 11.04
4/13/2022 10:00:00 AM 10.16 50.288 0.087 7.19 28.25 11.06
4/13/2022 10:15:00 AM 10.3 50.54 0.087 7.2 27.92 11.07
4/13/2022 10:30:00 AM 10.38 50.684 0.085 7.21 28.37 11.07
4/13/2022 10:45:00 AM 10.46 50.828 0.085 7.23 28.07 11.06
4/13/2022 11:00:00 AM 10.55 50.99 0.085 7.24 28.04 11.05
4/13/2022 11:15:00 AM 10.66 51.188 0.088 7.25 27.99 11.04
4/13/2022 11:30:00 AM 10.78 51.404 0.087 7.26 27.63 11.03
4/13/2022 11:45:00 AM 10.89 51.602 0.087 7.27 28.17 11.01
4/13/2022 12:00:00 PM 11.08 51.944 0.085 7.28 28.53 11
4/13/2022 12:15:00 PM 11.37 52.466 0.087 7.29 27.99 10.98
4/13/2022 12:30:00 PM 11.57 52.826 0.086 7.3 28.03 10.95
4/13/2022 12:45:00 PM 11.81 53.258 0.086 7.31 28.1 10.93
4/13/2022 1:00:00 PM 12.11 53.798 0.087 7.32 28.06 10.89
4/13/2022 1:15:00 PM 12.38 54.284 0.085 7.33 28.21 10.86
4/13/2022 1:30:00 PM 12.55 54.59 0.085 7.34 28.07 10.82
4/13/2022 1:45:00 PM 12.72 54.896 0.085 7.35 28.15 10.77
4/13/2022 2:00:00 PM 12.82 55.076 0.085 7.35 28.31 10.72
4/13/2022 2:15:00 PM 12.9 55.22 0.085 7.36 28.32 10.67
4/13/2022 2:30:00 PM 12.96 55.328 0.087 7.35 28.2 10.62
4/13/2022 2:45:00 PM 13.05 55.49 0.086 7.35 28.42 10.57
4/13/2022 3:00:00 PM 13.18 55.724 0.085 7.35 28.3 10.53
4/13/2022 3:15:00 PM 13.27 55.886 0.084 7.36 28.55 10.5
4/13/2022 3:30:00 PM 13.37 56.066 0.086 7.36 28.43 10.44
4/13/2022 3:45:00 PM 13.45 56.21 0.086 7.36 28.4 10.42
4/13/2022 4:00:00 PM 13.57 56.426 0.085 7.37 28.31 10.41
4/13/2022 4:15:00 PM 13.62 56.516 0.086 7.37 28.47 10.38
4/13/2022 4:30:00 PM 13.69 56.642 0.086 7.37 28.36 10.36
4/13/2022 4:45:00 PM 13.71 56.678 0.086 7.36 28.33 10.33
4/13/2022 5:00:00 PM 13.76 56.768 0.086 7.36 28.24 10.29
4/13/2022 5:15:00 PM 13.8 56.84 0.084 7.36 28.35 10.27
4/13/2022 5:30:00 PM 13.83 56.894 0.085 7.35 28.23 10.23
4/13/2022 5:45:00 PM 13.85 56.93 0.085 7.35 28.8 10.19
4/13/2022 6:00:00 PM 13.89 57.002 0.086 7.33 29.95 10.15
4/13/2022 6:15:00 PM 13.91 57.038 0.085 7.32 31.89 10.11
4/13/2022 6:30:00 PM 13.92 57.056 0.086 7.3 34.13 10.04
4/13/2022 6:45:00 PM 13.93 57.074 0.084 7.28 35.13 9.99
4/13/2022 7:00:00 PM 13.91 57.038 0.085 7.26 34.51 9.92
4/13/2022 7:15:00 PM 13.89 57.002 0.085 7.24 24.05 9.88
4/13/2022 7:30:00 PM 13.86 56.948 0.085 7.21 25.25 9.84
4/13/2022 7:45:00 PM 13.81 56.858 0.085 7.2 23.05 9.8
4/13/2022 8:00:00 PM 13.76 56.768 0.085 7.18 21.7 9.77
4/13/2022 8:15:00 PM 13.7 56.66 0.086 7.16 21.56 9.74
4/13/2022 8:30:00 PM 13.64 56.552 0.086 7.14 20.69 9.72
4/13/2022 8:45:00 PM 13.58 56.444 0.085 7.13 16.94 9.7
4/13/2022 9:00:00 PM 13.51 56.318 0.086 7.1 17.49 9.69
4/13/2022 9:15:00 PM 13.45 56.21 0.086 7.09 17.41 9.69
4/13/2022 9:30:00 PM 13.39 56.102 0.086 7.08 17.39 9.68
4/13/2022 9:45:00 PM 13.33 55.994 0.087 7.08 17.92 9.68
4/13/2022 10:00:00 PM 13.29 55.922 0.086 7.07 18.25 9.67
4/13/2022 10:15:00 PM 13.24 55.832 0.086 7.06 18.52 9.68
4/13/2022 10:30:00 PM 13.18 55.724 0.086 7.06 19.62 9.68
4/13/2022 10:45:00 PM 13.13 55.634 0.086 7.05 20.56 9.69
4/13/2022 11:00:00 PM 13.08 55.544 0.087 7.06 21.4 9.69
4/13/2022 11:15:00 PM 13.02 55.436 0.087 7.05 21.63 9.7
4/13/2022 11:30:00 PM 12.97 55.346 0.087 7.06 21.9 9.71
4/13/2022 11:45:00 PM 12.91 55.238 0.086 7.06 21.86 9.72
4/14/2022 12:00:00 AM 12.86 55.148 0.087 7.06 22.51 9.73
4/14/2022 12:15:00 AM 12.8 55.04 0.087 7.06 22.36 9.74
4/14/2022 12:30:00 AM 12.74 54.932 0.087 7.06 21.93 9.75
4/14/2022 12:45:00 AM 12.68 54.824 0.088 7.06 22.37 9.76
4/14/2022 1:00:00 AM 12.62 54.716 0.088 7.05 20.88 9.77
4/14/2022 1:15:00 AM 12.56 54.608 0.087 7.05 20.77 9.78
4/14/2022 1:30:00 AM 12.51 54.518 0.088 7.05 21.58 9.8
4/14/2022 1:45:00 AM 12.45 54.41 0.088 7.05 19.7 9.81
4/14/2022 2:00:00 AM 12.4 54.32 0.087 7.04 19.67 9.82
4/14/2022 2:15:00 AM 12.35 54.23 0.087 7.05 19.68 9.83
4/14/2022 2:30:00 AM 12.31 54.158 0.087 7.05 19.52 9.84
4/14/2022 2:45:00 AM 12.27 54.086 0.087 7.05 20.08 9.86
4/14/2022 3:00:00 AM 12.23 54.014 0.088 7.05 20.07 9.87
4/14/2022 3:15:00 AM 12.18 53.924 0.087 7.05 19.94 9.88
4/14/2022 3:30:00 AM 12.14 53.852 0.087 7.05 20.13 9.9
4/14/2022 3:45:00 AM 12.1 53.78 0.088 7.04 20.35 9.9
4/14/2022 4:00:00 AM 12.05 53.69 0.088 7.05 20.15 9.9
4/14/2022 4:15:00 AM 12 53.6 0.087 7.05 23.66 9.92
4/14/2022 4:30:00 AM 11.96 53.528 0.088 7.04 23.59 9.93
4/14/2022 4:45:00 AM 11.91 53.438 0.088 7.04 23.44 9.94
4/14/2022 5:00:00 AM 11.86 53.348 0.089 7.04 22.72 9.95
4/14/2022 5:15:00 AM 11.81 53.258 0.088 7.04 23.98 9.96
4/14/2022 5:30:00 AM 11.75 53.15 0.087 7.04 22.41 9.97
4/14/2022 5:45:00 AM 11.69 53.042 0.087 7.04 22.61 9.99
4/14/2022 6:00:00 AM 11.63 52.934 0.088 7.04 22.28 10
4/14/2022 6:15:00 AM 11.58 52.844 0.088 7.05 22.53 10.02
4/14/2022 6:30:00 AM 11.52 52.736 0.089 7.05 19 10.03
4/14/2022 6:45:00 AM 11.46 52.628 0.088 7.05 19.57 10.06
4/14/2022 7:00:00 AM 11.41 52.538 0.089 7.06 24.44 10.09
4/14/2022 7:15:00 AM 11.37 52.466 0.089 7.07 20.96 10.13
4/14/2022 7:30:00 AM 11.33 52.394 0.09 7.08 19.47 10.16
4/14/2022 7:45:00 AM 11.31 52.358 0.088 7.09 19.52 10.2
4/14/2022 8:00:00 AM 11.3 52.34 0.089 7.1 18.95 10.25
4/14/2022 8:15:00 AM 11.3 52.34 0.09 7.11 18.74 10.3
4/14/2022 8:30:00 AM 11.32 52.376 0.088 7.12 18.69 10.35
4/14/2022 8:45:00 AM 11.36 52.448 0.088 7.14 18.41 10.39
4/14/2022 9:00:00 AM 11.42 52.556 0.09 7.16 18.51 10.44
4/14/2022 9:15:00 AM 11.49 52.682 0.089 7.18 18.16 10.48
4/14/2022 9:30:00 AM 11.6 52.88 0.088 7.19 18.38 10.51
4/14/2022 9:45:00 AM 11.74 53.132 0.088 7.2 18.56 10.53
4/14/2022 10:00:00 AM 11.86 53.348 0.09 7.22 18.25 10.55
4/14/2022 10:15:00 AM 12.03 53.654 0.088 7.24 18.25 10.57
4/14/2022 10:30:00 AM 12.15 53.87 0.089 7.26 18.13 10.57
4/14/2022 10:45:00 AM 12.3 54.14 0.088 7.27 18.62 10.59
4/14/2022 11:00:00 AM 12.48 54.464 0.089 7.29 18.45 10.58
4/14/2022 11:15:00 AM 12.68 54.824 0.089 7.3 18.57 10.58
4/14/2022 11:30:00 AM 12.77 54.986 0.089 7.32 18.58 10.57
4/14/2022 11:45:00 AM 12.8 55.04 0.089 7.32 18.61 10.53
4/14/2022 12:00:00 PM 12.81 55.058 0.089 7.32 19.31 10.47
4/14/2022 12:15:00 PM 12.85 55.13 0.087 7.32 18.76 10.42
4/14/2022 12:30:00 PM 12.9 55.22 0.088 7.32 18.43 10.4
4/14/2022 12:45:00 PM 12.96 55.328 0.087 7.32 18.56 10.36
4/14/2022 1:00:00 PM 13 55.4 0.088 7.32 19.27 10.32
4/14/2022 1:15:00 PM 13.06 55.508 0.089 7.32 18.71 10.31
4/14/2022 1:30:00 PM 13.1 55.58 0.089 7.33 18.91 10.28
4/14/2022 1:45:00 PM 13.14 55.652 0.087 7.33 19.78 10.25
4/14/2022 2:00:00 PM 13.17 55.706 0.087 7.31 19.33 10.22
4/14/2022 2:15:00 PM 13.18 55.724 0.087 7.31 19.6 10.18
4/14/2022 2:30:00 PM 13.21 55.778 0.086 7.31 18.69 10.18
4/14/2022 2:45:00 PM 13.2 55.76 0.087 7.31 18.16 10.18
4/14/2022 3:00:00 PM 13.19 55.742 0.088 7.31 18.52 10.18
4/14/2022 3:15:00 PM 13.17 55.706 0.088 7.31 18.94 10.16
4/14/2022 3:30:00 PM 13.16 55.688 0.088 7.31 18.71 10.16
4/14/2022 3:45:00 PM 13.14 55.652 0.088 7.3 18.48 10.13
4/14/2022 4:00:00 PM 13.12 55.616 0.087 7.3 18.78 10.12
4/14/2022 4:15:00 PM 13.11 55.598 0.088 7.3 17.99 10.14
4/14/2022 4:30:00 PM 13.11 55.598 0.087 7.31 18.38 10.16
4/14/2022 4:45:00 PM 13.1 55.58 0.088 7.31 19.99 10.18
4/14/2022 5:00:00 PM 13.11 55.598 0.087 7.32 18.96 10.2
4/14/2022 5:15:00 PM 13.07 55.526 0.087 7.31 18.99 10.19
4/14/2022 5:30:00 PM 13.06 55.508 0.087 7.31 18.93 10.19
4/14/2022 5:45:00 PM 13.02 55.436 0.087 7.3 18.75 10.17
4/14/2022 6:00:00 PM 12.98 55.364 0.087 7.3 18.83 10.16
4/14/2022 6:15:00 PM 12.93 55.274 0.086 7.28 19.12 10.14
4/14/2022 6:30:00 PM 12.88 55.184 0.087 7.27 18.98 10.12
4/14/2022 6:45:00 PM 12.83 55.094 0.087 7.26 19.11 10.11
4/14/2022 7:00:00 PM 12.78 55.004 0.087 7.25 19.26 10.1
4/14/2022 7:15:00 PM 12.71 54.878 0.087 7.25 19.4 10.09
4/14/2022 7:30:00 PM 12.65 54.77 0.087 7.23 19.89 10.07
4/14/2022 7:45:00 PM 12.58 54.644 0.087 7.22 20.38 10.05
4/14/2022 8:00:00 PM 12.5 54.5 0.087 7.2 19.85 10.03
4/14/2022 8:15:00 PM 12.42 54.356 0.088 7.18 20.39 10.01
4/14/2022 8:30:00 PM 12.33 54.194 0.087 7.17 21.02 10.01
4/14/2022 8:45:00 PM 12.25 54.05 0.087 7.16 20.67 10
4/14/2022 9:00:00 PM 12.16 53.888 0.088 7.15 20.52 10
4/14/2022 9:15:00 PM 12.06 53.708 0.088 7.14 20.93 10.01
4/14/2022 9:30:00 PM 11.96 53.528 0.087 7.13 21.64 10.03
4/14/2022 9:45:00 PM 11.87 53.366 0.087 7.13 28.44 10.04
4/14/2022 10:00:00 PM 11.77 53.186 0.086 7.12 21.87 10.05
4/14/2022 10:15:00 PM 11.67 53.006 0.086 7.11 22.49 10.07
4/14/2022 10:30:00 PM 11.57 52.826 0.087 7.11 22.88 10.08
4/14/2022 10:45:00 PM 11.46 52.628 0.087 7.11 25.37 10.11
4/14/2022 11:00:00 PM 11.36 52.448 0.088 7.11 29.95 10.13
4/14/2022 11:15:00 PM 11.26 52.268 0.087 7.1 29.43 10.15
4/14/2022 11:30:00 PM 11.16 52.088 0.087 7.1 29.02 10.17
4/14/2022 11:45:00 PM 11.05 51.89 0.087 7.1 29.09 10.19
4/15/2022 12:00:00 AM 10.95 51.71 0.087 7.1 25.79 10.22
4/15/2022 12:15:00 AM 10.84 51.512 0.088 7.1 23.52 10.25
4/15/2022 12:30:00 AM 10.74 51.332 0.087 7.1 23.54 10.27
4/15/2022 12:45:00 AM 10.63 51.134 0.088 7.09 24.21 10.31
4/15/2022 1:00:00 AM 10.53 50.954 0.087 7.09 23.73 10.33
4/15/2022 1:15:00 AM 10.43 50.774 0.087 7.09 23.56 10.36
4/15/2022 1:30:00 AM 10.33 50.594 0.089 7.09 25.29 10.39
4/15/2022 1:45:00 AM 10.23 50.414 0.088 7.09 20.51 10.42
4/15/2022 2:00:00 AM 10.13 50.234 0.088 7.09 33.23 10.44
4/15/2022 2:15:00 AM 10.03 50.054 0.087 7.09 20.84 10.47
4/15/2022 2:30:00 AM 9.93 49.874 0.088 7.09 20.39 10.49
4/15/2022 2:45:00 AM 9.84 49.712 0.088 7.09 21.45 10.52
4/15/2022 3:00:00 AM 9.74 49.532 0.088 7.09 20.82 10.55
4/15/2022 3:15:00 AM 9.64 49.352 0.088 7.09 20.86 10.57
4/15/2022 3:30:00 AM 9.55 49.19 0.088 7.09 19.43 10.6
4/15/2022 3:45:00 AM 9.45 49.01 0.088 7.09 19.53 10.63
4/15/2022 4:00:00 AM 9.36 48.848 0.087 7.09 19.8 10.65
4/15/2022 4:15:00 AM 9.26 48.668 0.088 7.09 19.4 10.68
4/15/2022 4:30:00 AM 9.17 48.506 0.088 7.09 18.6 10.71
4/15/2022 4:45:00 AM 9.07 48.326 0.088 7.09 18.6 10.74
4/15/2022 5:00:00 AM 8.98 48.164 0.089 7.09 19.58 10.77
4/15/2022 5:15:00 AM 8.89 48.002 0.089 7.09 20.39 10.8
4/15/2022 5:30:00 AM 8.79 47.822 0.089 7.09 19.24 10.83
4/15/2022 5:45:00 AM 8.7 47.66 0.087 7.09 19.47 10.86
4/15/2022 6:00:00 AM 8.61 47.498 0.088 7.09 18.83 10.89
4/15/2022 6:15:00 AM 8.52 47.336 0.089 7.09 18.97 10.91
4/15/2022 6:30:00 AM 8.44 47.192 0.09 7.08 18.76 10.94
4/15/2022 6:45:00 AM 8.35 47.03 0.089 7.09 18.76 10.99
4/15/2022 7:00:00 AM 8.27 46.886 0.088 7.1 19.22 11.03
4/15/2022 7:15:00 AM 8.19 46.742 0.088 7.1 18.5 11.08
4/15/2022 7:30:00 AM 8.13 46.634 0.088 7.11 20.97 11.15
4/15/2022 7:45:00 AM 8.08 46.544 0.088 7.12 20.16 11.2
4/15/2022 8:00:00 AM 8.04 46.472 0.088 7.13 20.18 11.26
4/15/2022 8:15:00 AM 8.02 46.436 0.088 7.14 20.13 11.32
4/15/2022 8:30:00 AM 8.01 46.418 0.088 7.15 19.59 11.38
4/15/2022 8:45:00 AM 8.03 46.454 0.089 7.17 19.7 11.42
4/15/2022 9:00:00 AM 8.05 46.49 0.087 7.18 19.77 11.47
4/15/2022 9:15:00 AM 8.1 46.58 0.087 7.19 19.69 11.51
4/15/2022 9:30:00 AM 8.18 46.724 0.087 7.2 19.6 11.53
4/15/2022 9:45:00 AM 8.29 46.922 0.088 7.22 19.73 11.58
4/15/2022 10:00:00 AM 8.4 47.12 0.088 7.23 19.84 11.58
4/15/2022 10:15:00 AM 8.54 47.372 0.088 7.24 20.94 11.6
4/15/2022 10:30:00 AM 8.67 47.606 0.088 7.25 20.52 11.59
4/15/2022 10:45:00 AM 8.84 47.912 0.087 7.26 20.92 11.59
4/15/2022 11:00:00 AM 9.03 48.254 0.088 7.27 20.71 11.57
4/15/2022 11:15:00 AM 9.23 48.614 0.088 7.28 20.85 11.55
4/15/2022 11:30:00 AM 9.42 48.956 0.089 7.29 20.73 11.53
4/15/2022 11:45:00 AM 9.66 49.388 0.088 7.3 21.26 11.51
4/15/2022 12:00:00 PM 9.91 49.838 0.087 7.31 20.91 11.47
4/15/2022 12:15:00 PM 10.18 50.324 0.088 7.32 22.19 11.41
4/15/2022 12:30:00 PM 10.48 50.864 0.087 7.33 21.96 11.37
4/15/2022 12:45:00 PM 10.76 51.368 0.088 7.34 21.69 11.31
4/15/2022 1:00:00 PM 11.05 51.89 0.087 7.35 21.4 11.27
4/15/2022 1:15:00 PM 11.27 52.286 0.088 7.35 21.66 11.21
4/15/2022 1:30:00 PM 11.6 52.88 0.088 7.36 22.07 11.16
4/15/2022 1:45:00 PM 11.69 53.042 0.087 7.37 21.7 11.08
4/15/2022 2:00:00 PM 11.97 53.546 0.087 7.38 21.44 11.04
4/15/2022 2:15:00 PM 12.2 53.96 0.088 7.38 21.59 10.98
4/15/2022 2:30:00 PM 12.39 54.302 0.089 7.39 21.74 10.94
4/15/2022 2:45:00 PM 12.6 54.68 0.087 7.4 21.88 10.87
4/15/2022 3:00:00 PM 12.67 54.806 0.088 7.39 22.2 10.82
4/15/2022 3:15:00 PM 12.8 55.04 0.088 7.4 21.92 10.76
4/15/2022 3:30:00 PM 12.91 55.238 0.087 7.4 22.76 10.71
4/15/2022 3:45:00 PM 12.98 55.364 0.087 7.41 22.54 10.67
4/15/2022 4:00:00 PM 13.02 55.436 0.087 7.41 22.29 10.61
4/15/2022 4:15:00 PM 13.12 55.616 0.087 7.41 22.8 10.57
4/15/2022 4:30:00 PM 13.17 55.706 0.087 7.42 22.64 10.53
4/15/2022 4:45:00 PM 13.18 55.724 0.087 7.41 22.55 10.49
4/15/2022 5:00:00 PM 13.19 55.742 0.087 7.41 22.46 10.44
4/15/2022 5:15:00 PM 13.15 55.67 0.087 7.39 22.51 10.39
4/15/2022 5:30:00 PM 13.11 55.598 0.088 7.38 23.07 10.36
4/15/2022 5:45:00 PM 13.11 55.598 0.088 7.38 23 10.33
4/15/2022 6:00:00 PM 13.11 55.598 0.087 7.37 22.72 10.3
4/15/2022 6:15:00 PM 13.1 55.58 0.087 7.36 23.1 10.25
4/15/2022 6:30:00 PM 13.06 55.508 0.088 7.35 22.72 10.21
4/15/2022 6:45:00 PM 13.01 55.418 0.088 7.33 22.6 10.18
4/15/2022 7:00:00 PM 12.95 55.31 0.088 7.32 23.01 10.14
4/15/2022 7:15:00 PM 12.89 55.202 0.088 7.3 23.2 10.11
4/15/2022 7:30:00 PM 12.82 55.076 0.088 7.29 23.1 10.08
4/15/2022 7:45:00 PM 12.75 54.95 0.088 7.27 22.97 10.05
4/15/2022 8:00:00 PM 12.68 54.824 0.088 7.25 23.26 10.02
4/15/2022 8:15:00 PM 12.59 54.662 0.088 7.24 35.15 10.01
4/15/2022 8:30:00 PM 12.5 54.5 0.088 7.23 23.65 9.99
4/15/2022 8:45:00 PM 12.41 54.338 0.088 7.22 23.63 9.99
4/15/2022 9:00:00 PM 12.33 54.194 0.088 7.21 24.04 9.98
4/15/2022 9:15:00 PM 12.24 54.032 0.088 7.2 23.53 9.98
4/15/2022 9:30:00 PM 12.15 53.87 0.088 7.19 23.26 9.99
4/15/2022 9:45:00 PM 12.06 53.708 0.088 7.18 23.91 10
4/15/2022 10:00:00 PM 11.98 53.564 0.088 7.18 23.8 10.01
4/15/2022 10:15:00 PM 11.88 53.384 0.089 7.17 23.38 10.02
4/15/2022 10:30:00 PM 11.8 53.24 0.088 7.16 23.75 10.03
4/15/2022 10:45:00 PM 11.71 53.078 0.088 7.16 22.43 10.05
4/15/2022 11:00:00 PM 11.62 52.916 0.088 7.16 22.84 10.06
4/15/2022 11:15:00 PM 11.53 52.754 0.089 7.15 22.82 10.08
4/15/2022 11:30:00 PM 11.44 52.592 0.089 7.15 23.29 10.09
4/15/2022 11:45:00 PM 11.36 52.448 0.089 7.15 22.93 10.11
4/16/2022 12:00:00 AM 11.28 52.304 0.089 7.14 19.37 10.13
4/16/2022 12:15:00 AM 11.2 52.16 0.089 7.14 19.2 10.14
4/16/2022 12:30:00 AM 11.13 52.034 0.088 7.14 17.82 10.17
4/16/2022 12:45:00 AM 11.06 51.908 0.089 7.14 17.83 10.17
4/16/2022 1:00:00 AM 10.99 51.782 0.089 7.14 18.25 10.21
4/16/2022 1:15:00 AM 10.93 51.674 0.089 7.14 17.9 10.2
4/16/2022 1:30:00 AM 10.88 51.584 0.089 7.14 17.45 10.21
4/16/2022 1:45:00 AM 10.82 51.476 0.089 7.14 17.45 10.23
4/16/2022 2:00:00 AM 10.76 51.368 0.09 7.14 17.01 10.24
4/16/2022 2:15:00 AM 10.71 51.278 0.089 7.13 16.99 10.26
4/16/2022 2:30:00 AM 10.66 51.188 0.089 7.13 17.23 10.27
4/16/2022 2:45:00 AM 10.62 51.116 0.089 7.13 17.5 10.28
4/16/2022 3:00:00 AM 10.58 51.044 0.089 7.13 17.31 10.3
4/16/2022 3:15:00 AM 10.54 50.972 0.089 7.13 17.2 10.31
4/16/2022 3:30:00 AM 10.51 50.918 0.089 7.13 16.99 10.32
4/16/2022 3:45:00 AM 10.47 50.846 0.089 7.13 16.56 10.33
4/16/2022 4:00:00 AM 10.44 50.792 0.09 7.13 16.69 10.35
4/16/2022 4:15:00 AM 10.4 50.72 0.089 7.13 16.54 10.36
4/16/2022 4:30:00 AM 10.37 50.666 0.09 7.13 16.61 10.36
4/16/2022 4:45:00 AM 10.34 50.612 0.09 7.13 16.19 10.37
4/16/2022 5:00:00 AM 10.3 50.54 0.09 7.13 19.23 10.38
4/16/2022 5:15:00 AM 10.27 50.486 0.09 7.13 17.19 10.4
4/16/2022 5:30:00 AM 10.25 50.45 0.09 7.13 18.28 10.4
4/16/2022 5:45:00 AM 10.22 50.396 0.09 7.13 20.08 10.41
4/16/2022 6:00:00 AM 10.19 50.342 0.09 7.13 19.73 10.42
4/16/2022 6:15:00 AM 10.18 50.324 0.09 7.13 19.26 10.42
4/16/2022 6:30:00 AM 10.16 50.288 0.09 7.13 18.17 10.43
4/16/2022 6:45:00 AM 10.13 50.234 0.09 7.13 18.21 10.45
4/16/2022 7:00:00 AM 10.1 50.18 0.09 7.12 20.18 10.45
4/16/2022 7:15:00 AM 10.08 50.144 0.09 7.13 41.22 10.45
4/16/2022 7:30:00 AM 10.06 50.108 0.09 7.13 19.83 10.49
4/16/2022 7:45:00 AM 10.04 50.072 0.09 7.14 20.34 10.51
4/16/2022 8:00:00 AM 10.03 50.054 0.09 7.14 22.4 10.53
4/16/2022 8:15:00 AM 10.02 50.036 0.089 7.15 19.82 10.56
4/16/2022 8:30:00 AM 10.01 50.018 0.09 7.16 17.2 10.59
4/16/2022 8:45:00 AM 10.01 50.018 0.09 7.17 22.8 10.63
4/16/2022 9:00:00 AM 10 50 0.09 7.17 21.88 10.65
4/16/2022 9:15:00 AM 10 50 0.09 7.18 21.14 10.68
4/16/2022 9:30:00 AM 10.01 50.018 0.09 7.19 20.57 10.71
4/16/2022 9:45:00 AM 10.02 50.036 0.09 7.2 20.48 10.74
4/16/2022 10:00:00 AM 10.05 50.09 0.09 7.21 20.64 10.78
4/16/2022 10:15:00 AM 10.09 50.162 0.091 7.23 20.9 10.82
4/16/2022 10:30:00 AM 10.1 50.18 0.09 7.24 21.12 10.84
4/16/2022 10:45:00 AM 10.14 50.252 0.09 7.25 20.74 10.87
4/16/2022 11:00:00 AM 10.19 50.342 0.09 7.26 21.44 10.9
4/16/2022 11:15:00 AM 10.19 50.342 0.09 7.26 21.13 10.87
4/16/2022 11:30:00 AM 10.19 50.342 0.09 7.26 20.98 10.86
4/16/2022 11:45:00 AM 10.2 50.36 0.091 7.26 20.99 10.85
4/16/2022 12:00:00 PM 10.21 50.378 0.09 7.26 21.04 10.84
4/16/2022 12:15:00 PM 10.21 50.378 0.09 7.26 20.88 10.82
4/16/2022 12:30:00 PM 10.21 50.378 0.09 7.26 20.9 10.8
4/16/2022 12:45:00 PM 10.21 50.378 0.09 7.25 21.13 10.78
4/16/2022 1:00:00 PM 10.22 50.396 0.09 7.25 21.22 10.79
4/16/2022 1:15:00 PM 10.24 50.432 0.09 7.25 21.13 10.78
4/16/2022 1:30:00 PM 10.24 50.432 0.09 7.25 21.07 10.78
4/16/2022 1:45:00 PM 10.24 50.432 0.09 7.25 21.29 10.76
4/16/2022 2:00:00 PM 10.24 50.432 0.09 7.25 21.17 10.75
4/16/2022 2:15:00 PM 10.25 50.45 0.09 7.25 21.2 10.74
4/16/2022 2:30:00 PM 10.25 50.45 0.09 7.25 21.21 10.72
4/16/2022 2:45:00 PM 10.25 50.45 0.089 7.24 21.21 10.72
4/16/2022 3:00:00 PM 10.23 50.414 0.089 7.24 21.16 10.72
4/16/2022 3:15:00 PM 10.24 50.432 0.089 7.25 20.92 10.74
4/16/2022 3:30:00 PM 10.22 50.396 0.089 7.25 21.13 10.74
4/16/2022 3:45:00 PM 10.21 50.378 0.089 7.25 21.17 10.74
4/16/2022 4:00:00 PM 10.19 50.342 0.089 7.25 21.27 10.74
4/16/2022 4:15:00 PM 10.18 50.324 0.089 7.25 21.26 10.73
4/16/2022 4:30:00 PM 10.16 50.288 0.09 7.25 21.19 10.72
4/16/2022 4:45:00 PM 10.15 50.27 0.089 7.24 21.19 10.71
4/16/2022 5:00:00 PM 10.14 50.252 0.09 7.24 21.13 10.7
4/16/2022 5:15:00 PM 10.11 50.198 0.089 7.24 21.11 10.71
4/16/2022 5:30:00 PM 10.1 50.18 0.089 7.23 21.39 10.7
4/16/2022 5:45:00 PM 10.08 50.144 0.089 7.23 21.13 10.69
4/16/2022 6:00:00 PM 10.06 50.108 0.09 7.23 21.39 10.69
4/16/2022 6:15:00 PM 10.04 50.072 0.089 7.23 22.22 10.7
4/16/2022 6:30:00 PM 10.01 50.018 0.089 7.22 25.76 10.68
4/16/2022 6:45:00 PM 9.99 49.982 0.089 7.22 24.05 10.68
4/16/2022 7:00:00 PM 9.96 49.928 0.089 7.22 23.6 10.67
4/16/2022 7:15:00 PM 9.93 49.874 0.089 7.21 23.7 10.66
4/16/2022 7:30:00 PM 9.89 49.802 0.089 7.2 23.43 10.64
4/16/2022 7:45:00 PM 9.86 49.748 0.089 7.2 23.47 10.64
4/16/2022 8:00:00 PM 9.83 49.694 0.089 7.19 23.57 10.63
4/16/2022 8:15:00 PM 9.8 49.64 0.088 7.19 22.61 10.63
4/16/2022 8:30:00 PM 9.76 49.568 0.089 7.18 22.47 10.62
4/16/2022 8:45:00 PM 9.73 49.514 0.089 7.18 22.45 10.62
4/16/2022 9:00:00 PM 9.7 49.46 0.089 7.17 22.24 10.62
4/16/2022 9:15:00 PM 9.65 49.37 0.089 7.17 19.26 10.64
4/16/2022 9:30:00 PM 9.61 49.298 0.089 7.16 21.17 10.63
4/16/2022 9:45:00 PM 9.56 49.208 0.089 7.16 21.53 10.65
4/16/2022 10:00:00 PM 9.51 49.118 0.089 7.16 20.82 10.65
4/16/2022 10:15:00 PM 9.47 49.046 0.089 7.15 20.39 10.66
4/16/2022 10:30:00 PM 9.43 48.974 0.089 7.15 36.12 10.67
4/16/2022 10:45:00 PM 9.4 48.92 0.088 7.15 21.34 10.68
4/16/2022 11:00:00 PM 9.35 48.83 0.089 7.15 21.2 10.69
4/16/2022 11:15:00 PM 9.3 48.74 0.088 7.15 20.18 10.7
4/16/2022 11:30:00 PM 9.25 48.65 0.088 7.15 22.46 10.71
4/16/2022 11:45:00 PM 9.19 48.542 0.088 7.15 22.44 10.73
4/17/2022 12:00:00 AM 9.12 48.416 0.088 7.15 22.63 10.74
4/17/2022 12:15:00 AM 9.05 48.29 0.088 7.15 23.08 10.77
4/17/2022 12:30:00 AM 8.97 48.146 0.089 7.15 22.73 10.78
4/17/2022 12:45:00 AM 8.89 48.002 0.088 7.15 23.16 10.8
4/17/2022 1:00:00 AM 8.81 47.858 0.088 7.15 21.09 10.83
4/17/2022 1:15:00 AM 8.74 47.732 0.089 7.15 21.32 10.85
4/17/2022 1:30:00 AM 8.67 47.606 0.088 7.15 24.16 10.87
4/17/2022 1:45:00 AM 8.6 47.48 0.088 7.15 23.77 10.89
4/17/2022 2:00:00 AM 8.53 47.354 0.089 7.15 23.94 10.91
4/17/2022 2:15:00 AM 8.46 47.228 0.089 7.15 22.45 10.93
4/17/2022 2:30:00 AM 8.39 47.102 0.089 7.15 21.21 10.95
4/17/2022 2:45:00 AM 8.32 46.976 0.089 7.15 20.6 10.97
4/17/2022 3:00:00 AM 8.26 46.868 0.089 7.15 21.29 11
4/17/2022 3:15:00 AM 8.2 46.76 0.089 7.15 21.12 11.02
4/17/2022 3:30:00 AM 8.13 46.634 0.089 7.15 21.74 11.04
4/17/2022 3:45:00 AM 8.06 46.508 0.088 7.15 21.75 11.06
4/17/2022 4:00:00 AM 7.99 46.382 0.088 7.15 22.2 11.08
4/17/2022 4:15:00 AM 7.92 46.256 0.088 7.15 21.47 11.1
4/17/2022 4:30:00 AM 7.85 46.13 0.089 7.15 17.66 11.12
4/17/2022 4:45:00 AM 7.78 46.004 0.089 7.15 14.11 11.15
4/17/2022 5:00:00 AM 7.72 45.896 0.089 7.14 19.57 11.17
4/17/2022 5:15:00 AM 7.66 45.788 0.089 7.14 18.94 11.19
4/17/2022 5:30:00 AM 7.61 45.698 0.089 7.14 20.77 11.21
4/17/2022 5:45:00 AM 7.55 45.59 0.088 7.14 19.4 11.23
4/17/2022 6:00:00 AM 7.5 45.5 0.089 7.14 15.79 11.25
4/17/2022 6:15:00 AM 7.45 45.41 0.088 7.14 14.62 11.27
4/17/2022 6:30:00 AM 7.39 45.302 0.087 7.14 14.28 11.29
4/17/2022 6:45:00 AM 7.35 45.23 0.089 7.15 13.72 11.33
4/17/2022 7:00:00 AM 7.3 45.14 0.089 7.15 15.11 11.36
4/17/2022 7:15:00 AM 7.27 45.086 0.089 7.15 13.77 11.41
4/17/2022 7:30:00 AM 7.23 45.014 0.089 7.16 15.66 11.44
4/17/2022 7:45:00 AM 7.21 44.978 0.09 7.17 15.21 11.5
4/17/2022 8:00:00 AM 7.19 44.942 0.089 7.18 16.61 11.55
4/17/2022 8:15:00 AM 7.18 44.924 0.089 7.19 16.35 11.61
4/17/2022 8:30:00 AM 7.2 44.96 0.089 7.2 15.86 11.65
4/17/2022 8:45:00 AM 7.2 44.96 0.09 7.22 14.16 11.71
4/17/2022 9:00:00 AM 7.19 44.942 0.09 7.23 13.51 11.74
4/17/2022 9:15:00 AM 7.18 44.924 0.089 7.23 15.83 11.76
4/17/2022 9:30:00 AM 7.16 44.888 0.09 7.24 17.94 11.78
4/17/2022 9:45:00 AM 7.15 44.87 0.089 7.25 17.63 11.81
4/17/2022 10:00:00 AM 7.21 44.978 0.089 7.26 14.62 11.84
4/17/2022 10:15:00 AM 7.33 45.194 0.088 7.27 22.5 11.87
4/17/2022 10:30:00 AM 7.14 44.852 0.089 7.27 13.21 11.84
4/17/2022 10:45:00 AM 7.27 45.086 0.089 7.28 11.71 11.89
4/17/2022 11:00:00 AM 7.29 45.122 0.089 7.29 13.4 11.91
4/17/2022 11:15:00 AM 7.33 45.194 0.088 7.3 18.88 11.93
4/17/2022 11:30:00 AM 7.47 45.446 0.089 7.31 12.55 11.93
4/17/2022 11:45:00 AM 7.55 45.59 0.088 7.31 12.24 11.95
4/17/2022 12:00:00 PM 7.63 45.734 0.088 7.32 13.84 11.95
4/17/2022 12:15:00 PM 7.89 46.202 0.089 7.33 12.35 11.94
4/17/2022 12:30:00 PM 8 46.4 0.088 7.33 218.6 11.93
4/17/2022 12:45:00 PM 8.11 46.598 0.089 7.34 22.81 11.9
4/17/2022 1:00:00 PM 8.27 46.886 0.089 7.35 27.04 11.86
4/17/2022 1:15:00 PM 8.38 47.084 0.089 7.35 21.18 11.87
4/17/2022 1:30:00 PM 8.61 47.498 0.087 7.36 19.04 11.83
4/17/2022 1:45:00 PM 8.86 47.948 0.088 7.36 21.74 11.79
4/17/2022 2:00:00 PM 9.12 48.416 0.088 7.37 23.96 11.75
4/17/2022 2:15:00 PM 9.43 48.974 0.088 7.38 24.48 11.69
4/17/2022 2:30:00 PM 9.63 49.334 0.088 7.38 24.12 11.65
4/17/2022 2:45:00 PM 9.79 49.622 0.087 7.39 22.61 11.6
4/17/2022 3:00:00 PM 9.84 49.712 0.087 7.39 22.81 11.54
4/17/2022 3:15:00 PM 9.9 49.82 0.089 7.39 22.72 11.51
4/17/2022 3:30:00 PM 9.99 49.982 0.089 7.39 22.53 11.47
4/17/2022 3:45:00 PM 9.79 49.622 0.088 7.39 22.8 11.45
4/17/2022 4:00:00 PM 9.82 49.676 0.087 7.39 22.72 11.42
4/17/2022 4:15:00 PM 9.82 49.676 0.088 7.39 22.87 11.39
4/17/2022 4:30:00 PM 9.84 49.712 0.088 7.39 23.08 11.36
4/17/2022 4:45:00 PM 10.04 50.072 0.088 7.39 22.88 11.32
4/17/2022 5:00:00 PM 10.17 50.306 0.089 7.39 22.62 11.29
4/17/2022 5:15:00 PM 10.02 50.036 0.087 7.39 22.79 11.26
4/17/2022 5:30:00 PM 10.14 50.252 0.088 7.39 25.28 11.24
4/17/2022 5:45:00 PM 10.11 50.198 0.089 7.39 26.65 11.2
4/17/2022 6:00:00 PM 10.12 50.216 0.089 7.38 23.64 11.15
4/17/2022 6:15:00 PM 10.12 50.216 0.089 7.37 22.04 11.12
4/17/2022 6:30:00 PM 10.07 50.126 0.088 7.36 22.08 11.07
4/17/2022 6:45:00 PM 10.04 50.072 0.088 7.35 19.58 11.04
4/17/2022 7:00:00 PM 9.97 49.946 0.088 7.33 19.96 11
4/17/2022 7:15:00 PM 9.9 49.82 0.088 7.32 20.12 10.97
4/17/2022 7:30:00 PM 9.84 49.712 0.087 7.3 21.14 10.94
4/17/2022 7:45:00 PM 9.78 49.604 0.088 7.29 20.96 10.92
4/17/2022 8:00:00 PM 9.71 49.478 0.088 7.27 21.01 10.88
4/17/2022 8:15:00 PM 9.63 49.334 0.088 7.26 21.01 10.88
4/17/2022 8:30:00 PM 9.54 49.172 0.088 7.25 25.33 10.85
4/17/2022 8:45:00 PM 9.45 49.01 0.088 7.24 19.73 10.86
4/17/2022 9:00:00 PM 9.34 48.812 0.088 7.23 20.15 10.86
4/17/2022 9:15:00 PM 9.22 48.596 0.088 7.21 21.64 10.86
4/17/2022 9:30:00 PM 9.1 48.38 0.088 7.2 27.29 10.88
4/17/2022 9:45:00 PM 8.97 48.146 0.088 7.19 44.41 10.91
4/17/2022 10:00:00 PM 8.84 47.912 0.088 7.18 39.61 10.94
4/17/2022 10:15:00 PM 8.71 47.678 0.088 7.18 39.94 10.97
4/17/2022 10:30:00 PM 8.58 47.444 0.088 7.16 39.03 11
4/17/2022 10:45:00 PM 8.45 47.21 0.089 7.17 36.35 11.03
4/17/2022 11:00:00 PM 8.33 46.994 0.088 7.16 37.02 11.06
4/17/2022 11:15:00 PM 8.21 46.778 0.089 7.16 33.39 11.09
4/17/2022 11:30:00 PM 8.09 46.562 0.088 7.15 33.96 11.12
4/17/2022 11:45:00 PM 7.97 46.346 0.089 7.15 35.43 11.16
4/18/2022 12:00:00 AM 7.85 46.13 0.09 7.14 35.16 11.18
4/18/2022 12:15:00 AM 7.73 45.914 0.089 7.14 34.69 11.22
4/18/2022 12:30:00 AM 7.61 45.698 0.089 7.14 33.97 11.26
4/18/2022 12:45:00 AM 7.49 45.482 0.089 7.14 33.84 11.29
4/18/2022 1:00:00 AM 7.38 45.284 0.089 7.13 33.72 11.33
4/18/2022 1:15:00 AM 7.26 45.068 0.09 7.13 33.9 11.37
4/18/2022 1:30:00 AM 7.15 44.87 0.089 7.13 33.98 11.4
4/18/2022 1:45:00 AM 7.03 44.654 0.09 7.13 36.68 11.45
4/18/2022 2:00:00 AM 6.92 44.456 0.089 7.1 35.65 11.48
4/18/2022 2:15:00 AM 6.82 44.276 0.089 7.06 36.07 11.52
4/18/2022 2:30:00 AM 6.71 44.078 0.089 7.06 40.56 11.55
4/18/2022 2:45:00 AM 6.61 43.898 0.09 7.05 37.1 11.58
4/18/2022 3:00:00 AM 6.51 43.718 0.09 7.05 33.95 11.61
4/18/2022 3:15:00 AM 6.42 43.556 0.09 7.04 33.87 11.64
4/18/2022 3:30:00 AM 6.33 43.394 0.09 7.04 35.23 11.66
4/18/2022 3:45:00 AM 6.23 43.214 0.089 7.04 15.61 11.7
4/18/2022 4:00:00 AM 6.15 43.07 0.091 7.04 21.66 11.72
4/18/2022 4:15:00 AM 6.05 42.89 0.09 7.03 32.02 11.76
4/18/2022 4:30:00 AM 5.97 42.746 0.09 7.03 28.99 11.77
4/18/2022 4:45:00 AM 5.89 42.602 0.09 7.04 28.43 11.81
4/18/2022 5:00:00 AM 5.8 42.44 0.089 7.04 28.23 11.83
4/18/2022 5:15:00 AM 5.72 42.296 0.09 7.04 18.86 11.87
4/18/2022 5:30:00 AM 5.64 42.152 0.089 7.04 18.99 11.9
4/18/2022 5:45:00 AM 5.56 42.008 0.089 7.05 17.57 11.92
4/18/2022 6:00:00 AM 5.47 41.846 0.091 7.05 17.34 11.95
4/18/2022 6:15:00 AM 5.4 41.72 0.09 7.05 18.2 11.97
4/18/2022 6:30:00 AM 5.32 41.576 0.09 7.05 363.77 12.01
4/18/2022 6:45:00 AM 5.27 41.486 0.082 7.06 16.37 12.05
4/18/2022 7:00:00 AM 5.2 41.36 0.09 7.07 13.63 12.1
4/18/2022 7:15:00 AM 5.16 41.288 0.09 7.09 24.64 12.16
4/18/2022 7:30:00 AM 5.13 41.234 0.091 7.11 21.31 12.21
4/18/2022 7:45:00 AM 5.11 41.198 0.09 7.13 15.01 12.26
4/18/2022 8:00:00 AM 5.1 41.18 0.09 7.14 15.01 12.32
4/18/2022 8:15:00 AM 5.13 41.234 0.089 7.16 16.9 12.38
4/18/2022 8:30:00 AM 5.13 41.234 0.089 7.18 16.15 12.41
4/18/2022 8:45:00 AM 5.16 41.288 0.091 7.2 15.69 12.46
4/18/2022 9:00:00 AM 5.23 41.414 0.091 7.21 15.83 12.48
4/18/2022 9:15:00 AM 5.23 41.414 0.09 7.22 15.54 12.52
4/18/2022 9:30:00 AM 5.28 41.504 0.09 7.24 15.95 12.54
4/18/2022 9:45:00 AM 5.35 41.63 0.091 7.25 15.62 12.56
4/18/2022 10:00:00 AM 5.43 41.774 0.091 7.26 15.43 12.56
4/18/2022 10:15:00 AM 5.53 41.954 0.09 7.27 15.47 12.57
4/18/2022 10:30:00 AM 5.61 42.098 0.089 7.28 15.24 12.58
4/18/2022 10:45:00 AM 5.7 42.26 0.09 7.29 15.13 12.57
4/18/2022 11:00:00 AM 5.72 42.296 0.09 7.29 15.09 12.55
4/18/2022 11:15:00 AM 5.75 42.35 0.09 7.3 14.79 12.55
4/18/2022 11:30:00 AM 5.81 42.458 0.09 7.31 15.04 12.54
4/18/2022 11:45:00 AM 5.88 42.584 0.09 7.31 15.02 12.53
4/18/2022 12:00:00 PM 5.94 42.692 0.09 7.32 15.2 12.51
4/18/2022 12:15:00 PM 5.99 42.782 0.09 7.32 15.08 12.49
4/18/2022 12:30:00 PM 6.01 42.818 0.091 7.33 15.63 12.48
4/18/2022 12:45:00 PM 6.07 42.926 0.091 7.33 15.39 12.46
4/18/2022 1:00:00 PM 6.13 43.034 0.09 7.34 15.63 12.44
4/18/2022 1:15:00 PM 6.18 43.124 0.091 7.34 15.64 12.42
4/18/2022 1:30:00 PM 6.2 43.16 0.091 7.35 15.22 12.4
4/18/2022 1:45:00 PM 6.23 43.214 0.09 7.35 15.21 12.38
4/18/2022 2:00:00 PM 6.25 43.25 0.09 7.35 15.25 12.36
4/18/2022 2:15:00 PM 6.27 43.286 0.089 7.35 18.6 12.35
4/18/2022 2:30:00 PM 6.28 43.304 0.091 7.35 18.47 12.33
4/18/2022 2:45:00 PM 6.26 43.268 0.09 7.34 17.95 12.3
4/18/2022 3:00:00 PM 6.23 43.214 0.09 7.34 18.2 12.28
4/18/2022 3:15:00 PM 6.2 43.16 0.089 7.33 17.6 12.26
4/18/2022 3:30:00 PM 6.17 43.106 0.089 7.32 16.18 12.22
4/18/2022 3:45:00 PM 6.11 42.998 0.09 7.32 16.35 12.2
4/18/2022 4:00:00 PM 6.01 42.818 0.09 7.31 16.46 12.18
4/18/2022 4:15:00 PM 5.87 42.566 0.09 7.3 16.8 12.17
4/18/2022 4:30:00 PM 5.79 42.422 0.09 7.3 16.68 12.16
4/18/2022 4:45:00 PM 5.71 42.278 0.089 7.29 15.58 12.16
4/18/2022 5:00:00 PM 5.65 42.17 0.088 7.28 14.61 12.15
4/18/2022 5:15:00 PM 5.6 42.08 0.089 7.28 14.78 12.15
4/18/2022 5:30:00 PM 5.54 41.972 0.088 7.27 15.25 12.15
4/18/2022 5:45:00 PM 5.47 41.846 0.088 7.27 15.1 12.15
4/18/2022 6:00:00 PM 5.46 41.828 0.088 7.26 15.1 12.14
4/18/2022 6:15:00 PM 5.44 41.792 0.088 7.25 16.38 12.14
4/18/2022 6:30:00 PM 5.42 41.756 0.088 7.25 15.42 12.14
4/18/2022 6:45:00 PM 5.34 41.612 0.088 7.24 15.72 12.14
4/18/2022 7:00:00 PM 5.23 41.414 0.089 7.23 15.35 12.14
4/18/2022 7:15:00 PM 5.2 41.36 0.088 7.22 15.32 12.14
4/18/2022 7:30:00 PM 5.17 41.306 0.088 7.22 15.62 12.14
4/18/2022 7:45:00 PM 5.13 41.234 0.089 7.21 15.81 12.14
4/18/2022 8:00:00 PM 5.08 41.144 0.089 7.2 16.43 12.14
4/18/2022 8:15:00 PM 5.06 41.108 0.089 7.19 16.68 12.13
4/18/2022 8:30:00 PM 5.06 41.108 0.089 7.19 16.76 12.12
4/18/2022 8:45:00 PM 5.07 41.126 0.09 7.18 16.8 12.11
4/18/2022 9:00:00 PM 5.07 41.126 0.089 7.18 17 12.09
4/18/2022 9:15:00 PM 5.08 41.144 0.089 7.18 17.01 12.08
4/18/2022 9:30:00 PM 5.08 41.144 0.09 7.17 17.24 12.07
4/18/2022 9:45:00 PM 5.06 41.108 0.09 7.17 17.78 12.07
4/18/2022 10:00:00 PM 5.03 41.054 0.091 7.17 20.51 12.07
4/18/2022 10:15:00 PM 4.99 40.982 0.091 7.17 23.99 12.07
4/18/2022 10:30:00 PM 4.94 40.892 0.092 7.17 22.63 12.08
4/18/2022 10:45:00 PM 4.89 40.802 0.092 7.16 20.82 12.08
4/18/2022 11:00:00 PM 4.8 40.64 0.094 7.16 21.14 12.09
4/18/2022 11:15:00 PM 4.65 40.37 0.092 7.16 20.64 12.09
4/18/2022 11:30:00 PM 4.54 40.172 0.092 7.16 20.32 12.11
4/18/2022 11:45:00 PM 4.43 39.974 0.092 7.16 20.6 12.13
4/19/2022 12:00:00 AM 4.3 39.74 0.093 7.15 20.66 12.16
4/19/2022 12:15:00 AM 4.13 39.434 0.093 7.1 20.44 12.18
4/19/2022 12:30:00 AM 3.93 39.074 0.092 7.09 23.92 12.21
4/19/2022 12:45:00 AM 3.73 38.714 0.092 7.08 27 12.25
4/19/2022 1:00:00 AM 3.47 38.246 0.091 7.06 28.68 12.29
4/19/2022 1:15:00 AM 3.23 37.814 0.091 7.05 23.53 12.35
4/19/2022 1:30:00 AM 3.02 37.436 0.092 7.05 31.77 12.41
4/19/2022 1:45:00 AM 2.89 37.202 0.092 7.04 27.31 12.47
4/19/2022 2:00:00 AM 2.77 36.986 0.092 7.03 20.75 12.52
4/19/2022 2:15:00 AM 2.67 36.806 0.093 7.03 23.22 12.57
4/19/2022 2:30:00 AM 2.65 36.77 0.092 7.02 23.27 12.59
4/19/2022 2:45:00 AM 2.57 36.626 0.092 7.02 22.42 12.63
4/19/2022 3:00:00 AM 2.53 36.554 0.092 7.02 28.73 12.67
4/19/2022 3:15:00 AM 2.48 36.464 0.092 7.03 19.79 12.72
4/19/2022 3:30:00 AM 2.43 36.374 0.094 7.04 22.09 12.76
4/19/2022 3:45:00 AM 2.38 36.284 0.092 7.05 21.58 12.8
4/19/2022 4:00:00 AM 2.35 36.23 0.093 7.05 24.23 12.83
4/19/2022 4:15:00 AM 2.3 36.14 0.091 7.06 20.71 12.86
4/19/2022 4:30:00 AM 2.26 36.068 0.09 7.06 23.3 12.9
4/19/2022 4:45:00 AM 2.24 36.032 0.09 7.06 25.69 12.92
4/19/2022 5:00:00 AM 2.23 36.014 0.09 7.08 22.95 12.93
4/19/2022 5:15:00 AM 2.18 35.924 0.091 7.08 20.57 12.96
4/19/2022 5:30:00 AM 2.11 35.798 0.09 7.07 25.79 12.98
4/19/2022 5:45:00 AM 2.09 35.762 0.09 7.07 20.8 13
4/19/2022 6:00:00 AM 2.07 35.726 0.091 7.08 17.85 13.02
4/19/2022 6:15:00 AM 2.07 35.726 0.09 7.08 18.94 13.04
4/19/2022 6:30:00 AM 2.07 35.726 0.091 7.09 20.35 13.05
4/19/2022 6:45:00 AM 2.07 35.726 0.09 7.09 17.29 13.07
4/19/2022 7:00:00 AM 2.07 35.726 0.09 7.11 20.28 13.08
4/19/2022 7:15:00 AM 2.08 35.744 0.091 7.11 21.98 13.1
4/19/2022 7:30:00 AM 2.1 35.78 0.09 7.12 20.87 13.12
4/19/2022 7:45:00 AM 2.11 35.798 0.091 7.12 18.51 13.14
4/19/2022 8:00:00 AM 2.15 35.87 0.09 7.14 19.4 13.16
4/19/2022 8:15:00 AM 2.18 35.924 0.091 7.14 18.98 13.18
4/19/2022 8:30:00 AM 2.21 35.978 0.09 7.15 19.38 13.19
4/19/2022 8:45:00 AM 2.23 36.014 0.089 7.16 21.61 13.21
4/19/2022 9:00:00 AM 2.32 36.176 0.09 7.16 18.44 13.23
4/19/2022 9:15:00 AM 2.42 36.356 0.09 7.17 17.28 13.22
4/19/2022 9:30:00 AM 2.53 36.554 0.089 7.18 18.31 13.22
4/19/2022 9:45:00 AM 2.67 36.806 0.091 7.18 18.86 13.21
4/19/2022 10:00:00 AM 2.78 37.004 0.091 7.19 17.89 13.2
4/19/2022 10:15:00 AM 2.89 37.202 0.091 7.19 17.67 13.18
4/19/2022 10:30:00 AM 2.98 37.364 0.091 7.2 18.28 13.17
4/19/2022 10:45:00 AM 3.02 37.436 0.09 7.2 18.21 13.15
4/19/2022 11:00:00 AM 3.09 37.562 0.091 7.21 17.94 13.13
4/19/2022 11:15:00 AM 3.17 37.706 0.092 7.21 18.06 13.11
4/19/2022 11:30:00 AM 3.32 37.976 0.092 7.22 17.56 13.08
4/19/2022 11:45:00 AM 3.45 38.21 0.092 7.22 19.03 13.05
4/19/2022 12:00:00 PM 3.58 38.444 0.093 7.22 20.21 13.02
4/19/2022 12:15:00 PM 3.69 38.642 0.093 7.24 20.87 12.99
4/19/2022 12:30:00 PM 3.81 38.858 0.092 7.24 21.86 12.95
4/19/2022 12:45:00 PM 3.9 39.02 0.093 7.24 23.3 12.92
4/19/2022 1:00:00 PM 4.05 39.29 0.094 7.24 22.41 12.89
4/19/2022 1:15:00 PM 4.17 39.506 0.095 7.24 22.38 12.85
4/19/2022 1:30:00 PM 4.32 39.776 0.096 7.25 23.05 12.82
4/19/2022 1:45:00 PM 4.51 40.118 0.095 7.25 24.19 12.78
4/19/2022 2:00:00 PM 4.6 40.28 0.095 7.26 25.76 12.72
4/19/2022 2:15:00 PM 4.77 40.586 0.096 7.26 24.65 12.68
4/19/2022 2:30:00 PM 4.92 40.856 0.097 7.26 23.63 12.63
4/19/2022 2:45:00 PM 4.99 40.982 0.095 7.26 23.1 12.59
4/19/2022 3:00:00 PM 5.05 41.09 0.095 7.26 25.43 12.54
4/19/2022 3:15:00 PM 5.2 41.36 0.096 7.26 24.94 12.5
4/19/2022 3:30:00 PM 5.3 41.54 0.096 7.26 25.1 12.47
4/19/2022 3:45:00 PM 5.46 41.828 0.096 7.26 30.2 12.44
4/19/2022 4:00:00 PM 5.59 42.062 0.096 7.27 24.94 12.4
4/19/2022 4:15:00 PM 5.75 42.35 0.096 7.27 25.27 12.35
4/19/2022 4:30:00 PM 5.81 42.458 0.096 7.27 26.89 12.29
4/19/2022 4:45:00 PM 5.95 42.71 0.096 7.27 29.59 12.24
4/19/2022 5:00:00 PM 6.04 42.872 0.097 7.26 29.27 12.19
4/19/2022 5:15:00 PM 6.13 43.034 0.097 7.26 29.37 12.14
4/19/2022 5:30:00 PM 6.18 43.124 0.097 7.25 27.26 12.09
4/19/2022 5:45:00 PM 6.21 43.178 0.098 7.25 32.69 12.04
4/19/2022 6:00:00 PM 6.24 43.232 0.096 7.24 28.6 12.01
4/19/2022 6:15:00 PM 6.26 43.268 0.097 7.24 30.31 11.98
4/19/2022 6:30:00 PM 6.26 43.268 0.097 7.24 37.86 11.94
4/19/2022 6:45:00 PM 6.25 43.25 0.096 7.23 32.09 11.92
4/19/2022 7:00:00 PM 6.22 43.196 0.097 7.22 33.47 11.91
4/19/2022 7:15:00 PM 6.2 43.16 0.096 7.21 38.3 11.89
4/19/2022 7:30:00 PM 6.15 43.07 0.097 7.2 34.5 11.88
4/19/2022 7:45:00 PM 6.09 42.962 0.097 7.19 38.49 11.86
4/19/2022 8:00:00 PM 6.04 42.872 0.098 7.18 65.83 11.86
4/19/2022 8:15:00 PM 5.97 42.746 0.097 7.17 35.01 11.86
4/19/2022 8:30:00 PM 5.9 42.62 0.096 7.17 32.54 11.87
4/19/2022 8:45:00 PM 5.83 42.494 0.095 7.16 32.35 11.87
4/19/2022 9:00:00 PM 5.77 42.386 0.095 7.15 36.29 11.88
4/19/2022 9:15:00 PM 5.7 42.26 0.095 7.14 34.51 11.89
4/19/2022 9:30:00 PM 5.65 42.17 0.095 7.14 32.25 11.9
4/19/2022 9:45:00 PM 5.59 42.062 0.094 7.15 33.38 11.92
4/19/2022 10:00:00 PM 5.53 41.954 0.096 7.14 53.25 11.94
4/19/2022 10:15:00 PM 5.48 41.864 0.095 7.13 34.93 11.95
4/19/2022 10:30:00 PM 5.43 41.774 0.094 7.13 35.52 11.97
4/19/2022 10:45:00 PM 5.38 41.684 0.096 7.13 37.91 11.98
4/19/2022 11:00:00 PM 5.34 41.612 0.095 7.12 56.93 11.99
4/19/2022 11:15:00 PM 5.3 41.54 0.095 7.12 26.94 12.01
4/19/2022 11:30:00 PM 5.26 41.468 0.096 7.12 28.91 12.02
4/19/2022 11:45:00 PM 5.22 41.396 0.096 7.12 27.6 12.03
4/20/2022 12:00:00 AM 5.19 41.342 0.094 7.12 28.73 12.05
4/20/2022 12:15:00 AM 5.15 41.27 0.094 7.11 29.17 12.06
4/20/2022 12:30:00 AM 5.12 41.216 0.095 7.11 26.73 12.07
4/20/2022 12:45:00 AM 5.09 41.162 0.095 7.11 30.01 12.09
4/20/2022 1:00:00 AM 5.06 41.108 0.095 7.1 29.18 12.1
4/20/2022 1:15:00 AM 5.03 41.054 0.095 7.11 28.06 12.11
4/20/2022 1:30:00 AM 5.01 41.018 0.095 7.1 28.02 12.12
4/20/2022 1:45:00 AM 4.99 40.982 0.097 7.1 29.11 12.13
4/20/2022 2:00:00 AM 4.95 40.91 0.097 7.1 30.46 12.14
4/20/2022 2:15:00 AM 4.93 40.874 0.096 7.1 29.97 12.15
4/20/2022 2:30:00 AM 4.91 40.838 0.097 7.1 30.2 12.16
4/20/2022 2:45:00 AM 4.87 40.766 0.097 7.1 29.16 12.17
4/20/2022 3:00:00 AM 4.83 40.694 0.098 7.1 31.21 12.19
4/20/2022 3:15:00 AM 4.79 40.622 0.097 7.1 30.53 12.2
4/20/2022 3:30:00 AM 4.75 40.55 0.097 7.1 31.5 12.2
4/20/2022 3:45:00 AM 4.72 40.496 0.098 7.09 31.07 12.22
4/20/2022 4:00:00 AM 4.68 40.424 0.098 7.09 31.06 12.23
4/20/2022 4:15:00 AM 4.65 40.37 0.098 7.09 31.28 12.25
4/20/2022 4:30:00 AM 4.63 40.334 0.098 7.09 30.23 12.26
4/20/2022 4:45:00 AM 4.59 40.262 0.098 7.09 35.32 12.27
4/20/2022 5:00:00 AM 4.57 40.226 0.096 7.09 28.11 12.28
4/20/2022 5:15:00 AM 4.54 40.172 0.099 7.09 26.09 12.3
4/20/2022 5:30:00 AM 4.51 40.118 0.097 7.09 26.83 12.3
4/20/2022 5:45:00 AM 4.47 40.046 0.097 7.09 27.17 12.32
4/20/2022 6:00:00 AM 4.44 39.992 0.098 7.08 28.3 12.33
4/20/2022 6:15:00 AM 4.4 39.92 0.097 7.08 27.76 12.34
4/20/2022 6:30:00 AM 4.37 39.866 0.097 7.08 27.44 12.36
4/20/2022 6:45:00 AM 4.33 39.794 0.098 7.08 26.95 12.4
4/20/2022 7:00:00 AM 4.31 39.758 0.098 7.08 26.71 12.43
4/20/2022 7:15:00 AM 4.3 39.74 0.098 7.09 27.26 12.46
4/20/2022 7:30:00 AM 4.28 39.704 0.097 7.09 27.8 12.49
4/20/2022 7:45:00 AM 4.28 39.704 0.098 7.09 26.8 12.53
4/20/2022 8:00:00 AM 4.29 39.722 0.098 7.1 26.94 12.56
4/20/2022 8:15:00 AM 4.31 39.758 0.098 7.1 26.83 12.58
4/20/2022 8:30:00 AM 4.35 39.83 0.098 7.11 26.45 12.61
4/20/2022 8:45:00 AM 4.4 39.92 0.096 7.11 26.33 12.63
4/20/2022 9:00:00 AM 4.47 40.046 0.096 7.12 26.33 12.65
4/20/2022 9:15:00 AM 4.56 40.208 0.096 7.13 26.44 12.66
4/20/2022 9:30:00 AM 4.66 40.388 0.097 7.13 26.15 12.67
4/20/2022 9:45:00 AM 4.77 40.586 0.098 7.14 26.58 12.67
4/20/2022 10:00:00 AM 4.89 40.802 0.096 7.15 26.54 12.67
4/20/2022 10:15:00 AM 5.06 41.108 0.095 7.15 26.87 12.66
4/20/2022 10:30:00 AM 5.25 41.45 0.096 7.16 27.12 12.64
4/20/2022 10:45:00 AM 5.42 41.756 0.096 7.17 28.45 12.62
4/20/2022 11:00:00 AM 5.65 42.17 0.096 7.17 38.22 12.59
4/20/2022 11:15:00 AM 5.89 42.602 0.096 7.18 25.91 12.56
4/20/2022 11:30:00 AM 6.14 43.052 0.096 7.19 31.09 12.51
4/20/2022 11:45:00 AM 6.4 43.52 0.095 7.19 21.42 12.46
4/20/2022 12:00:00 PM 6.69 44.042 0.096 7.2 26.09 12.4
4/20/2022 12:15:00 PM 7.01 44.618 0.095 7.21 26.94 12.35
4/20/2022 12:30:00 PM 7.33 45.194 0.095 7.22 27.16 12.27
4/20/2022 12:45:00 PM 7.58 45.644 0.096 7.22 27.3 12.23
4/20/2022 1:00:00 PM 7.88 46.184 0.097 7.23 28.25 12.15
4/20/2022 1:15:00 PM 8.18 46.724 0.096 7.24 28 12.07
4/20/2022 1:30:00 PM 8.43 47.174 0.097 7.25 27.26 12
4/20/2022 1:45:00 PM 8.7 47.66 0.096 7.26 28 11.92
4/20/2022 2:00:00 PM 8.95 48.11 0.096 7.27 29.36 11.85
4/20/2022 2:15:00 PM 9.18 48.524 0.096 7.28 30 11.76
4/20/2022 2:30:00 PM 9.4 48.92 0.098 7.29 31.31 11.67
4/20/2022 2:45:00 PM 9.6 49.28 0.097 7.3 34.61 11.59
4/20/2022 3:00:00 PM 9.79 49.622 0.097 7.3 44.69 11.5
4/20/2022 3:15:00 PM 9.93 49.874 0.097 7.31 44.22 11.42
4/20/2022 3:30:00 PM 10.05 50.09 0.095 7.31 48.09 11.37
4/20/2022 3:45:00 PM 10.16 50.288 0.095 7.31 49.29 11.31
4/20/2022 4:00:00 PM 10.24 50.432 0.094 7.3 49.53 11.26
4/20/2022 4:15:00 PM 10.32 50.576 0.093 7.3 47.52 11.22
4/20/2022 4:30:00 PM 10.38 50.684 0.093 7.3 43.83 11.18
4/20/2022 4:45:00 PM 10.42 50.756 0.091 7.3 43.38 11.14
4/20/2022 5:00:00 PM 10.45 50.81 0.091 7.29 45.05 11.1
4/20/2022 5:15:00 PM 10.47 50.846 0.091 7.29 43.38 11.06
4/20/2022 5:30:00 PM 10.45 50.81 0.091 7.28 43.27 11.03
4/20/2022 5:45:00 PM 10.44 50.792 0.09 7.27 54.82 11
4/20/2022 6:00:00 PM 10.4 50.72 0.089 7.26 49.33 10.99
4/20/2022 6:15:00 PM 10.34 50.612 0.089 7.26 41.31 10.97
4/20/2022 6:30:00 PM 10.27 50.486 0.088 7.25 48.76 10.96
4/20/2022 6:45:00 PM 10.17 50.306 0.089 7.24 48.53 10.96
4/20/2022 7:00:00 PM 10.07 50.126 0.089 7.22 47.38 10.95
4/20/2022 7:15:00 PM 9.95 49.91 0.089 7.21 46.88 10.94
4/20/2022 7:30:00 PM 9.85 49.73 0.088 7.2 50.68 10.93
4/20/2022 7:45:00 PM 9.74 49.532 0.088 7.18 52.61 10.94
4/20/2022 8:00:00 PM 9.63 49.334 0.087 7.18 52.19 10.94
4/20/2022 8:15:00 PM 9.53 49.154 0.088 7.16 53.74 10.95
4/20/2022 8:30:00 PM 9.43 48.974 0.087 7.15 54.23 10.96
4/20/2022 8:45:00 PM 9.33 48.794 0.087 7.14 63.07 10.97
4/20/2022 9:00:00 PM 9.22 48.596 0.087 7.13 40.89 10.99
4/20/2022 9:15:00 PM 9.11 48.398 0.086 7.12 53.3 11
4/20/2022 9:30:00 PM 9.01 48.218 0.087 7.11 57.44 11.03
4/20/2022 9:45:00 PM 8.91 48.038 0.087 7.1 56.25 11.05
4/20/2022 10:00:00 PM 8.82 47.876 0.086 7.1 54.98 11.07
4/20/2022 10:15:00 PM 8.72 47.696 0.086 7.09 52.52 11.1
4/20/2022 10:30:00 PM 8.61 47.498 0.086 7.09 52.84 11.13
4/20/2022 10:45:00 PM 8.51 47.318 0.085 7.09 53.26 11.16
4/20/2022 11:00:00 PM 8.41 47.138 0.086 7.09 52.46 11.19
4/20/2022 11:15:00 PM 8.31 46.958 0.085 7.08 44.17 11.22
4/20/2022 11:30:00 PM 8.21 46.778 0.085 7.08 49.71 11.25
4/20/2022 11:45:00 PM 8.11 46.598 0.085 7.07 50.99 11.28
4/21/2022 12:00:00 AM 8.01 46.418 0.084 7.07 51.94 11.31
4/21/2022 12:15:00 AM 7.92 46.256 0.085 7.06 48.46 11.34
4/21/2022 12:30:00 AM 7.83 46.094 0.085 7.06 48.13 11.37
4/21/2022 12:45:00 AM 7.75 45.95 0.085 7.06 47.55 11.41
4/21/2022 1:00:00 AM 7.67 45.806 0.085 7.05 46.75 11.43
4/21/2022 1:15:00 AM 7.6 45.68 0.085 7.05 46.57 11.45
4/21/2022 1:30:00 AM 7.53 45.554 0.086 7.05 47.75 11.48
4/21/2022 1:45:00 AM 7.46 45.428 0.085 7.05 46.14 11.5
4/21/2022 2:00:00 AM 7.39 45.302 0.084 7.05 46.21 11.52
4/21/2022 2:15:00 AM 7.32 45.176 0.085 7.04 48.81 11.55
4/21/2022 2:30:00 AM 7.24 45.032 0.086 7.04 45.43 11.57
4/21/2022 2:45:00 AM 7.17 44.906 0.085 7.04 45.84 11.6
4/21/2022 3:00:00 AM 7.09 44.762 0.085 7.04 44.94 11.62
4/21/2022 3:15:00 AM 7.02 44.636 0.085 7.03 44.83 11.64
4/21/2022 3:30:00 AM 6.95 44.51 0.085 7.03 44.46 11.66
4/21/2022 3:45:00 AM 6.89 44.402 0.084 7.03 45.28 11.68
4/21/2022 4:00:00 AM 6.82 44.276 0.085 7.03 43.78 11.69
4/21/2022 4:15:00 AM 6.76 44.168 0.085 7.03 44.71 11.72
4/21/2022 4:30:00 AM 6.71 44.078 0.085 7.02 41.8 11.74
4/21/2022 4:45:00 AM 6.66 43.988 0.086 7.02 44.04 11.75
4/21/2022 5:00:00 AM 6.61 43.898 0.085 7.02 51.05 11.77
4/21/2022 5:15:00 AM 6.57 43.826 0.085 7.02 46.23 11.79
4/21/2022 5:30:00 AM 6.53 43.754 0.084 7.02 44.89 11.8
4/21/2022 5:45:00 AM 6.49 43.682 0.087 7.01 44.33 11.81
4/21/2022 6:00:00 AM 6.44 43.592 0.084 7.01 44.4 11.83
4/21/2022 6:15:00 AM 6.4 43.52 0.085 7.01 42.34 11.85
4/21/2022 6:30:00 AM 6.36 43.448 0.085 7.01 44.52 11.86
4/21/2022 6:45:00 AM 6.33 43.394 0.085 7.01 42.32 11.87
4/21/2022 7:00:00 AM 6.29 43.322 0.086 7.01 41.73 11.9
4/21/2022 7:15:00 AM 6.28 43.304 0.086 7.02 43.25 11.92
4/21/2022 7:30:00 AM 6.28 43.304 0.085 7.02 43.27 11.95
4/21/2022 7:45:00 AM 6.29 43.322 0.085 7.03 43.04 11.98
4/21/2022 8:00:00 AM 6.3 43.34 0.084 7.04 42.23 12
4/21/2022 8:15:00 AM 6.33 43.394 0.085 7.04 41.62 12.02
4/21/2022 8:30:00 AM 6.36 43.448 0.084 7.05 41.8 12.04
4/21/2022 8:45:00 AM 6.4 43.52 0.085 7.05 41.44 12.06
4/21/2022 9:00:00 AM 6.48 43.664 0.085 7.07 41.24 12.07
4/21/2022 9:15:00 AM 6.54 43.772 0.086 7.07 42.04 12.09
4/21/2022 9:30:00 AM 6.61 43.898 0.085 7.08 41.43 12.09
4/21/2022 9:45:00 AM 6.69 44.042 0.086 7.09 41.45 12.09
4/21/2022 10:00:00 AM 6.77 44.186 0.085 7.09 42.83 12.09
4/21/2022 10:15:00 AM 6.85 44.33 0.084 7.1 40.76 12.09
4/21/2022 10:30:00 AM 6.93 44.474 0.083 7.11 40.35 12.07
4/21/2022 10:45:00 AM 7.02 44.636 0.084 7.11 52.73 12.06
4/21/2022 11:00:00 AM 7.13 44.834 0.084 7.12 43.07 12.05
4/21/2022 11:15:00 AM 7.29 45.122 0.084 7.13 45.5 12.03
4/21/2022 11:30:00 AM 7.44 45.392 0.083 7.13 42.3 12.01
4/21/2022 11:45:00 AM 7.63 45.734 0.082 7.14 41.94 11.99
4/21/2022 12:00:00 PM 7.73 45.914 0.084 7.14 41.28 11.94
4/21/2022 12:15:00 PM 7.8 46.04 0.084 7.15 43.07 11.89
4/21/2022 12:30:00 PM 7.85 46.13 0.083 7.14 43.88 11.85
4/21/2022 12:45:00 PM 7.89 46.202 0.083 7.14 42.76 11.81
4/21/2022 1:00:00 PM 7.93 46.274 0.083 7.14 41.54 11.78
4/21/2022 1:15:00 PM 7.96 46.328 0.082 7.14 41.07 11.74
4/21/2022 1:30:00 PM 8 46.4 0.083 7.13 40.16 11.7
4/21/2022 1:45:00 PM 8.05 46.49 0.083 7.13 41.85 11.66
4/21/2022 2:00:00 PM 8.1 46.58 0.083 7.12 40.61 11.63
4/21/2022 2:15:00 PM 8.15 46.67 0.082 7.12 39.16 11.6
4/21/2022 2:30:00 PM 8.2 46.76 0.083 7.12 41.24 11.56
4/21/2022 2:45:00 PM 8.24 46.832 0.082 7.11 42.59 11.52
4/21/2022 3:00:00 PM 8.27 46.886 0.083 7.1 43.89 11.47
4/21/2022 3:15:00 PM 8.3 46.94 0.083 7.09 44.62 11.45
4/21/2022 3:30:00 PM 8.31 46.958 0.082 7.09 42.93 11.42
4/21/2022 3:45:00 PM 8.33 46.994 0.082 7.08 42.69 11.41
4/21/2022 4:00:00 PM 8.34 47.012 0.083 7.08 42.16 11.39
4/21/2022 4:15:00 PM 8.35 47.03 0.083 7.08 43.26 11.39
4/21/2022 4:30:00 PM 8.36 47.048 0.083 7.08 43.37 11.39
4/21/2022 4:45:00 PM 8.37 47.066 0.082 7.08 42.82 11.38
4/21/2022 5:00:00 PM 8.38 47.084 0.082 7.07 42.65 11.36
4/21/2022 5:15:00 PM 8.38 47.084 0.083 7.07 41.43 11.35
4/21/2022 5:30:00 PM 8.39 47.102 0.083 7.06 41.84 11.35
4/21/2022 5:45:00 PM 8.39 47.102 0.082 7.06 51.07 11.33
4/21/2022 6:00:00 PM 8.4 47.12 0.082 7.06 42.58 11.33
4/21/2022 6:15:00 PM 8.4 47.12 0.081 7.06 41.13 11.32
4/21/2022 6:30:00 PM 8.4 47.12 0.083 7.06 42.34 11.31
4/21/2022 6:45:00 PM 8.4 47.12 0.083 7.06 45.47 11.33
4/21/2022 7:00:00 PM 8.4 47.12 0.082 7.05 42.49 11.31
4/21/2022 7:15:00 PM 8.4 47.12 0.082 7.05 43.05 11.31
4/21/2022 7:30:00 PM 8.4 47.12 0.082 7.05 43.97 11.29
4/21/2022 7:45:00 PM 8.39 47.102 0.082 7.04 41.14 11.29
4/21/2022 8:00:00 PM 8.38 47.084 0.082 7.04 41.24 11.28
4/21/2022 8:15:00 PM 8.36 47.048 0.081 7.03 44.15 11.28
4/21/2022 8:30:00 PM 8.35 47.03 0.081 7.03 45.92 11.27
4/21/2022 8:45:00 PM 8.34 47.012 0.081 7.02 43.95 11.27
4/21/2022 9:00:00 PM 8.32 46.976 0.082 7.02 42.17 11.27
4/21/2022 9:15:00 PM 8.31 46.958 0.082 7.02 42.54 11.27
4/21/2022 9:30:00 PM 8.3 46.94 0.081 7.01 42.92 11.28
4/21/2022 9:45:00 PM 8.28 46.904 0.083 7.01 44.62 11.27
4/21/2022 10:00:00 PM 8.26 46.868 0.082 7 42.77 11.28
4/21/2022 10:15:00 PM 8.24 46.832 0.081 7 43.68 11.28
4/21/2022 10:30:00 PM 8.23 46.814 0.083 7 41.98 11.28
4/21/2022 10:45:00 PM 8.21 46.778 0.082 6.99 42.93 11.29
4/21/2022 11:00:00 PM 8.18 46.724 0.082 6.99 42.94 11.3
4/21/2022 11:15:00 PM 8.16 46.688 0.082 6.99 43.04 11.3
4/21/2022 11:30:00 PM 8.13 46.634 0.082 6.99 40.83 11.31
4/21/2022 11:45:00 PM 8.1 46.58 0.083 6.98 42.33 11.31
4/22/2022 12:00:00 AM 8.07 46.526 0.082 6.98 41.95 11.32
4/22/2022 12:15:00 AM 8.03 46.454 0.082 6.98 42.51 11.33
4/22/2022 12:30:00 AM 8 46.4 0.081 6.98 40.98 11.33
4/22/2022 12:45:00 AM 7.97 46.346 0.081 6.98 42.38 11.34
4/22/2022 1:00:00 AM 7.95 46.31 0.081 6.98 40.76 11.35
4/22/2022 1:15:00 AM 7.93 46.274 0.082 6.98 39.8 11.36
4/22/2022 1:30:00 AM 7.89 46.202 0.081 6.98 41.63 11.37
4/22/2022 1:45:00 AM 7.86 46.148 0.083 6.98 39.68 11.38
4/22/2022 2:00:00 AM 7.82 46.076 0.082 6.98 42.72 11.39
4/22/2022 2:15:00 AM 7.79 46.022 0.082 6.98 39.99 11.4
4/22/2022 2:30:00 AM 7.75 45.95 0.083 6.98 40.84 11.41
4/22/2022 2:45:00 AM 7.71 45.878 0.082 6.99 39.44 11.42
4/22/2022 3:00:00 AM 7.68 45.824 0.083 6.98 37.75 11.43
4/22/2022 3:15:00 AM 7.64 45.752 0.082 6.99 39.14 11.44
4/22/2022 3:30:00 AM 7.61 45.698 0.082 6.99 39.49 11.45
4/22/2022 3:45:00 AM 7.58 45.644 0.082 6.99 40.63 11.47
4/22/2022 4:00:00 AM 7.55 45.59 0.082 6.99 38 11.48
4/22/2022 4:15:00 AM 7.52 45.536 0.081 6.99 35.79 11.49
4/22/2022 4:30:00 AM 7.5 45.5 0.083 7 38.55 11.49
4/22/2022 4:45:00 AM 7.47 45.446 0.083 7 35.9 11.51
4/22/2022 5:00:00 AM 7.43 45.374 0.082 7 40.2 11.52
4/22/2022 5:15:00 AM 7.4 45.32 0.082 7 35.79 11.52
4/22/2022 5:30:00 AM 7.37 45.266 0.081 7 36.45 11.54
4/22/2022 5:45:00 AM 7.35 45.23 0.082 7 36.21 11.55
4/22/2022 6:00:00 AM 7.32 45.176 0.082 7 34.13 11.56
4/22/2022 6:15:00 AM 7.3 45.14 0.082 7 34.8 11.57
4/22/2022 6:30:00 AM 7.28 45.104 0.083 7 33.46 11.58
4/22/2022 6:45:00 AM 7.25 45.05 0.081 7 34.41 11.6
4/22/2022 7:00:00 AM 7.24 45.032 0.082 7 34.81 11.62
4/22/2022 7:15:00 AM 7.23 45.014 0.082 7.01 32.65 11.65
4/22/2022 7:30:00 AM 7.23 45.014 0.082 7.01 35.01 11.68
4/22/2022 7:45:00 AM 7.23 45.014 0.082 7.02 32.68 11.72
4/22/2022 8:00:00 AM 7.25 45.05 0.082 7.03 33.24 11.76
4/22/2022 8:15:00 AM 7.28 45.104 0.083 7.04 33.51 11.79
4/22/2022 8:30:00 AM 7.32 45.176 0.082 7.05 33.42 11.83
4/22/2022 8:45:00 AM 7.37 45.266 0.081 7.07 30.95 11.85
4/22/2022 9:00:00 AM 7.42 45.356 0.081 7.08 33.88 11.87
4/22/2022 9:15:00 AM 7.49 45.482 0.082 7.08 33.53 11.88
4/22/2022 9:30:00 AM 7.59 45.662 0.082 7.09 33.73 11.89
4/22/2022 9:45:00 AM 7.7 45.86 0.082 7.1 33.17 11.89
4/22/2022 10:00:00 AM 7.82 46.076 0.081 7.11 33.02 11.89
4/22/2022 10:15:00 AM 7.96 46.328 0.081 7.12 32.7 11.88
4/22/2022 10:30:00 AM 8.11 46.598 0.082 7.13 33.43 11.86
4/22/2022 10:45:00 AM 8.27 46.886 0.082 7.14 33.58 11.85
4/22/2022 11:00:00 AM 8.47 47.246 0.081 7.15 33.51 11.82
4/22/2022 11:15:00 AM 8.67 47.606 0.082 7.16 34.88 11.78
4/22/2022 11:30:00 AM 8.88 47.984 0.081 7.17 34.02 11.75
4/22/2022 11:45:00 AM 9.1 48.38 0.081 7.17 33.98 11.71
4/22/2022 12:00:00 PM 9.34 48.812 0.081 7.18 33.43 11.67
4/22/2022 12:15:00 PM 9.57 49.226 0.081 7.19 34.65 11.62
4/22/2022 12:30:00 PM 9.82 49.676 0.08 7.2 33.87 11.56
4/22/2022 12:45:00 PM 10.07 50.126 0.081 7.21 34.76 11.51
4/22/2022 1:00:00 PM 10.32 50.576 0.082 7.22 35.62 11.45
4/22/2022 1:15:00 PM 10.56 51.008 0.081 7.22 36.11 11.39
4/22/2022 1:30:00 PM 10.8 51.44 0.081 7.23 37.44 11.33
4/22/2022 1:45:00 PM 11.04 51.872 0.081 7.23 37.04 11.27
4/22/2022 2:00:00 PM 11.28 52.304 0.081 7.24 38.43 11.21
4/22/2022 2:15:00 PM 11.5 52.7 0.08 7.24 38.92 11.15
4/22/2022 2:30:00 PM 11.7 53.06 0.08 7.25 38.58 11.1
4/22/2022 2:45:00 PM 11.9 53.42 0.081 7.25 40.32 11.04
4/22/2022 3:00:00 PM 12.07 53.726 0.081 7.25 40.08 10.98
4/22/2022 3:15:00 PM 12.22 53.996 0.081 7.26 40.07 10.93
4/22/2022 3:30:00 PM 12.36 54.248 0.08 7.26 43.21 10.88
4/22/2022 3:45:00 PM 12.48 54.464 0.081 7.26 38.35 10.83
4/22/2022 4:00:00 PM 12.59 54.662 0.08 7.26 36.3 10.78
4/22/2022 4:15:00 PM 12.68 54.824 0.08 7.26 35.76 10.74
4/22/2022 4:30:00 PM 12.75 54.95 0.08 7.27 36.58 10.7
4/22/2022 4:45:00 PM 12.8 55.04 0.081 7.26 36.66 10.66
4/22/2022 5:00:00 PM 12.83 55.094 0.081 7.26 35.79 10.63
4/22/2022 5:15:00 PM 12.84 55.112 0.081 7.26 38.03 10.6
4/22/2022 5:30:00 PM 12.84 55.112 0.08 7.25 36.81 10.57
4/22/2022 5:45:00 PM 12.84 55.112 0.081 7.25 36.62 10.56
4/22/2022 6:00:00 PM 12.81 55.058 0.081 7.24 36.18 10.54
4/22/2022 6:15:00 PM 12.75 54.95 0.08 7.24 36.23 10.51
4/22/2022 6:30:00 PM 12.68 54.824 0.08 7.23 36.21 10.5
4/22/2022 6:45:00 PM 12.6 54.68 0.08 7.22 36.71 10.48
4/22/2022 7:00:00 PM 12.5 54.5 0.079 7.2 35.7 10.46
4/22/2022 7:15:00 PM 12.4 54.32 0.08 7.19 36.14 10.45
4/22/2022 7:30:00 PM 12.3 54.14 0.08 7.17 36.38 10.43
4/22/2022 7:45:00 PM 12.18 53.924 0.081 7.16 37.22 10.41
4/22/2022 8:00:00 PM 12.07 53.726 0.081 7.14 37.61 10.39
4/22/2022 8:15:00 PM 11.96 53.528 0.081 7.12 37.76 10.38
4/22/2022 8:30:00 PM 11.85 53.33 0.081 7.11 38.8 10.37
4/22/2022 8:45:00 PM 11.74 53.132 0.08 7.09 38.53 10.37
4/22/2022 9:00:00 PM 11.63 52.934 0.08 7.09 37.44 10.37
4/22/2022 9:15:00 PM 11.53 52.754 0.08 7.08 37.73 10.38
4/22/2022 9:30:00 PM 11.42 52.556 0.081 7.07 37.47 10.39
4/22/2022 9:45:00 PM 11.31 52.358 0.08 7.06 47.26 10.41
4/22/2022 10:00:00 PM 11.21 52.178 0.081 7.05 40.02 10.42
4/22/2022 10:15:00 PM 11.1 51.98 0.08 7.05 38.34 10.44
4/22/2022 10:30:00 PM 10.99 51.782 0.08 7.04 36.48 10.47
4/22/2022 10:45:00 PM 10.89 51.602 0.081 7.04 33.8 10.49
4/22/2022 11:00:00 PM 10.78 51.404 0.081 7.03 30.16 10.51
4/22/2022 11:15:00 PM 10.67 51.206 0.081 7.03 29.57 10.54
4/22/2022 11:30:00 PM 10.56 51.008 0.082 7.02 27.33 10.56
4/22/2022 11:45:00 PM 10.47 50.846 0.08 7.02 36.17 10.58
4/23/2022 12:00:00 AM 10.37 50.666 0.08 7.02 36.44 10.61
4/23/2022 12:15:00 AM 10.28 50.504 0.08 7.02 35.7 10.63
4/23/2022 12:30:00 AM 10.19 50.342 0.082 7.02 36.08 10.66
4/23/2022 12:45:00 AM 10.1 50.18 0.081 7.02 35.74 10.68
4/23/2022 1:00:00 AM 10.02 50.036 0.082 7.02 34.72 10.71
4/23/2022 1:15:00 AM 9.93 49.874 0.081 7.02 36.29 10.74
4/23/2022 1:30:00 AM 9.86 49.748 0.08 7.01 36.81 10.76
4/23/2022 1:45:00 AM 9.78 49.604 0.082 7.02 38.11 10.79
4/23/2022 2:00:00 AM 9.7 49.46 0.081 7.01 60.38 10.81
4/23/2022 2:15:00 AM 9.63 49.334 0.081 7.01 43.77 10.83
4/23/2022 2:30:00 AM 9.56 49.208 0.082 7.01 40.38 10.85
4/23/2022 2:45:00 AM 9.49 49.082 0.081 7.02 35.71 10.88
4/23/2022 3:00:00 AM 9.43 48.974 0.082 7.01 35.9 10.89
4/23/2022 3:15:00 AM 9.37 48.866 0.082 7.02 32.14 10.92
4/23/2022 3:30:00 AM 9.31 48.758 0.082 7.02 34.16 10.93
4/23/2022 3:45:00 AM 9.25 48.65 0.082 7.02 34.71 10.95
4/23/2022 4:00:00 AM 9.2 48.56 0.081 7.02 33.88 10.96
4/23/2022 4:15:00 AM 9.15 48.47 0.081 7.02 34.82 10.98
4/23/2022 4:30:00 AM 9.1 48.38 0.082 7.01 37.22 10.99
4/23/2022 4:45:00 AM 9.06 48.308 0.082 7.01 36.06 11.01
4/23/2022 5:00:00 AM 9.01 48.218 0.082 7.02 36.06 11.02
4/23/2022 5:15:00 AM 8.96 48.128 0.082 7.01 33.62 11.04
4/23/2022 5:30:00 AM 8.92 48.056 0.082 7.01 35.25 11.05
4/23/2022 5:45:00 AM 8.88 47.984 0.082 7.01 32.19 11.06
4/23/2022 6:00:00 AM 8.84 47.912 0.081 7.02 31.25 11.07
4/23/2022 6:15:00 AM 8.81 47.858 0.081 7.02 30.87 11.09
4/23/2022 6:30:00 AM 8.77 47.786 0.08 7.02 30.81 11.1
4/23/2022 6:45:00 AM 8.74 47.732 0.082 7.02 30.35 11.11
4/23/2022 7:00:00 AM 8.71 47.678 0.083 7.02 30.59 11.14
4/23/2022 7:15:00 AM 8.69 47.642 0.082 7.03 30.54 11.16
4/23/2022 7:30:00 AM 8.67 47.606 0.082 7.03 30.35 11.18
4/23/2022 7:45:00 AM 8.65 47.57 0.082 7.03 29.77 11.21
4/23/2022 8:00:00 AM 8.65 47.57 0.082 7.05 28.9 11.25
4/23/2022 8:15:00 AM 8.66 47.588 0.082 7.06 29.7 11.3
4/23/2022 8:30:00 AM 8.67 47.606 0.082 7.07 30.18 11.34
4/23/2022 8:45:00 AM 8.7 47.66 0.081 7.09 30.15 11.39
4/23/2022 9:00:00 AM 8.74 47.732 0.082 7.1 29.95 11.43
4/23/2022 9:15:00 AM 8.79 47.822 0.08 7.12 30.08 11.46
4/23/2022 9:30:00 AM 8.84 47.912 0.081 7.14 30.22 11.49
4/23/2022 9:45:00 AM 8.9 48.02 0.082 7.15 30.02 11.51
4/23/2022 10:00:00 AM 8.99 48.182 0.082 7.16 30.17 11.52
4/23/2022 10:15:00 AM 9.1 48.38 0.081 7.18 30.66 11.54
4/23/2022 10:30:00 AM 9.16 48.488 0.08 7.19 30.42 11.54
4/23/2022 10:45:00 AM 9.27 48.686 0.082 7.2 30.43 11.53
4/23/2022 11:00:00 AM 9.38 48.884 0.082 7.21 31.25 11.53
4/23/2022 11:15:00 AM 9.5 49.1 0.081 7.22 31.07 11.52
4/23/2022 11:30:00 AM 9.63 49.334 0.081 7.23 30.49 11.51
4/23/2022 11:45:00 AM 9.77 49.586 0.081 7.24 31.27 11.5
4/23/2022 12:00:00 PM 9.92 49.856 0.081 7.25 31 11.47
4/23/2022 12:15:00 PM 10.17 50.306 0.082 7.26 30.82 11.43
4/23/2022 12:30:00 PM 10.25 50.45 0.08 7.27 33.3 11.4
4/23/2022 12:45:00 PM 10.34 50.612 0.081 7.27 28.99 11.37
4/23/2022 1:00:00 PM 10.41 50.738 0.08 7.28 30.35 11.33
4/23/2022 1:15:00 PM 10.51 50.918 0.079 7.28 30.53 11.3
4/23/2022 1:30:00 PM 10.65 51.17 0.08 7.29 30.22 11.28
4/23/2022 1:45:00 PM 10.72 51.296 0.08 7.29 29.95 11.24
4/23/2022 2:00:00 PM 10.79 51.422 0.08 7.3 27.75 11.2
4/23/2022 2:15:00 PM 10.84 51.512 0.081 7.29 28.44 11.18
4/23/2022 2:30:00 PM 10.92 51.656 0.081 7.3 28.29 11.15
4/23/2022 2:45:00 PM 10.97 51.746 0.081 7.3 286.49 11.12
4/23/2022 3:00:00 PM 10.99 51.782 0.081 7.3 28.53 11.1
4/23/2022 3:15:00 PM 11.02 51.836 0.081 7.29 27.06 11.06
4/23/2022 3:30:00 PM 11.07 51.926 0.08 7.29 26.57 11.03
4/23/2022 3:45:00 PM 11.16 52.088 0.08 7.29 26.93 11.02
4/23/2022 4:00:00 PM 11.23 52.214 0.08 7.3 28.28 11.01
4/23/2022 4:15:00 PM 11.31 52.358 0.079 7.3 26.44 11
4/23/2022 4:30:00 PM 11.38 52.484 0.079 7.31 27.72 10.99
4/23/2022 4:45:00 PM 11.45 52.61 0.08 7.31 28.13 10.96
4/23/2022 5:00:00 PM 11.45 52.61 0.079 7.3 27.25 10.93
4/23/2022 5:15:00 PM 11.51 52.718 0.079 7.3 35.07 10.91
4/23/2022 5:30:00 PM 11.53 52.754 0.079 7.29 27.89 10.88
4/23/2022 5:45:00 PM 11.57 52.826 0.079 7.29 27.06 10.85
4/23/2022 6:00:00 PM 11.57 52.826 0.079 7.28 27.31 10.81
4/23/2022 6:15:00 PM 11.59 52.862 0.08 7.27 26.79 10.78
4/23/2022 6:30:00 PM 11.58 52.844 0.08 7.25 26.47 10.75
4/23/2022 6:45:00 PM 11.57 52.826 0.081 7.25 27.06 10.73
4/23/2022 7:00:00 PM 11.54 52.772 0.079 7.24 27.07 10.71
4/23/2022 7:15:00 PM 11.51 52.718 0.08 7.23 27.25 10.68
4/23/2022 7:30:00 PM 11.47 52.646 0.08 7.21 27.16 10.64
4/23/2022 7:45:00 PM 11.43 52.574 0.08 7.19 27.02 10.6
4/23/2022 8:00:00 PM 11.39 52.502 0.08 7.17 27.62 10.57
4/23/2022 8:15:00 PM 11.34 52.412 0.081 7.15 27.74 10.53
4/23/2022 8:30:00 PM 11.29 52.322 0.08 7.14 28.59 10.5
4/23/2022 8:45:00 PM 11.24 52.232 0.08 7.12 29.21 10.48
4/23/2022 9:00:00 PM 11.18 52.124 0.08 7.1 29.36 10.45
4/23/2022 9:15:00 PM 11.13 52.034 0.08 7.08 29.95 10.45
4/23/2022 9:30:00 PM 11.07 51.926 0.081 7.07 30.59 10.44
4/23/2022 9:45:00 PM 11 51.8 0.08 7.06 30.93 10.44
4/23/2022 10:00:00 PM 10.93 51.674 0.081 7.05 30.07 10.44
4/23/2022 10:15:00 PM 10.86 51.548 0.081 7.05 24.93 10.44
4/23/2022 10:30:00 PM 10.79 51.422 0.081 7.04 19.41 10.45
4/23/2022 10:45:00 PM 10.71 51.278 0.08 7.04 17.94 10.47
4/23/2022 11:00:00 PM 10.64 51.152 0.081 7.04 19.95 10.48
4/23/2022 11:15:00 PM 10.56 51.008 0.081 7.03 19.21 10.49
4/23/2022 11:30:00 PM 10.48 50.864 0.081 7.03 19.65 10.51
4/23/2022 11:45:00 PM 10.41 50.738 0.081 7.03 27.23 10.53
4/24/2022 12:00:00 AM 10.34 50.612 0.08 7.03 28.07 10.55
4/24/2022 12:15:00 AM 10.26 50.468 0.082 7.03 34.33 10.57
4/24/2022 12:30:00 AM 10.19 50.342 0.082 7.02 34.66 10.58
4/24/2022 12:45:00 AM 10.12 50.216 0.081 7.02 34.56 10.6
4/24/2022 1:00:00 AM 10.06 50.108 0.081 7.02 35.29 10.62
4/24/2022 1:15:00 AM 10 50 0.081 7.02 34.95 10.63
4/24/2022 1:30:00 AM 9.93 49.874 0.081 7.02 35.92 10.64
4/24/2022 1:45:00 AM 9.87 49.766 0.082 7.02 35.2 10.66
4/24/2022 2:00:00 AM 9.81 49.658 0.081 7.02 34.94 10.67
4/24/2022 2:15:00 AM 9.75 49.55 0.081 7.02 35.08 10.7
4/24/2022 2:30:00 AM 9.69 49.442 0.082 7.02 34.65 10.71
4/24/2022 2:45:00 AM 9.63 49.334 0.082 7.02 34.41 10.72
4/24/2022 3:00:00 AM 9.57 49.226 0.082 7.01 35 10.74
4/24/2022 3:15:00 AM 9.51 49.118 0.082 7.02 34.09 10.76
4/24/2022 3:30:00 AM 9.45 49.01 0.081 7.01 34.23 10.78
4/24/2022 3:45:00 AM 9.39 48.902 0.082 7.01 34.49 10.8
4/24/2022 4:00:00 AM 9.33 48.794 0.082 7.01 34.43 10.81
4/24/2022 4:15:00 AM 9.28 48.704 0.084 7.01 34.72 10.83
4/24/2022 4:30:00 AM 9.23 48.614 0.083 7.01 34.24 10.84
4/24/2022 4:45:00 AM 9.17 48.506 0.081 7 32.06 10.85
4/24/2022 5:00:00 AM 9.12 48.416 0.082 7.01 34.14 10.87
4/24/2022 5:15:00 AM 9.07 48.326 0.082 7 33.71 10.89
4/24/2022 5:30:00 AM 9.03 48.254 0.081 7.02 283.53 10.9
4/24/2022 5:45:00 AM 8.98 48.164 0.082 7.01 18.85 10.91
4/24/2022 6:00:00 AM 8.93 48.074 0.083 7.01 17.52 10.93
4/24/2022 6:15:00 AM 8.89 48.002 0.083 7.01 24.46 10.94
4/24/2022 6:30:00 AM 8.86 47.948 0.084 7.02 24.13 10.97
4/24/2022 6:45:00 AM 8.83 47.894 0.082 7.02 23.99 11
4/24/2022 7:00:00 AM 8.8 47.84 0.082 7.03 23.68 11.04
4/24/2022 7:15:00 AM 8.78 47.804 0.083 7.03 23.32 11.08
4/24/2022 7:30:00 AM 8.78 47.804 0.083 7.05 24.01 11.14
4/24/2022 7:45:00 AM 8.79 47.822 0.082 7.06 21.16 11.18
4/24/2022 8:00:00 AM 8.8 47.84 0.082 7.08 20.96 11.24
4/24/2022 8:15:00 AM 8.83 47.894 0.083 7.09 18.63 11.27
4/24/2022 8:30:00 AM 8.89 48.002 0.082 7.11 22.53 11.32
4/24/2022 8:45:00 AM 8.94 48.092 0.082 7.13 22.94 11.34
4/24/2022 9:00:00 AM 9.02 48.236 0.082 7.15 23.04 11.38
4/24/2022 9:15:00 AM 9.1 48.38 0.083 7.16 23.02 11.4
4/24/2022 9:30:00 AM 9.2 48.56 0.08 7.18 22.77 11.41
4/24/2022 9:45:00 AM 9.31 48.758 0.081 7.19 22.77 11.41
4/24/2022 10:00:00 AM 9.44 48.992 0.082 7.21 23.18 11.41
4/24/2022 10:15:00 AM 9.61 49.298 0.082 7.22 23.19 11.41
4/24/2022 10:30:00 AM 9.8 49.64 0.082 7.23 23.3 11.39
4/24/2022 10:45:00 AM 10.01 50.018 0.082 7.24 22.86 11.37
4/24/2022 11:00:00 AM 10.21 50.378 0.082 7.26 22.63 11.36
4/24/2022 11:15:00 AM 10.43 50.774 0.081 7.27 22.56 11.33
4/24/2022 11:30:00 AM 10.69 51.242 0.082 7.28 22.73 11.3
4/24/2022 11:45:00 AM 10.94 51.692 0.081 7.29 29.77 11.26
4/24/2022 12:00:00 PM 11.21 52.178 0.082 7.3 26.37 11.22
4/24/2022 12:15:00 PM 11.5 52.7 0.081 7.31 28.51 11.16
4/24/2022 12:30:00 PM 11.8 53.24 0.08 7.32 28.16 11.12
4/24/2022 12:45:00 PM 12.06 53.708 0.081 7.33 28.46 11.07
4/24/2022 1:00:00 PM 12.36 54.248 0.081 7.34 27.88 11.02
4/24/2022 1:15:00 PM 12.58 54.644 0.081 7.35 27.41 10.96
4/24/2022 1:30:00 PM 12.89 55.202 0.082 7.36 26.67 10.91
4/24/2022 1:45:00 PM 13.14 55.652 0.081 7.36 24.08 10.85
4/24/2022 2:00:00 PM 13.31 55.958 0.081 7.37 24.46 10.79
4/24/2022 2:15:00 PM 13.46 56.228 0.082 7.38 26.56 10.74
4/24/2022 2:30:00 PM 13.64 56.552 0.081 7.39 26.42 10.69
4/24/2022 2:45:00 PM 13.89 57.002 0.08 7.4 25.65 10.64
4/24/2022 3:00:00 PM 14.1 57.38 0.081 7.41 26.63 10.58
4/24/2022 3:15:00 PM 14.3 57.74 0.082 7.41 26.04 10.53
4/24/2022 3:30:00 PM 14.47 58.046 0.08 7.41 24.55 10.46
4/24/2022 3:45:00 PM 14.64 58.352 0.081 7.41 25.36 10.4
4/24/2022 4:00:00 PM 14.77 58.586 0.081 7.4 25.8 10.34
4/24/2022 4:15:00 PM 14.89 58.802 0.081 7.41 25.85 10.29
4/24/2022 4:30:00 PM 15 59 0.081 7.4 25.85 10.24
4/24/2022 4:45:00 PM 15.11 59.198 0.079 7.4 27.76 10.18
4/24/2022 5:00:00 PM 15.2 59.36 0.081 7.38 25.63 10.13
4/24/2022 5:15:00 PM 15.27 59.486 0.081 7.38 25.91 10.07
4/24/2022 5:30:00 PM 15.34 59.612 0.081 7.37 25.53 10.01
4/24/2022 5:45:00 PM 15.39 59.702 0.082 7.35 40.26 9.95
4/24/2022 6:00:00 PM 15.42 59.756 0.081 7.33 27.51 9.89
4/24/2022 6:15:00 PM 15.42 59.756 0.081 7.33 26.17 9.85
4/24/2022 6:30:00 PM 15.41 59.738 0.081 7.31 26.64 9.82
4/24/2022 6:45:00 PM 15.38 59.684 0.081 7.3 25.05 9.78
4/24/2022 7:00:00 PM 15.35 59.63 0.081 7.28 24.38 9.73
4/24/2022 7:15:00 PM 15.3 59.54 0.08 7.26 24.98 9.69
4/24/2022 7:30:00 PM 15.24 59.432 0.08 7.25 23.58 9.66
4/24/2022 7:45:00 PM 15.17 59.306 0.081 7.23 25.35 9.62
4/24/2022 8:00:00 PM 15.1 59.18 0.081 7.21 23.43 9.59
4/24/2022 8:15:00 PM 15.02 59.036 0.081 7.19 24.38 9.56
4/24/2022 8:30:00 PM 14.93 58.874 0.081 7.18 26.25 9.54
4/24/2022 8:45:00 PM 14.84 58.712 0.082 7.16 28.33 9.53
4/24/2022 9:00:00 PM 14.75 58.55 0.082 7.15 28.32 9.51
4/24/2022 9:15:00 PM 14.66 58.388 0.081 7.14 29.75 9.51
4/24/2022 9:30:00 PM 14.57 58.226 0.082 7.13 20.43 9.5
4/24/2022 9:45:00 PM 14.48 58.064 0.081 7.12 24.34 9.52
4/24/2022 10:00:00 PM 14.39 57.902 0.082 7.11 17.19 9.52
4/24/2022 10:15:00 PM 14.3 57.74 0.084 7.11 19.13 9.54
4/24/2022 10:30:00 PM 14.2 57.56 0.082 7.11 18.75 9.55
4/24/2022 10:45:00 PM 14.11 57.398 0.083 7.11 18.66 9.56
4/24/2022 11:00:00 PM 14.02 57.236 0.082 7.1 17.74 9.58
4/24/2022 11:15:00 PM 13.93 57.074 0.082 7.1 17.75 9.6
4/24/2022 11:30:00 PM 13.83 56.894 0.082 7.1 17.64 9.62
4/24/2022 11:45:00 PM 13.75 56.75 0.083 7.1 18.88 9.64
4/25/2022 12:00:00 AM 13.66 56.588 0.083 7.1 19.65 9.65
4/25/2022 12:15:00 AM 13.58 56.444 0.082 7.1 18.9 9.67
4/25/2022 12:30:00 AM 13.49 56.282 0.083 7.09 19.17 9.69
4/25/2022 12:45:00 AM 13.41 56.138 0.083 7.09 19.05 9.72
4/25/2022 1:00:00 AM 13.32 55.976 0.083 7.09 19.33 9.73
4/25/2022 1:15:00 AM 13.23 55.814 0.083 7.09 20.01 9.75
4/25/2022 1:30:00 AM 13.13 55.634 0.084 7.09 19.31 9.77
4/25/2022 1:45:00 AM 13.05 55.49 0.084 7.09 19.62 9.8
4/25/2022 2:00:00 AM 12.96 55.328 0.083 7.09 20.81 9.82
4/25/2022 2:15:00 AM 12.88 55.184 0.084 7.09 20.52 9.83
4/25/2022 2:30:00 AM 12.79 55.022 0.083 7.08 20.4 9.86
4/25/2022 2:45:00 AM 12.7 54.86 0.083 7.08 19.94 9.88
4/25/2022 3:00:00 AM 12.62 54.716 0.084 7.08 22.56 9.9
4/25/2022 3:15:00 AM 12.54 54.572 0.085 7.09 20.36 9.92
4/25/2022 3:30:00 AM 12.47 54.446 0.084 7.08 20.51 9.94
4/25/2022 3:45:00 AM 12.39 54.302 0.083 7.08 20.97 9.96
4/25/2022 4:00:00 AM 12.32 54.176 0.085 7.08 21.22 9.97
4/25/2022 4:15:00 AM 12.26 54.068 0.084 7.08 21.83 9.99
4/25/2022 4:30:00 AM 12.18 53.924 0.085 7.08 21.62 10.01
4/25/2022 4:45:00 AM 12.11 53.798 0.085 7.08 21.02 10.03
4/25/2022 5:00:00 AM 12.04 53.672 0.084 7.08 22.11 10.05
4/25/2022 5:15:00 AM 11.97 53.546 0.084 7.08 22.73 10.06
4/25/2022 5:30:00 AM 11.91 53.438 0.083 7.08 21.82 10.09
4/25/2022 5:45:00 AM 11.85 53.33 0.085 7.08 19.25 10.1
4/25/2022 6:00:00 AM 11.79 53.222 0.084 7.08 19.46 10.12
4/25/2022 6:15:00 AM 11.73 53.114 0.084 7.09 20.44 10.14
4/25/2022 6:30:00 AM 11.67 53.006 0.084 7.09 21.63 10.16
4/25/2022 6:45:00 AM 11.62 52.916 0.085 7.09 22.26 10.19
4/25/2022 7:00:00 AM 11.57 52.826 0.084 7.1 20.21 10.23
4/25/2022 7:15:00 AM 11.52 52.736 0.085 7.11 19.73 10.28
4/25/2022 7:30:00 AM 11.48 52.664 0.085 7.12 20.06 10.34
4/25/2022 7:45:00 AM 11.45 52.61 0.084 7.13 19.84 10.38
4/25/2022 8:00:00 AM 11.42 52.556 0.085 7.15 20.02 10.44
4/25/2022 8:15:00 AM 11.4 52.52 0.085 7.16 21.57 10.49
4/25/2022 8:30:00 AM 11.38 52.484 0.085 7.18 22.05 10.55
4/25/2022 8:45:00 AM 11.39 52.502 0.084 7.19 25.95 10.61
4/25/2022 9:00:00 AM 11.39 52.502 0.084 7.21 26.13 10.67
4/25/2022 9:15:00 AM 11.42 52.556 0.085 7.23 23.03 10.72
4/25/2022 9:30:00 AM 11.46 52.628 0.085 7.25 22.33 10.77
4/25/2022 9:45:00 AM 11.52 52.736 0.084 7.27 22.78 10.82
4/25/2022 10:00:00 AM 11.58 52.844 0.084 7.29 22.58 10.84
4/25/2022 10:15:00 AM 11.64 52.952 0.083 7.31 21.75 10.88
4/25/2022 10:30:00 AM 11.72 53.096 0.083 7.32 24.05 10.91
4/25/2022 10:45:00 AM 11.84 53.312 0.084 7.35 23.23 10.92
4/25/2022 11:00:00 AM 11.97 53.546 0.084 7.36 23.66 10.94
4/25/2022 11:15:00 AM 12.18 53.924 0.085 7.38 20.96 10.93
4/25/2022 11:30:00 AM 12.28 54.104 0.083 7.4 23.73 10.93
4/25/2022 11:45:00 AM 12.37 54.266 0.083 7.41 23.05 10.92
4/25/2022 12:00:00 PM 12.48 54.464 0.084 7.43 22.86 10.92
4/25/2022 12:15:00 PM 12.58 54.644 0.084 7.44 22 10.91
4/25/2022 12:30:00 PM 12.69 54.842 0.084 7.45 20.36 10.89
4/25/2022 12:45:00 PM 12.82 55.076 0.083 7.46 21.82 10.88
4/25/2022 1:00:00 PM 12.97 55.346 0.084 7.47 21.15 10.85
4/25/2022 1:15:00 PM 13.15 55.67 0.083 7.49 21.37 10.84
4/25/2022 1:30:00 PM 13.28 55.904 0.083 7.5 22.51 10.82
4/25/2022 1:45:00 PM 13.44 56.192 0.083 7.51 22.39 10.79
4/25/2022 2:00:00 PM 13.66 56.588 0.084 7.52 20.17 10.74
4/25/2022 2:15:00 PM 13.88 56.984 0.083 7.52 27.31 10.71
4/25/2022 2:30:00 PM 14.15 57.47 0.084 7.54 25.55 10.67
4/25/2022 2:45:00 PM 14.43 57.974 0.083 7.55 22.68 10.63
4/25/2022 3:00:00 PM 14.64 58.352 0.083 7.55 20.97 10.57
4/25/2022 3:15:00 PM 14.78 58.604 0.083 7.55 18.76 10.53
4/25/2022 3:30:00 PM 14.95 58.91 0.083 7.55 18.58 10.49
4/25/2022 3:45:00 PM 15.11 59.198 0.082 7.54 18.51 10.42
4/25/2022 4:00:00 PM 15.24 59.432 0.083 7.54 17.95 10.36
4/25/2022 4:15:00 PM 15.33 59.594 0.083 7.53 17.79 10.31
4/25/2022 4:30:00 PM 15.41 59.738 0.083 7.53 18.72 10.25
4/25/2022 4:45:00 PM 15.46 59.828 0.083 7.51 19.73 10.19
4/25/2022 5:00:00 PM 15.48 59.864 0.083 7.49 19.67 10.13
4/25/2022 5:15:00 PM 15.5 59.9 0.083 7.48 19.22 10.08
4/25/2022 5:30:00 PM 15.52 59.936 0.083 7.46 18.42 10.03
4/25/2022 5:45:00 PM 15.54 59.972 0.083 7.45 23.01 9.98
4/25/2022 6:00:00 PM 15.55 59.99 0.083 7.43 23.58 9.92
4/25/2022 6:15:00 PM 15.55 59.99 0.083 7.41 20.76 9.86
4/25/2022 6:30:00 PM 15.55 59.99 0.083 7.39 22 9.82
4/25/2022 6:45:00 PM 15.54 59.972 0.083 7.38 21.89 9.79
4/25/2022 7:00:00 PM 15.52 59.936 0.083 7.37 21.66 9.77
4/25/2022 7:15:00 PM 15.46 59.828 0.082 7.35 21 9.73
4/25/2022 7:30:00 PM 15.39 59.702 0.083 7.33 21.5 9.69
4/25/2022 7:45:00 PM 15.3 59.54 0.083 7.31 21.59 9.65
4/25/2022 8:00:00 PM 15.22 59.396 0.083 7.28 21.95 9.59
4/25/2022 8:15:00 PM 15.13 59.234 0.083 7.26 21.39 9.56
4/25/2022 8:30:00 PM 15.04 59.072 0.083 7.24 20.33 9.53
4/25/2022 8:45:00 PM 14.95 58.91 0.084 7.22 18.92 9.5
4/25/2022 9:00:00 PM 14.86 58.748 0.083 7.21 20.59 9.5
4/25/2022 9:15:00 PM 14.78 58.604 0.084 7.2 19.28 9.48
4/25/2022 9:30:00 PM 14.69 58.442 0.084 7.18 20.44 9.49
4/25/2022 9:45:00 PM 14.61 58.298 0.083 7.17 17.6 9.45
4/25/2022 10:00:00 PM 14.52 58.136 0.083 7.17 14.67 9.49
4/25/2022 10:15:00 PM 14.42 57.956 0.083 7.16 16.6 9.5
4/25/2022 10:30:00 PM 14.34 57.812 0.084 7.15 16.74 9.51
4/25/2022 10:45:00 PM 14.25 57.65 0.084 7.15 18.24 9.52
4/25/2022 11:00:00 PM 14.15 57.47 0.084 7.14 18.56 9.53
4/25/2022 11:15:00 PM 14.07 57.326 0.085 7.14 19.55 9.54
4/25/2022 11:30:00 PM 13.98 57.164 0.084 7.14 20.95 9.56
4/25/2022 11:45:00 PM 13.9 57.02 0.084 7.13 20.78 9.58
4/26/2022 12:00:00 AM 13.82 56.876 0.084 7.13 21.88 9.59
4/26/2022 12:15:00 AM 13.74 56.732 0.085 7.13 22.17 9.62
4/26/2022 12:30:00 AM 13.66 56.588 0.085 7.12 21.8 9.63
4/26/2022 12:45:00 AM 13.58 56.444 0.085 7.12 20.04 9.65
4/26/2022 1:00:00 AM 13.5 56.3 0.085 7.12 20.25 9.67
4/26/2022 1:15:00 AM 13.43 56.174 0.085 7.12 21.19 9.68
4/26/2022 1:30:00 AM 13.36 56.048 0.085 7.12 21.27 9.7
4/26/2022 1:45:00 AM 13.29 55.922 0.086 7.12 20.59 9.71
4/26/2022 2:00:00 AM 13.23 55.814 0.085 7.11 23.48 9.72
4/26/2022 2:15:00 AM 13.17 55.706 0.085 7.12 21.13 9.74
4/26/2022 2:30:00 AM 13.11 55.598 0.087 7.12 22.02 9.76
4/26/2022 2:45:00 AM 13.04 55.472 0.086 7.12 21.55 9.77
4/26/2022 3:00:00 AM 12.98 55.364 0.086 7.11 22.05 9.79
4/26/2022 3:15:00 AM 12.92 55.256 0.085 7.12 23.72 9.81
4/26/2022 3:30:00 AM 12.86 55.148 0.085 7.12 23.83 9.82
4/26/2022 3:45:00 AM 12.8 55.04 0.086 7.11 22.28 9.83
4/26/2022 4:00:00 AM 12.75 54.95 0.085 7.11 32.3 9.84
4/26/2022 4:15:00 AM 12.69 54.842 0.086 7.11 24.68 9.86
4/26/2022 4:30:00 AM 12.64 54.752 0.086 7.11 32.87 9.87
4/26/2022 4:45:00 AM 12.59 54.662 0.086 7.11 32.42 9.88
4/26/2022 5:00:00 AM 12.54 54.572 0.086 7.11 35.08 9.9
4/26/2022 5:15:00 AM 12.49 54.482 0.086 7.11 35.52 9.91
4/26/2022 5:30:00 AM 12.45 54.41 0.086 7.11 33.27 9.92
4/26/2022 5:45:00 AM 12.4 54.32 0.086 7.11 27 9.93
4/26/2022 6:00:00 AM 12.36 54.248 0.086 7.12 27.81 9.94
4/26/2022 6:15:00 AM 12.31 54.158 0.086 7.11 27.32 9.96
4/26/2022 6:30:00 AM 12.28 54.104 0.086 7.11 27.6 9.97
4/26/2022 6:45:00 AM 12.24 54.032 0.086 7.11 29.43 9.99
4/26/2022 7:00:00 AM 12.2 53.96 0.086 7.12 25.57 10
4/26/2022 7:15:00 AM 12.17 53.906 0.086 7.12 27.79 10.03
4/26/2022 7:30:00 AM 12.13 53.834 0.087 7.13 27.95 10.06
4/26/2022 7:45:00 AM 12.1 53.78 0.086 7.13 30.5 10.09
4/26/2022 8:00:00 AM 12.07 53.726 0.087 7.14 24.93 10.11
4/26/2022 8:15:00 AM 12.04 53.672 0.086 7.15 35.57 10.15
4/26/2022 8:30:00 AM 12.02 53.636 0.087 7.15 23.51 10.18
4/26/2022 8:45:00 AM 11.99 53.582 0.086 7.16 24.11 10.23
4/26/2022 9:00:00 AM 11.98 53.564 0.086 7.17 21.76 10.27
4/26/2022 9:15:00 AM 11.96 53.528 0.086 7.18 21.13 10.32
4/26/2022 9:30:00 AM 11.98 53.564 0.086 7.2 20.96 10.4
4/26/2022 9:45:00 AM 11.98 53.564 0.086 7.22 20.71 10.43
4/26/2022 10:00:00 AM 11.98 53.564 0.086 7.23 25.63 10.48
4/26/2022 10:15:00 AM 11.98 53.564 0.086 7.25 13.22 10.53
4/26/2022 10:30:00 AM 11.98 53.564 0.086 7.26 20.49 10.56
4/26/2022 10:45:00 AM 11.99 53.582 0.086 7.28 14.39 10.58
4/26/2022 11:00:00 AM 12 53.6 0.086 7.29 18.01 10.61
4/26/2022 11:15:00 AM 12.02 53.636 0.085 7.3 19 10.63
4/26/2022 11:30:00 AM 12.03 53.654 0.085 7.31 20.85 10.65
4/26/2022 11:45:00 AM 12.05 53.69 0.086 7.32 22.79 10.68
4/26/2022 12:00:00 PM 12.09 53.762 0.085 7.34 19.77 10.71
4/26/2022 12:15:00 PM 12.11 53.798 0.085 7.35 19.26 10.72
4/26/2022 12:30:00 PM 12.13 53.834 0.086 7.37 19.19 10.75
4/26/2022 12:45:00 PM 12.18 53.924 0.086 7.38 15.21 10.76
4/26/2022 1:00:00 PM 12.19 53.942 0.086 7.38 20.41 10.74
4/26/2022 1:15:00 PM 12.2 53.96 0.085 7.38 25.24 10.72
4/26/2022 1:30:00 PM 12.22 53.996 0.085 7.38 25.96 10.73
4/26/2022 1:45:00 PM 12.25 54.05 0.085 7.39 17.54 10.75
4/26/2022 2:00:00 PM 12.28 54.104 0.085 7.4 31.68 10.73
4/26/2022 2:15:00 PM 12.3 54.14 0.085 7.41 16 10.74
4/26/2022 2:30:00 PM 12.33 54.194 0.085 7.41 18.69 10.73
4/26/2022 2:45:00 PM 12.36 54.248 0.085 7.42 18.89 10.73
4/26/2022 3:00:00 PM 12.38 54.284 0.084 7.43 32.25 10.73
4/26/2022 3:15:00 PM 12.39 54.302 0.084 7.42 17.96 10.7
4/26/2022 3:30:00 PM 12.4 54.32 0.084 7.42 25.74 10.67
4/26/2022 3:45:00 PM 12.4 54.32 0.084 7.4 20.15 10.62
4/26/2022 4:00:00 PM 12.41 54.338 0.084 7.39 20.26 10.59
4/26/2022 4:15:00 PM 12.41 54.338 0.084 7.38 22.05 10.57
4/26/2022 4:30:00 PM 12.41 54.338 0.084 7.37 21.65 10.54
4/26/2022 4:45:00 PM 12.42 54.356 0.085 7.37 24.06 10.54
4/26/2022 5:00:00 PM 12.43 54.374 0.084 7.36 20.43 10.52
4/26/2022 5:15:00 PM 12.43 54.374 0.084 7.35 22.98 10.48
4/26/2022 5:30:00 PM 12.42 54.356 0.084 7.34 18.96 10.45
4/26/2022 5:45:00 PM 12.41 54.338 0.084 7.33 20.07 10.43
4/26/2022 6:00:00 PM 12.4 54.32 0.084 7.31 16.29 10.39
4/26/2022 6:15:00 PM 12.38 54.284 0.084 7.3 20.82 10.35
4/26/2022 6:30:00 PM 12.37 54.266 0.083 7.28 21.1 10.31
4/26/2022 6:45:00 PM 12.35 54.23 0.084 7.26 18.51 10.27
4/26/2022 7:00:00 PM 12.34 54.212 0.084 7.25 17.5 10.25
4/26/2022 7:15:00 PM 12.32 54.176 0.084 7.24 18.38 10.23
4/26/2022 7:30:00 PM 12.29 54.122 0.084 7.23 18 10.2
4/26/2022 7:45:00 PM 12.26 54.068 0.084 7.22 17.77 10.17
4/26/2022 8:00:00 PM 12.23 54.014 0.085 7.22 28.22 10.14
4/26/2022 8:15:00 PM 12.2 53.96 0.085 7.2 21.43 10.12
4/26/2022 8:30:00 PM 12.16 53.888 0.085 7.19 15.62 10.1
4/26/2022 8:45:00 PM 12.12 53.816 0.085 7.18 24.17 10.09
4/26/2022 9:00:00 PM 12.07 53.726 0.086 7.17 44.37 10.08
4/26/2022 9:15:00 PM 12.02 53.636 0.085 7.17 16.66 10.08
4/26/2022 9:30:00 PM 11.97 53.546 0.085 7.16 20.66 10.08
4/26/2022 9:45:00 PM 11.93 53.474 0.085 7.16 20.88 10.07
4/26/2022 10:00:00 PM 11.88 53.384 0.086 7.15 20.18 10.08
4/26/2022 10:15:00 PM 11.84 53.312 0.086 7.15 19.26 10.09
4/26/2022 10:30:00 PM 11.79 53.222 0.084 7.15 19.91 10.09
4/26/2022 10:45:00 PM 11.75 53.15 0.085 7.15 19.29 10.1
4/26/2022 11:00:00 PM 11.7 53.06 0.085 7.15 21.06 10.11
4/26/2022 11:15:00 PM 11.66 52.988 0.086 7.15 21.24 10.11
4/26/2022 11:30:00 PM 11.61 52.898 0.085 7.14 20.08 10.12
4/26/2022 11:45:00 PM 11.56 52.808 0.086 7.14 22.13 10.13
4/27/2022 12:00:00 AM 11.5 52.7 0.086 7.14 22.08 10.15
4/27/2022 12:15:00 AM 11.45 52.61 0.086 7.14 21.85 10.16
4/27/2022 12:30:00 AM 11.41 52.538 0.086 7.14 18.38 10.17
4/27/2022 12:45:00 AM 11.35 52.43 0.086 7.14 21.06 10.18
4/27/2022 1:00:00 AM 11.29 52.322 0.087 7.14 12.48 10.19
4/27/2022 1:15:00 AM 11.21 52.178 0.086 7.14 11.35 10.21
4/27/2022 1:30:00 AM 11.13 52.034 0.086 7.14 13.1 10.22
4/27/2022 1:45:00 AM 11.07 51.926 0.086 7.14 18.36 10.23
4/27/2022 2:00:00 AM 11 51.8 0.086 7.14 18.46 10.25
4/27/2022 2:15:00 AM 10.93 51.674 0.086 7.14 16.6 10.28
4/27/2022 2:30:00 AM 10.85 51.53 0.086 7.14 18.91 10.28
4/27/2022 2:45:00 AM 10.79 51.422 0.086 7.14 18.88 10.32
4/27/2022 3:00:00 AM 10.71 51.278 0.087 7.14 19.43 10.32
4/27/2022 3:15:00 AM 10.63 51.134 0.087 7.14 18.34 10.34
4/27/2022 3:30:00 AM 10.57 51.026 0.086 7.14 18.82 10.36
4/27/2022 3:45:00 AM 10.49 50.882 0.086 7.13 23.71 10.38
4/27/2022 4:00:00 AM 10.42 50.756 0.086 7.13 22.56 10.4
4/27/2022 4:15:00 AM 10.35 50.63 0.086 7.13 27.55 10.42
4/27/2022 4:30:00 AM 10.29 50.522 0.087 7.13 19.41 10.43
4/27/2022 4:45:00 AM 10.23 50.414 0.087 7.14 18.38 10.45
4/27/2022 5:00:00 AM 10.16 50.288 0.087 7.13 22.55 10.47
4/27/2022 5:15:00 AM 10.1 50.18 0.087 7.13 16.98 10.48
4/27/2022 5:30:00 AM 10.04 50.072 0.087 7.13 21.73 10.5
4/27/2022 5:45:00 AM 9.98 49.964 0.087 7.14 19.84 10.52
4/27/2022 6:00:00 AM 9.91 49.838 0.087 7.14 26.79 10.54
4/27/2022 6:15:00 AM 9.84 49.712 0.087 7.14 18.81 10.56
4/27/2022 6:30:00 AM 9.77 49.586 0.087 7.14 23.51 10.59
4/27/2022 6:45:00 AM 9.7 49.46 0.087 7.15 16.25 10.63
4/27/2022 7:00:00 AM 9.64 49.352 0.087 7.16 14.61 10.69
4/27/2022 7:15:00 AM 9.59 49.262 0.087 7.17 15.34 10.76
4/27/2022 7:30:00 AM 9.56 49.208 0.087 7.18 16.07 10.84
4/27/2022 7:45:00 AM 9.54 49.172 0.087 7.2 21.83 10.92
4/27/2022 8:00:00 AM 9.5 49.1 0.087 7.21 15.38 10.98
4/27/2022 8:15:00 AM 9.48 49.064 0.087 7.22 24.83 11.04
4/27/2022 8:30:00 AM 9.46 49.028 0.086 7.25 25.72 11.1
4/27/2022 8:45:00 AM 9.4 48.92 0.086 7.26 23.38 11.14
4/27/2022 9:00:00 AM 9.38 48.884 0.087 7.28 26.63 11.19
4/27/2022 9:15:00 AM 9.36 48.848 0.086 7.29 41.9 11.24
4/27/2022 9:30:00 AM 9.32 48.776 0.086 7.3 19.3 11.27
4/27/2022 9:45:00 AM 9.33 48.794 0.087 7.32 23.45 11.31
4/27/2022 10:00:00 AM 9.32 48.776 0.086 7.33 19.68 11.34
4/27/2022 10:15:00 AM 9.28 48.704 0.086 7.34 19.35 11.35
4/27/2022 10:30:00 AM 9.26 48.668 0.086 7.35 19.31 11.38
4/27/2022 10:45:00 AM 9.26 48.668 0.087 7.36 22.35 11.4
4/27/2022 11:00:00 AM 9.32 48.776 0.086 7.37 22.28 11.45
4/27/2022 11:15:00 AM 9.39 48.902 0.086 7.39 22.19 11.47
4/27/2022 11:30:00 AM 9.58 49.244 0.086 7.41 22.92 11.5
4/27/2022 11:45:00 AM 9.66 49.388 0.086 7.42 23.02 11.5
4/27/2022 12:00:00 PM 9.72 49.496 0.086 7.43 23.4 11.51
4/27/2022 12:15:00 PM 9.8 49.64 0.085 7.44 22.96 11.51
4/27/2022 12:30:00 PM 9.84 49.712 0.085 7.45 23.36 11.51
4/27/2022 12:45:00 PM 9.9 49.82 0.086 7.46 22.94 11.5
4/27/2022 1:00:00 PM 9.91 49.838 0.086 7.47 23.22 11.49
4/27/2022 1:15:00 PM 9.87 49.766 0.085 7.47 23.08 11.47
4/27/2022 1:30:00 PM 9.86 49.748 0.085 7.48 23.73 11.45
4/27/2022 1:45:00 PM 9.83 49.694 0.085 7.47 22.61 11.45
4/27/2022 2:00:00 PM 9.78 49.604 0.085 7.47 22.98 11.43
4/27/2022 2:15:00 PM 9.81 49.658 0.085 7.47 23.25 11.44
4/27/2022 2:30:00 PM 9.94 49.892 0.085 7.48 24.02 11.45
4/27/2022 2:45:00 PM 9.86 49.748 0.086 7.47 25.61 11.43
4/27/2022 3:00:00 PM 9.89 49.802 0.085 7.48 24.81 11.44
4/27/2022 3:15:00 PM 9.9 49.82 0.085 7.49 24.58 11.44
4/27/2022 3:30:00 PM 9.97 49.946 0.085 7.5 24.59 11.44
4/27/2022 3:45:00 PM 9.91 49.838 0.085 7.5 19 11.42
4/27/2022 4:00:00 PM 9.86 49.748 0.084 7.49 27.27 11.4
4/27/2022 4:15:00 PM 9.83 49.694 0.085 7.48 31.41 11.39
4/27/2022 4:30:00 PM 9.8 49.64 0.085 7.47 22.72 11.36
4/27/2022 4:45:00 PM 9.76 49.568 0.085 7.46 19.02 11.34
4/27/2022 5:00:00 PM 9.71 49.478 0.085 7.44 15.38 11.31
4/27/2022 5:15:00 PM 9.67 49.406 0.085 7.43 19.49 11.28
4/27/2022 5:30:00 PM 9.63 49.334 0.085 7.41 19.54 11.24
4/27/2022 5:45:00 PM 9.6 49.28 0.085 7.41 20.22 11.25
4/27/2022 6:00:00 PM 9.54 49.172 0.086 7.39 36.01 11.22
4/27/2022 6:15:00 PM 9.49 49.082 0.086 7.37 29.3 11.18
4/27/2022 6:30:00 PM 9.43 48.974 0.086 7.35 32.02 11.16
4/27/2022 6:45:00 PM 9.35 48.83 0.085 7.34 24.26 11.15
4/27/2022 7:00:00 PM 9.28 48.704 0.086 7.32 18.47 11.13
4/27/2022 7:15:00 PM 9.21 48.578 0.085 7.31 21.39 11.11
4/27/2022 7:30:00 PM 9.13 48.434 0.086 7.29 24.06 11.09
4/27/2022 7:45:00 PM 9.04 48.272 0.086 7.28 25.59 11.07
4/27/2022 8:00:00 PM 8.97 48.146 0.086 7.26 21.93 11.05
4/27/2022 8:15:00 PM 8.9 48.02 0.086 7.24 30.75 11.04
4/27/2022 8:30:00 PM 8.82 47.876 0.086 7.23 27.33 11.03
4/27/2022 8:45:00 PM 8.74 47.732 0.086 7.22 20.44 11.02
4/27/2022 9:00:00 PM 8.67 47.606 0.086 7.21 22.51 11.03
4/27/2022 9:15:00 PM 8.59 47.462 0.086 7.2 22.34 11.03
4/27/2022 9:30:00 PM 8.51 47.318 0.086 7.19 26.51 11.04
4/27/2022 9:45:00 PM 8.43 47.174 0.087 7.19 31.09 11.05
4/27/2022 10:00:00 PM 8.34 47.012 0.086 7.18 33.55 11.05
4/27/2022 10:15:00 PM 8.26 46.868 0.086 7.18 31.77 11.08
4/27/2022 10:30:00 PM 8.19 46.742 0.086 7.17 22.63 11.09
4/27/2022 10:45:00 PM 8.11 46.598 0.086 7.17 24.62 11.11
4/27/2022 11:00:00 PM 8.04 46.472 0.086 7.16 21.96 11.13
4/27/2022 11:15:00 PM 7.96 46.328 0.087 7.16 20.54 11.15
4/27/2022 11:30:00 PM 7.9 46.22 0.087 7.16 21.65 11.17
4/27/2022 11:45:00 PM 7.84 46.112 0.087 7.16 21.57 11.18
4/28/2022 12:00:00 AM 7.78 46.004 0.087 7.15 24.58 11.2
4/28/2022 12:15:00 AM 7.72 45.896 0.087 7.15 20.13 11.22
4/28/2022 12:30:00 AM 7.65 45.77 0.087 7.15 23.08 11.24
4/28/2022 12:45:00 AM 7.59 45.662 0.087 7.15 27.79 11.25
4/28/2022 1:00:00 AM 7.53 45.554 0.087 7.15 23.45 11.27
4/28/2022 1:15:00 AM 7.48 45.464 0.087 7.15 23.33 11.29
4/28/2022 1:30:00 AM 7.42 45.356 0.087 7.15 18.92 11.31
4/28/2022 1:45:00 AM 7.36 45.248 0.087 7.14 17.91 11.33
4/28/2022 2:00:00 AM 7.3 45.14 0.087 7.14 16.16 11.35
4/28/2022 2:15:00 AM 7.26 45.068 0.088 7.14 16.57 11.35
4/28/2022 2:30:00 AM 7.2 44.96 0.088 7.14 16.31 11.37
4/28/2022 2:45:00 AM 7.15 44.87 0.087 7.14 16.64 11.4
4/28/2022 3:00:00 AM 7.1 44.78 0.088 7.14 18.05 11.42
4/28/2022 3:15:00 AM 7.05 44.69 0.087 7.14 19.95 11.43
4/28/2022 3:30:00 AM 7 44.6 0.087 7.14 20.94 11.45
4/28/2022 3:45:00 AM 6.95 44.51 0.088 7.14 20.55 11.45
4/28/2022 4:00:00 AM 6.89 44.402 0.088 7.14 22.18 11.48
4/28/2022 4:15:00 AM 6.84 44.312 0.087 7.14 19.69 11.5
4/28/2022 4:30:00 AM 6.78 44.204 0.087 7.14 24.58 11.51
4/28/2022 4:45:00 AM 6.73 44.114 0.087 7.14 20.92 11.53
4/28/2022 5:00:00 AM 6.67 44.006 0.088 7.14 24.66 11.54
4/28/2022 5:15:00 AM 6.61 43.898 0.087 7.14 21.8 11.56
4/28/2022 5:30:00 AM 6.56 43.808 0.088 7.14 22.45 11.57
4/28/2022 5:45:00 AM 6.51 43.718 0.088 7.14 23.02 11.59
4/28/2022 6:00:00 AM 6.46 43.628 0.088 7.14 23.65 11.61
4/28/2022 6:15:00 AM 6.41 43.538 0.088 7.14 21.98 11.63
4/28/2022 6:30:00 AM 6.35 43.43 0.088 7.13 20.55 11.66
4/28/2022 6:45:00 AM 6.31 43.358 0.088 7.12 20.5 11.69
4/28/2022 7:00:00 AM 6.28 43.304 0.087 7.12 20.44 11.74
4/28/2022 7:15:00 AM 6.25 43.25 0.087 7.14 18.64 11.8
4/28/2022 7:30:00 AM 6.23 43.214 0.087 7.15 17.89 11.87
4/28/2022 7:45:00 AM 6.21 43.178 0.088 7.16 17.62 11.93
4/28/2022 8:00:00 AM 6.19 43.142 0.087 7.18 18.44 11.98
4/28/2022 8:15:00 AM 6.21 43.178 0.087 7.19 21.74 12.04
4/28/2022 8:30:00 AM 6.24 43.232 0.087 7.21 26.65 12.09
4/28/2022 8:45:00 AM 6.28 43.304 0.087 7.22 29.52 12.13
4/28/2022 9:00:00 AM 6.31 43.358 0.087 7.24 25.46 12.17
4/28/2022 9:15:00 AM 6.41 43.538 0.087 7.25 18.84 12.21
4/28/2022 9:30:00 AM 6.52 43.736 0.087 7.27 25.24 12.24
4/28/2022 9:45:00 AM 6.62 43.916 0.087 7.29 21.31 12.25
4/28/2022 10:00:00 AM 6.74 44.132 0.087 7.3 28.34 12.27
4/28/2022 10:15:00 AM 6.87 44.366 0.087 7.31 18.46 12.27
4/28/2022 10:30:00 AM 7.03 44.654 0.087 7.33 18.79 12.27
4/28/2022 10:45:00 AM 7.21 44.978 0.087 7.34 20.03 12.26
4/28/2022 11:00:00 AM 7.4 45.32 0.086 7.35 15.65 12.25
4/28/2022 11:15:00 AM 7.62 45.716 0.087 7.36 18.04 12.23
4/28/2022 11:30:00 AM 7.88 46.184 0.087 7.37 18.12 12.19
4/28/2022 11:45:00 AM 8.07 46.526 0.087 7.38 26.6 12.17
4/28/2022 12:00:00 PM 8.32 46.976 0.087 7.39 29.6 12.14
4/28/2022 12:15:00 PM 8.61 47.498 0.086 7.4 33.01 12.07
4/28/2022 12:30:00 PM 8.91 48.038 0.087 7.41 19.88 12.03
4/28/2022 12:45:00 PM 9.2 48.56 0.086 7.42 19.57 11.95
4/28/2022 1:00:00 PM 9.5 49.1 0.086 7.43 18.69 11.88
4/28/2022 1:15:00 PM 9.81 49.658 0.086 7.44 18.55 11.82
4/28/2022 1:30:00 PM 10.09 50.162 0.086 7.45 18.79 11.74
4/28/2022 1:45:00 PM 10.34 50.612 0.086 7.46 19.2 11.69
4/28/2022 2:00:00 PM 10.57 51.026 0.087 7.47 19.16 11.62
4/28/2022 2:15:00 PM 10.82 51.476 0.086 7.47 19.27 11.58
4/28/2022 2:30:00 PM 11.01 51.818 0.086 7.48 19.68 11.5
4/28/2022 2:45:00 PM 11.21 52.178 0.086 7.49 20.99 11.44
4/28/2022 3:00:00 PM 11.36 52.448 0.086 7.49 19.89 11.38
4/28/2022 3:15:00 PM 11.53 52.754 0.086 7.5 21.56 11.31
4/28/2022 3:30:00 PM 11.62 52.916 0.086 7.5 30.8 11.25
4/28/2022 3:45:00 PM 11.72 53.096 0.085 7.5 53.32 11.21
4/28/2022 4:00:00 PM 11.72 53.096 0.085 7.51 16.95 11.17
4/28/2022 4:15:00 PM 11.76 53.168 0.085 7.51 16.67 11.12
4/28/2022 4:30:00 PM 11.8 53.24 0.085 7.51 23.52 11.06
4/28/2022 4:45:00 PM 11.79 53.222 0.085 7.5 23.32 11.02
4/28/2022 5:00:00 PM 11.79 53.222 0.085 7.5 23.69 10.97
4/28/2022 5:15:00 PM 11.8 53.24 0.085 7.49 22.28 10.92
4/28/2022 5:30:00 PM 11.8 53.24 0.086 7.49 23.32 10.88
4/28/2022 5:45:00 PM 11.77 53.186 0.086 7.47 20.65 10.82
4/28/2022 6:00:00 PM 11.73 53.114 0.086 7.46 20.05 10.78
4/28/2022 6:15:00 PM 11.69 53.042 0.086 7.45 21.54 10.74
4/28/2022 6:30:00 PM 11.64 52.952 0.086 7.44 24.17 10.7
4/28/2022 6:45:00 PM 11.6 52.88 0.086 7.42 20.75 10.65
4/28/2022 7:00:00 PM 11.54 52.772 0.086 7.4 22.87 10.61
4/28/2022 7:15:00 PM 11.46 52.628 0.086 7.38 22.87 10.59
4/28/2022 7:30:00 PM 11.4 52.52 0.086 7.37 22.61 10.55
4/28/2022 7:45:00 PM 11.3 52.34 0.086 7.36 22.92 10.53
4/28/2022 8:00:00 PM 11.2 52.16 0.086 7.33 23.72 10.5
4/28/2022 8:15:00 PM 11.1 51.98 0.086 7.31 20.3 10.47
4/28/2022 8:30:00 PM 10.98 51.764 0.087 7.3 18.87 10.45
4/28/2022 8:45:00 PM 10.86 51.548 0.087 7.28 17.41 10.45
4/28/2022 9:00:00 PM 10.73 51.314 0.086 7.27 18.03 10.43
4/28/2022 9:15:00 PM 10.59 51.062 0.087 7.26 16.21 10.44
4/28/2022 9:30:00 PM 10.47 50.846 0.086 7.24 17.72 10.45
4/28/2022 9:45:00 PM 10.32 50.576 0.086 7.23 18.26 10.48
4/28/2022 10:00:00 PM 10.19 50.342 0.087 7.22 17.97 10.49
4/28/2022 10:15:00 PM 10.05 50.09 0.087 7.21 21.03 10.51
4/28/2022 10:30:00 PM 9.91 49.838 0.087 7.2 18.74 10.53
4/28/2022 10:45:00 PM 9.77 49.586 0.087 7.2 22.44 10.57
4/28/2022 11:00:00 PM 9.63 49.334 0.087 7.19 22.75 10.6
4/28/2022 11:15:00 PM 9.49 49.082 0.088 7.19 22.82 10.64
4/28/2022 11:30:00 PM 9.36 48.848 0.087 7.18 17.72 10.66
4/28/2022 11:45:00 PM 9.22 48.596 0.087 7.17 17.35 10.7
4/29/2022 12:00:00 AM 9.09 48.362 0.087 7.17 18.41 10.74
4/29/2022 12:15:00 AM 8.96 48.128 0.087 7.17 17.36 10.78
4/29/2022 12:30:00 AM 8.82 47.876 0.087 7.16 18.49 10.82
4/29/2022 12:45:00 AM 8.69 47.642 0.088 7.16 18.09 10.85
4/29/2022 1:00:00 AM 8.57 47.426 0.088 7.15 18.86 10.89
4/29/2022 1:15:00 AM 8.43 47.174 0.088 7.15 17.33 10.92
4/29/2022 1:30:00 AM 8.31 46.958 0.088 7.15 17.58 10.96
4/29/2022 1:45:00 AM 8.19 46.742 0.088 7.14 18.83 11.01
4/29/2022 2:00:00 AM 8.07 46.526 0.088 7.14 18.24 11.03
4/29/2022 2:15:00 AM 7.95 46.31 0.088 7.14 18.63 11.08
4/29/2022 2:30:00 AM 7.84 46.112 0.089 7.14 18.71 11.1
4/29/2022 2:45:00 AM 7.73 45.914 0.089 7.13 17.86 11.14
4/29/2022 3:00:00 AM 7.61 45.698 0.088 7.13 17.41 11.18
4/29/2022 3:15:00 AM 7.51 45.518 0.088 7.12 18.1 11.21
4/29/2022 3:30:00 AM 7.4 45.32 0.088 7.12 18.68 11.24
4/29/2022 3:45:00 AM 7.29 45.122 0.089 7.12 18.68 11.27
4/29/2022 4:00:00 AM 7.19 44.942 0.089 7.11 18.44 11.31
4/29/2022 4:15:00 AM 7.09 44.762 0.089 7.1 18.78 11.34
4/29/2022 4:30:00 AM 6.98 44.564 0.089 7.1 18.53 11.38
4/29/2022 4:45:00 AM 6.88 44.384 0.088 7.1 18.25 11.42
4/29/2022 5:00:00 AM 6.78 44.204 0.089 7.09 17.87 11.44
4/29/2022 5:15:00 AM 6.68 44.024 0.089 7.1 18.43 11.47
4/29/2022 5:30:00 AM 6.58 43.844 0.089 7.09 16.22 11.51
4/29/2022 5:45:00 AM 6.48 43.664 0.089 7.06 14.58 11.54
4/29/2022 6:00:00 AM 6.39 43.502 0.089 7.03 26.29 11.57
4/29/2022 6:15:00 AM 6.3 43.34 0.089 7.04 15.55 11.59
4/29/2022 6:30:00 AM 6.21 43.178 0.089 7.03 18.35 11.67
4/29/2022 6:45:00 AM 6.13 43.034 0.089 7.03 15.31 11.73
4/29/2022 7:00:00 AM 6.05 42.89 0.089 7.05 15.73 11.8
4/29/2022 7:15:00 AM 6 42.8 0.089 7.08 17.11 11.86
4/29/2022 7:30:00 AM 5.95 42.71 0.089 7.09 16.64 11.94
4/29/2022 7:45:00 AM 5.92 42.656 0.089 7.11 16.2 12.01
4/29/2022 8:00:00 AM 5.91 42.638 0.089 7.13 16.47 12.09
4/29/2022 8:15:00 AM 5.92 42.656 0.089 7.15 16.94 12.14
4/29/2022 8:30:00 AM 5.94 42.692 0.089 7.18 17.46 12.2
4/29/2022 8:45:00 AM 5.97 42.746 0.089 7.2 17.72 12.26
4/29/2022 9:00:00 AM 6.03 42.854 0.089 7.22 18.62 12.29
4/29/2022 9:15:00 AM 6.12 43.016 0.089 7.24 15.33 12.33
4/29/2022 9:30:00 AM 6.24 43.232 0.089 7.26 18.22 12.36
4/29/2022 9:45:00 AM 6.35 43.43 0.089 7.28 18.12 12.38
4/29/2022 10:00:00 AM 6.47 43.646 0.089 7.3 18 12.4
4/29/2022 10:15:00 AM 6.63 43.934 0.089 7.31 16.02 12.4
4/29/2022 10:30:00 AM 6.83 44.294 0.088 7.33 18.81 12.41
4/29/2022 10:45:00 AM 7.05 44.69 0.089 7.34 16.86 12.39
4/29/2022 11:00:00 AM 7.24 45.032 0.089 7.36 17.24 12.37
4/29/2022 11:15:00 AM 7.46 45.428 0.088 7.36 16.73 12.35
4/29/2022 11:30:00 AM 7.75 45.95 0.089 7.38 16.9 12.31
4/29/2022 11:45:00 AM 7.97 46.346 0.088 7.39 17.54 12.29
4/29/2022 12:00:00 PM 8.24 46.832 0.088 7.4 17.67 12.24
4/29/2022 12:15:00 PM 8.58 47.444 0.088 7.42 17.02 12.2
4/29/2022 12:30:00 PM 8.88 47.984 0.088 7.42 18.01 12.12
4/29/2022 12:45:00 PM 9.18 48.524 0.088 7.43 17.78 12.06
4/29/2022 1:00:00 PM 9.52 49.136 0.087 7.45 15.39 11.99
4/29/2022 1:15:00 PM 9.82 49.676 0.088 7.46 24.26 11.92
4/29/2022 1:30:00 PM 10.11 50.198 0.088 7.47 22.72 11.85
4/29/2022 1:45:00 PM 10.44 50.792 0.088 7.48 23.1 11.79
4/29/2022 2:00:00 PM 10.71 51.278 0.088 7.49 23.16 11.69
4/29/2022 2:15:00 PM 10.93 51.674 0.087 7.5 15.39 11.64
4/29/2022 2:30:00 PM 11.2 52.16 0.088 7.51 17.54 11.58
4/29/2022 2:45:00 PM 11.41 52.538 0.088 7.52 23.2 11.51
4/29/2022 3:00:00 PM 11.58 52.844 0.088 7.53 23.04 11.44
4/29/2022 3:15:00 PM 11.75 53.15 0.087 7.53 19.08 11.39
4/29/2022 3:30:00 PM 11.86 53.348 0.087 7.52 18.68 11.3
4/29/2022 3:45:00 PM 11.99 53.582 0.088 7.54 14.02 11.25
4/29/2022 4:00:00 PM 12.04 53.672 0.088 7.54 15.46 11.19
4/29/2022 4:15:00 PM 12.09 53.762 0.088 7.55 14.93 11.13
4/29/2022 4:30:00 PM 12.14 53.852 0.088 7.55 16.11 11.07
4/29/2022 4:45:00 PM 12.16 53.888 0.089 7.55 17.46 11.02
4/29/2022 5:00:00 PM 12.19 53.942 0.088 7.54 15.84 10.95
4/29/2022 5:15:00 PM 12.22 53.996 0.088 7.54 15.7 10.89
4/29/2022 5:30:00 PM 12.23 54.014 0.088 7.53 16.98 10.85
4/29/2022 5:45:00 PM 12.22 53.996 0.088 7.51 18.61 10.78
4/29/2022 6:00:00 PM 12.22 53.996 0.088 7.5 18.73 10.73
4/29/2022 6:15:00 PM 12.2 53.96 0.088 7.49 19.26 10.67
4/29/2022 6:30:00 PM 12.2 53.96 0.088 7.47 19.24 10.62
4/29/2022 6:45:00 PM 12.18 53.924 0.088 7.45 16.93 10.56
4/29/2022 7:00:00 PM 12.15 53.87 0.088 7.43 16.76 10.52
4/29/2022 7:15:00 PM 12.12 53.816 0.088 7.41 16.63 10.47
4/29/2022 7:30:00 PM 12.06 53.708 0.088 7.4 17.25 10.43
4/29/2022 7:45:00 PM 12 53.6 0.087 7.37 17.31 10.38
4/29/2022 8:00:00 PM 11.92 53.456 0.088 7.35 16.76 10.34
4/29/2022 8:15:00 PM 11.85 53.33 0.088 7.33 15.57 10.29
4/29/2022 8:30:00 PM 11.76 53.168 0.088 7.31 20.27 10.26
4/29/2022 8:45:00 PM 11.66 52.988 0.088 7.29 14.55 10.24
4/29/2022 9:00:00 PM 11.56 52.808 0.088 7.28 14.96 10.23
4/29/2022 9:15:00 PM 11.46 52.628 0.088 7.26 14.29 10.22
4/29/2022 9:30:00 PM 11.37 52.466 0.088 7.25 16.07 10.22
4/29/2022 9:45:00 PM 11.26 52.268 0.088 7.24 15.54 10.21
4/29/2022 10:00:00 PM 11.14 52.052 0.088 7.23 15.72 10.23
4/29/2022 10:15:00 PM 11.04 51.872 0.088 7.22 15.63 10.24
4/29/2022 10:30:00 PM 10.91 51.638 0.088 7.22 17.4 10.27
4/29/2022 10:45:00 PM 10.78 51.404 0.088 7.21 17.29 10.28
4/29/2022 11:00:00 PM 10.65 51.17 0.088 7.2 16.54 10.3
4/29/2022 11:15:00 PM 10.51 50.918 0.088 7.19 20.05 10.32
4/29/2022 11:30:00 PM 10.36 50.648 0.088 7.19 17.55 10.37
4/29/2022 11:45:00 PM 10.22 50.396 0.089 7.18 18.55 10.38
4/30/2022 12:00:00 AM 10.09 50.162 0.089 7.18 18.84 10.43
4/30/2022 12:15:00 AM 9.93 49.874 0.088 7.17 21.5 10.46
4/30/2022 12:30:00 AM 9.79 49.622 0.089 7.16 20.09 10.5
4/30/2022 12:45:00 AM 9.66 49.388 0.089 7.16 19.33 10.55
4/30/2022 1:00:00 AM 9.51 49.118 0.089 7.16 18.91 10.59
4/30/2022 1:15:00 AM 9.38 48.884 0.089 7.16 18.71 10.62
4/30/2022 1:30:00 AM 9.26 48.668 0.089 7.15 19 10.65
4/30/2022 1:45:00 AM 9.12 48.416 0.089 7.15 18.86 10.69
4/30/2022 2:00:00 AM 8.99 48.182 0.089 7.15 18.66 10.73
4/30/2022 2:15:00 AM 8.87 47.966 0.09 7.14 19.11 10.77
4/30/2022 2:30:00 AM 8.75 47.75 0.089 7.14 18.8 10.79
4/30/2022 2:45:00 AM 8.63 47.534 0.09 7.14 18.59 10.83
4/30/2022 3:00:00 AM 8.51 47.318 0.09 7.14 18.28 10.87
4/30/2022 3:15:00 AM 8.38 47.084 0.09 7.14 18.47 10.9
4/30/2022 3:30:00 AM 8.27 46.886 0.09 7.15 18.59 10.96
4/30/2022 3:45:00 AM 8.16 46.688 0.09 7.14 18.11 10.99
4/30/2022 4:00:00 AM 8.04 46.472 0.09 7.14 18.34 11.02
4/30/2022 4:15:00 AM 7.93 46.274 0.09 7.13 18.62 11.05
4/30/2022 4:30:00 AM 7.82 46.076 0.09 7.13 18.08 11.09
4/30/2022 4:45:00 AM 7.71 45.878 0.09 7.13 18.19 11.12
4/30/2022 5:00:00 AM 7.61 45.698 0.09 7.13 18.1 11.16
4/30/2022 5:15:00 AM 7.5 45.5 0.091 7.13 18.05 11.19
4/30/2022 5:30:00 AM 7.39 45.302 0.09 7.13 17.86 11.23
4/30/2022 5:45:00 AM 7.29 45.122 0.091 7.13 18 11.26
4/30/2022 6:00:00 AM 7.2 44.96 0.091 7.11 17.92 11.28
4/30/2022 6:15:00 AM 7.09 44.762 0.091 7.08 17.8 11.34
4/30/2022 6:30:00 AM 7 44.6 0.09 7.08 17.79 11.39
4/30/2022 6:45:00 AM 6.92 44.456 0.091 7.09 20.19 11.44
4/30/2022 7:00:00 AM 6.84 44.312 0.091 7.1 21.8 11.51
4/30/2022 7:15:00 AM 6.78 44.204 0.09 7.12 19.99 11.6
4/30/2022 7:30:00 AM 6.73 44.114 0.091 7.13 18.52 11.66
4/30/2022 7:45:00 AM 6.69 44.042 0.09 7.15 18.36 11.74
4/30/2022 8:00:00 AM 6.68 44.024 0.091 7.16 18.31 11.8
4/30/2022 8:15:00 AM 6.68 44.024 0.091 7.19 16.45 11.88
4/30/2022 8:30:00 AM 6.69 44.042 0.09 7.21 16.66 11.96
4/30/2022 8:45:00 AM 6.72 44.096 0.09 7.23 17.09 12.01
4/30/2022 9:00:00 AM 6.78 44.204 0.09 7.25 16.83 12.06
4/30/2022 9:15:00 AM 6.86 44.348 0.09 7.27 16.91 12.1
4/30/2022 9:30:00 AM 6.97 44.546 0.09 7.29 17.2 12.15
4/30/2022 9:45:00 AM 7.09 44.762 0.09 7.31 16.14 12.16
4/30/2022 10:00:00 AM 7.25 45.05 0.091 7.33 15.88 12.2
4/30/2022 10:15:00 AM 7.41 45.338 0.09 7.34 14.93 12.2
4/30/2022 10:30:00 AM 7.64 45.752 0.09 7.36 17.92 12.2
4/30/2022 10:45:00 AM 7.9 46.22 0.09 7.37 15.61 12.2
4/30/2022 11:00:00 AM 8.11 46.598 0.089 7.39 15.02 12.18
4/30/2022 11:15:00 AM 8.36 47.048 0.09 7.4 15.91 12.15
4/30/2022 11:30:00 AM 8.64 47.552 0.089 7.42 15.63 12.12
4/30/2022 11:45:00 AM 8.89 48.002 0.089 7.43 15.23 12.09
4/30/2022 12:00:00 PM 9.17 48.506 0.089 7.45 13.28 12.05
4/30/2022 12:15:00 PM 9.48 49.064 0.09 7.46 17.46 11.99
4/30/2022 12:30:00 PM 9.83 49.694 0.089 7.47 15.66 11.93
4/30/2022 12:45:00 PM 10.14 50.252 0.089 7.49 15.11 11.87
4/30/2022 1:00:00 PM 10.47 50.846 0.089 7.51 15 11.82
4/30/2022 1:15:00 PM 10.78 51.404 0.089 7.52 15.45 11.73
4/30/2022 1:30:00 PM 11.12 52.016 0.088 7.54 15.17 11.68
4/30/2022 1:45:00 PM 11.42 52.556 0.089 7.55 15.65 11.63
4/30/2022 2:00:00 PM 11.7 53.06 0.089 7.56 18.89 11.56
4/30/2022 2:15:00 PM 11.95 53.51 0.089 7.57 28.71 11.49
4/30/2022 2:30:00 PM 12.21 53.978 0.088 7.59 30.24 11.41
4/30/2022 2:45:00 PM 12.43 54.374 0.089 7.59 30.73 11.33
4/30/2022 3:00:00 PM 12.65 54.77 0.089 7.61 19.37 11.28
4/30/2022 3:15:00 PM 12.78 55.004 0.089 7.61 19.27 11.23
4/30/2022 3:30:00 PM 12.93 55.274 0.088 7.62 19.16 11.16
4/30/2022 3:45:00 PM 13.04 55.472 0.088 7.63 19.57 11.1
4/30/2022 4:00:00 PM 13.13 55.634 0.089 7.63 19.51 11.05
4/30/2022 4:15:00 PM 13.17 55.706 0.088 7.63 23.2 10.98
4/30/2022 4:30:00 PM 13.2 55.76 0.088 7.63 23.11 10.93
4/30/2022 4:45:00 PM 13.22 55.796 0.088 7.62 23.02 10.85
4/30/2022 5:00:00 PM 13.21 55.778 0.088 7.62 22.63 10.81
4/30/2022 5:15:00 PM 13.3 55.94 0.088 7.61 22.11 10.75
4/30/2022 5:30:00 PM 13.32 55.976 0.088 7.61 21.27 10.71
4/30/2022 5:45:00 PM 13.33 55.994 0.088 7.6 16.61 10.65
4/30/2022 6:00:00 PM 13.35 56.03 0.088 7.58 16.6 10.59
4/30/2022 6:15:00 PM 13.38 56.084 0.088 7.57 16.91 10.52
4/30/2022 6:30:00 PM 13.4 56.12 0.088 7.55 17.74 10.48
4/30/2022 6:45:00 PM 13.41 56.138 0.088 7.53 17.21 10.41
4/30/2022 7:00:00 PM 13.39 56.102 0.088 7.51 16.73 10.37
4/30/2022 7:15:00 PM 13.37 56.066 0.088 7.49 16.7 10.3
4/30/2022 7:30:00 PM 13.34 56.012 0.088 7.47 16.56 10.25
4/30/2022 7:45:00 PM 13.29 55.922 0.088 7.44 17.27 10.17
4/30/2022 8:00:00 PM 13.23 55.814 0.088 7.4 17.58 10.1
4/30/2022 8:15:00 PM 13.17 55.706 0.088 7.37 16.8 10.03
4/30/2022 8:30:00 PM 13.09 55.562 0.089 7.34 17.81 10
4/30/2022 8:45:00 PM 13.01 55.418 0.089 7.32 20.2 9.94
4/30/2022 9:00:00 PM 12.91 55.238 0.089 7.3 20.13 9.92
4/30/2022 9:15:00 PM 12.81 55.058 0.089 7.29 20.2 9.89
4/30/2022 9:30:00 PM 12.69 54.842 0.089 7.27 19.89 9.88
4/30/2022 9:45:00 PM 12.58 54.644 0.089 7.25 20.45 9.88
4/30/2022 10:00:00 PM 12.47 54.446 0.089 7.24 20.8 9.88
4/30/2022 10:15:00 PM 12.35 54.23 0.089 7.23 20.52 9.88
4/30/2022 10:30:00 PM 12.23 54.014 0.089 7.22 20.18 9.9
4/30/2022 10:45:00 PM 12.11 53.798 0.089 7.21 20.22 9.91
4/30/2022 11:00:00 PM 11.99 53.582 0.089 7.2 19.97 9.92
4/30/2022 11:15:00 PM 11.86 53.348 0.09 7.19 19.75 9.94
4/30/2022 11:30:00 PM 11.72 53.096 0.089 7.19 16.78 9.96
4/30/2022 11:45:00 PM 11.59 52.862 0.089 7.18 17.76 9.99
5/1/2022 12:00:00 AM 11.46 52.628 0.09 7.17 18.16 10.02
5/1/2022 12:15:00 AM 11.32 52.376 0.089 7.17 29.03 10.05
5/1/2022 12:30:00 AM 11.19 52.142 0.09 7.16 26.24 10.07
5/1/2022 12:45:00 AM 11.06 51.908 0.089 7.16 26.05 10.1
5/1/2022 1:00:00 AM 10.91 51.638 0.09 7.16 26.17 10.16
5/1/2022 1:15:00 AM 10.79 51.422 0.09 7.15 26.39 10.17
5/1/2022 1:30:00 AM 10.65 51.17 0.09 7.15 26.21 10.21
5/1/2022 1:45:00 AM 10.52 50.936 0.09 7.15 25.88 10.23
5/1/2022 2:00:00 AM 10.4 50.72 0.09 7.15 29.41 10.26
5/1/2022 2:15:00 AM 10.27 50.486 0.09 7.14 26.74 10.3
5/1/2022 2:30:00 AM 10.14 50.252 0.09 7.15 30.25 10.34
5/1/2022 2:45:00 AM 10.02 50.036 0.09 7.14 29.49 10.38
5/1/2022 3:00:00 AM 9.89 49.802 0.09 7.14 27.9 10.41
5/1/2022 3:15:00 AM 9.77 49.586 0.09 7.13 27.58 10.45
5/1/2022 3:30:00 AM 9.65 49.37 0.091 7.13 27.09 10.49
5/1/2022 3:45:00 AM 9.53 49.154 0.091 7.14 27.79 10.52
5/1/2022 4:00:00 AM 9.4 48.92 0.091 7.13 27.36 10.57
5/1/2022 4:15:00 AM 9.29 48.722 0.091 7.14 27.38 10.59
5/1/2022 4:30:00 AM 9.19 48.542 0.091 7.13 27.34 10.61
5/1/2022 4:45:00 AM 9.07 48.326 0.091 7.14 27.37 10.66
5/1/2022 5:00:00 AM 8.96 48.128 0.092 7.14 27.74 10.69
5/1/2022 5:15:00 AM 8.85 47.93 0.091 7.14 27.97 10.72
5/1/2022 5:30:00 AM 8.75 47.75 0.092 7.14 21.55 10.76
5/1/2022 5:45:00 AM 8.64 47.552 0.092 7.14 23.4 10.8
5/1/2022 6:00:00 AM 8.53 47.354 0.092 7.14 21.3 10.83
5/1/2022 6:15:00 AM 8.44 47.192 0.092 7.14 21.61 10.87
5/1/2022 6:30:00 AM 8.34 47.012 0.092 7.15 21.97 10.93
5/1/2022 6:45:00 AM 8.26 46.868 0.092 7.16 19.86 11
5/1/2022 7:00:00 AM 8.18 46.724 0.092 7.17 19.88 11.08
5/1/2022 7:15:00 AM 8.12 46.616 0.092 7.18 19.67 11.16
5/1/2022 7:30:00 AM 8.06 46.508 0.092 7.19 19.72 11.22
5/1/2022 7:45:00 AM 8.03 46.454 0.092 7.2 19.54 11.3
5/1/2022 8:00:00 AM 8.02 46.436 0.092 7.22 19.64 11.38
5/1/2022 8:15:00 AM 8.03 46.454 0.092 7.24 20.34 11.46
5/1/2022 8:30:00 AM 8.06 46.508 0.092 7.25 19.96 11.52
5/1/2022 8:45:00 AM 8.11 46.598 0.092 7.28 20.33 11.6
5/1/2022 9:00:00 AM 8.17 46.706 0.092 7.3 20.31 11.65
5/1/2022 9:15:00 AM 8.28 46.904 0.092 7.32 20.29 11.71
5/1/2022 9:30:00 AM 8.39 47.102 0.092 7.34 20.22 11.75
5/1/2022 9:45:00 AM 8.52 47.336 0.092 7.36 20.3 11.79
5/1/2022 10:00:00 AM 8.68 47.624 0.091 7.38 20.34 11.81
5/1/2022 10:15:00 AM 8.86 47.948 0.091 7.4 20.57 11.83
5/1/2022 10:30:00 AM 9.05 48.29 0.091 7.42 20.01 11.84
5/1/2022 10:45:00 AM 9.18 48.524 0.091 7.44 20.09 11.85
5/1/2022 11:00:00 AM 9.43 48.974 0.091 7.46 19.31 11.84
5/1/2022 11:15:00 AM 9.71 49.478 0.091 7.48 19.15 11.83
5/1/2022 11:30:00 AM 9.95 49.91 0.09 7.5 18.2 11.81
5/1/2022 11:45:00 AM 10.15 50.27 0.091 7.52 18.33 11.78
5/1/2022 12:00:00 PM 10.4 50.72 0.09 7.54 18.13 11.76
5/1/2022 12:15:00 PM 10.64 51.152 0.09 7.56 17.96 11.71
5/1/2022 12:30:00 PM 10.8 51.44 0.091 7.57 18.01 11.68
5/1/2022 12:45:00 PM 11.16 52.088 0.091 7.6 18.81 11.66
5/1/2022 1:00:00 PM 11.28 52.304 0.091 7.61 18.69 11.58
5/1/2022 1:15:00 PM 11.27 52.286 0.09 7.61 18.79 11.53
5/1/2022 1:30:00 PM 11.31 52.358 0.09 7.62 18.53 11.46
5/1/2022 1:45:00 PM 11.39 52.502 0.09 7.63 18.64 11.44
5/1/2022 2:00:00 PM 11.44 52.592 0.09 7.62 18.73 11.36
5/1/2022 2:15:00 PM 11.45 52.61 0.09 7.61 18.77 11.29
5/1/2022 2:30:00 PM 11.47 52.646 0.09 7.61 18.75 11.23
5/1/2022 2:45:00 PM 11.51 52.718 0.09 7.61 18.84 11.22
5/1/2022 3:00:00 PM 11.53 52.754 0.09 7.61 18.67 11.17
5/1/2022 3:15:00 PM 11.55 52.79 0.089 7.61 19.07 11.15
5/1/2022 3:30:00 PM 11.58 52.844 0.089 7.6 18.91 11.08
5/1/2022 3:45:00 PM 11.59 52.862 0.089 7.57 19.2 11.01
5/1/2022 4:00:00 PM 11.61 52.898 0.09 7.55 19.48 10.94
5/1/2022 4:15:00 PM 11.63 52.934 0.089 7.54 19.35 10.9
5/1/2022 4:30:00 PM 11.65 52.97 0.089 7.53 18.99 10.85
5/1/2022 4:45:00 PM 11.66 52.988 0.089 7.51 19.44 10.81
5/1/2022 5:00:00 PM 11.66 52.988 0.089 7.5 20.47 10.8
5/1/2022 5:15:00 PM 11.67 53.006 0.089 7.5 19.89 10.78
5/1/2022 5:30:00 PM 11.67 53.006 0.089 7.5 19.99 10.81
5/1/2022 5:45:00 PM 11.66 52.988 0.089 7.5 20.05 10.79
5/1/2022 6:00:00 PM 11.65 52.97 0.089 7.49 19.92 10.77
5/1/2022 6:15:00 PM 11.65 52.97 0.089 7.49 19.82 10.77
5/1/2022 6:30:00 PM 11.65 52.97 0.089 7.48 19.91 10.73
5/1/2022 6:45:00 PM 11.64 52.952 0.089 7.46 19.82 10.68
5/1/2022 7:00:00 PM 11.64 52.952 0.089 7.44 20.12 10.59
5/1/2022 7:15:00 PM 11.63 52.934 0.089 7.4 19.5 10.5
5/1/2022 7:30:00 PM 11.63 52.934 0.089 7.38 19.96 10.45
5/1/2022 7:45:00 PM 11.64 52.952 0.089 7.36 19.95 10.39
5/1/2022 8:00:00 PM 11.64 52.952 0.09 7.34 21.45 10.33
5/1/2022 8:15:00 PM 11.64 52.952 0.089 7.32 21.07 10.28
5/1/2022 8:30:00 PM 11.63 52.934 0.089 7.3 21.29 10.24
5/1/2022 8:45:00 PM 11.63 52.934 0.089 7.28 19.89 10.19
5/1/2022 9:00:00 PM 11.62 52.916 0.09 7.27 19.91 10.17
5/1/2022 9:15:00 PM 11.6 52.88 0.089 7.26 20.28 10.14
5/1/2022 9:30:00 PM 11.59 52.862 0.09 7.25 20.12 10.12
5/1/2022 9:45:00 PM 11.56 52.808 0.09 7.25 15.95 10.12
5/1/2022 10:00:00 PM 11.53 52.754 0.09 7.23 17.02 10.09
5/1/2022 10:15:00 PM 11.5 52.7 0.09 7.23 17.11 10.09
5/1/2022 10:30:00 PM 11.47 52.646 0.09 7.22 17.46 10.1
5/1/2022 10:45:00 PM 11.43 52.574 0.09 7.21 18.38 10.09
5/1/2022 11:00:00 PM 11.39 52.502 0.09 7.21 18.59 10.09
5/1/2022 11:15:00 PM 11.35 52.43 0.091 7.2 20.18 10.11
5/1/2022 11:30:00 PM 11.3 52.34 0.091 7.2 20.65 10.11
5/1/2022 11:45:00 PM 11.26 52.268 0.091 7.19 25.36 10.1
5/2/2022 12:00:00 AM 11.22 52.196 0.09 7.19 20.94 10.13
5/2/2022 12:15:00 AM 11.18 52.124 0.091 7.18 22.61 10.12
5/2/2022 12:30:00 AM 11.14 52.052 0.091 7.18 21.59 10.13
5/2/2022 12:45:00 AM 11.11 51.998 0.09 7.18 20.42 10.15
5/2/2022 1:00:00 AM 11.07 51.926 0.091 7.18 24.6 10.16
5/2/2022 1:15:00 AM 11.04 51.872 0.09 7.18 24.51 10.16
5/2/2022 1:30:00 AM 11.01 51.818 0.091 7.18 22.38 10.19
5/2/2022 1:45:00 AM 10.98 51.764 0.091 7.17 22.33 10.19
5/2/2022 2:00:00 AM 10.95 51.71 0.091 7.17 22.58 10.17
5/2/2022 2:15:00 AM 10.92 51.656 0.091 7.17 22.37 10.19
5/2/2022 2:30:00 AM 10.89 51.602 0.091 7.17 23.58 10.19
5/2/2022 2:45:00 AM 10.87 51.566 0.091 7.17 24 10.21
5/2/2022 3:00:00 AM 10.85 51.53 0.091 7.17 23.44 10.21
5/2/2022 3:15:00 AM 10.82 51.476 0.074 7.17 22.38 10.2
5/2/2022 3:30:00 AM 10.79 51.422 0.091 7.16 13.64 10.22
5/2/2022 3:45:00 AM 10.77 51.386 0.091 7.16 14.24 10.21
5/2/2022 4:00:00 AM 10.75 51.35 0.091 7.16 23.05 10.22
5/2/2022 4:15:00 AM 10.73 51.314 0.091 7.16 22.72 10.23
5/2/2022 4:30:00 AM 10.71 51.278 0.092 7.16 22.52 10.23
5/2/2022 4:45:00 AM 10.69 51.242 0.092 7.16 22.82 10.25
5/2/2022 5:00:00 AM 10.66 51.188 0.092 7.16 22.93 10.25
5/2/2022 5:15:00 AM 10.64 51.152 0.091 7.16 20.44 10.26
5/2/2022 5:30:00 AM 10.62 51.116 0.092 7.15 41.79 10.25
5/2/2022 5:45:00 AM 10.6 51.08 0.092 7.16 16.92 10.26
5/2/2022 6:00:00 AM 10.58 51.044 0.092 7.15 18.02 10.26
5/2/2022 6:15:00 AM 10.56 51.008 0.092 7.16 33.48 10.27
5/2/2022 6:30:00 AM 10.54 50.972 0.092 7.16 21.76 10.32
5/2/2022 6:45:00 AM 10.53 50.954 0.092 7.16 21.47 10.33
5/2/2022 7:00:00 AM 10.52 50.936 0.092 7.17 21.22 10.38
5/2/2022 7:15:00 AM 10.51 50.918 0.092 7.17 20.89 10.42
5/2/2022 7:30:00 AM 10.51 50.918 0.092 7.19 20.74 10.45
5/2/2022 7:45:00 AM 10.5 50.9 0.092 7.2 21.18 10.53
5/2/2022 8:00:00 AM 10.51 50.918 0.092 7.21 21.17 10.57
5/2/2022 8:15:00 AM 10.51 50.918 0.092 7.22 21.52 10.62
5/2/2022 8:30:00 AM 10.52 50.936 0.092 7.24 21.55 10.68
5/2/2022 8:45:00 AM 10.53 50.954 0.092 7.25 21.53 10.72
5/2/2022 9:00:00 AM 10.56 51.008 0.092 7.27 20.6 10.8
5/2/2022 9:15:00 AM 10.59 51.062 0.092 7.3 20.65 10.87
5/2/2022 9:30:00 AM 10.59 51.062 0.092 7.32 20.6 10.9
5/2/2022 9:45:00 AM 10.62 51.116 0.092 7.34 20.54 10.97
5/2/2022 10:00:00 AM 10.66 51.188 0.092 7.36 20.69 11.01
5/2/2022 10:15:00 AM 10.71 51.278 0.092 7.38 20.55 11.06
5/2/2022 10:30:00 AM 10.74 51.332 0.092 7.41 20.52 11.08
5/2/2022 10:45:00 AM 10.77 51.386 0.091 7.42 20.61 11.11
5/2/2022 11:00:00 AM 10.82 51.476 0.091 7.44 20.54 11.15
5/2/2022 11:15:00 AM 10.85 51.53 0.091 7.46 20.64 11.15
5/2/2022 11:30:00 AM 10.9 51.62 0.091 7.48 20.64 11.17
5/2/2022 11:45:00 AM 10.96 51.728 0.091 7.49 20.92 11.2
5/2/2022 12:00:00 PM 11 51.8 0.092 7.51 20.63 11.22
5/2/2022 12:15:00 PM 11.09 51.962 0.091 7.54 19.85 11.26
5/2/2022 12:30:00 PM 11.28 52.304 0.09 7.57 20.87 11.28
5/2/2022 12:45:00 PM 11.4 52.52 0.091 7.59 20.77 11.29
5/2/2022 1:00:00 PM 11.46 52.628 0.091 7.62 20.9 11.3
5/2/2022 1:15:00 PM 11.68 53.024 0.09 7.64 20.9 11.3
5/2/2022 1:30:00 PM 11.63 52.934 0.091 7.64 21.08 11.26
5/2/2022 1:45:00 PM 11.57 52.826 0.09 7.63 20.87 11.21
5/2/2022 2:00:00 PM 11.56 52.808 0.09 7.61 20.95 11.16
5/2/2022 2:15:00 PM 11.58 52.844 0.091 7.6 20.9 11.1
5/2/2022 2:30:00 PM 11.59 52.862 0.09 7.57 20.99 11.01
5/2/2022 2:45:00 PM 11.6 52.88 0.09 7.56 21.01 10.97
5/2/2022 3:00:00 PM 11.88 53.384 0.091 7.57 20.88 11.01
5/2/2022 3:15:00 PM 12.19 53.942 0.09 7.6 20.9 11.04
5/2/2022 3:30:00 PM 12.39 54.302 0.09 7.62 20.92 11.05
5/2/2022 3:45:00 PM 12.44 54.392 0.09 7.65 20.8 11.06
5/2/2022 4:00:00 PM 12.64 54.752 0.09 7.67 20.87 11.07
5/2/2022 4:15:00 PM 12.86 55.148 0.09 7.71 20.78 11.07
5/2/2022 4:30:00 PM 12.82 55.076 0.09 7.72 20.92 11.05
5/2/2022 4:45:00 PM 12.75 54.95 0.09 7.7 20.94 10.99
5/2/2022 5:00:00 PM 12.81 55.058 0.09 7.71 20.93 10.97
5/2/2022 5:15:00 PM 12.92 55.256 0.09 7.72 20.89 10.95
5/2/2022 5:30:00 PM 12.99 55.382 0.09 7.73 20.87 10.94
5/2/2022 5:45:00 PM 12.98 55.364 0.09 7.72 20.94 10.89
5/2/2022 6:00:00 PM 12.99 55.382 0.09 7.7 21.06 10.83
5/2/2022 6:15:00 PM 12.99 55.382 0.09 7.66 21.08 10.74
5/2/2022 6:30:00 PM 12.97 55.346 0.09 7.62 21.11 10.64
5/2/2022 6:45:00 PM 12.95 55.31 0.09 7.58 21.47 10.54
5/2/2022 7:00:00 PM 12.97 55.346 0.09 7.55 21.44 10.47
5/2/2022 7:15:00 PM 12.98 55.364 0.09 7.51 22.09 10.37
5/2/2022 7:30:00 PM 13.01 55.418 0.09 7.48 21.7 10.3
5/2/2022 7:45:00 PM 13.02 55.436 0.09 7.45 22.06 10.24
5/2/2022 8:00:00 PM 13.03 55.454 0.09 7.42 21.78 10.16
5/2/2022 8:15:00 PM 13.02 55.436 0.09 7.4 22.4 10.1
5/2/2022 8:30:00 PM 13 55.4 0.09 7.37 21.92 10.04
5/2/2022 8:45:00 PM 12.98 55.364 0.09 7.35 16.36 9.97
5/2/2022 9:00:00 PM 12.93 55.274 0.09 7.32 20.27 9.94
5/2/2022 9:15:00 PM 12.87 55.166 0.091 7.3 14.85 9.92
5/2/2022 9:30:00 PM 12.81 55.058 0.09 7.29 13.5 9.9
5/2/2022 9:45:00 PM 12.74 54.932 0.091 7.27 12.38 9.88
5/2/2022 10:00:00 PM 12.66 54.788 0.091 7.25 12.81 9.85
5/2/2022 10:15:00 PM 12.59 54.662 0.091 7.24 14.57 9.86
5/2/2022 10:30:00 PM 12.51 54.518 0.091 7.23 11.97 9.85
5/2/2022 10:45:00 PM 12.43 54.374 0.091 7.22 21.14 9.84
5/2/2022 11:00:00 PM 12.35 54.23 0.091 7.21 20.31 9.85
5/2/2022 11:15:00 PM 12.27 54.086 0.091 7.2 14.82 9.86
5/2/2022 11:30:00 PM 12.19 53.942 0.091 7.19 25 9.85
5/2/2022 11:45:00 PM 12.1 53.78 0.091 7.19 26.66 9.87
5/3/2022 12:00:00 AM 12.02 53.636 0.091 7.18 24.29 9.88
5/3/2022 12:15:00 AM 11.94 53.492 0.091 7.18 24.43 9.89
5/3/2022 12:30:00 AM 11.86 53.348 0.091 7.17 1336.36 9.92
5/3/2022 12:45:00 AM 11.79 53.222 0.091 7.17 25.31 9.92
5/3/2022 1:00:00 AM 11.7 53.06 0.091 7.16 25.84 9.94
5/3/2022 1:15:00 AM 11.62 52.916 0.091 7.16 23.25 9.96
5/3/2022 1:30:00 AM 11.54 52.772 0.092 7.16 23.01 9.98
5/3/2022 1:45:00 AM 11.46 52.628 0.092 7.16 24.97 10.01
5/3/2022 2:00:00 AM 11.37 52.466 0.092 7.15 24.37 10.02
5/3/2022 2:15:00 AM 11.29 52.322 0.092 7.15 24.14 10.05
5/3/2022 2:30:00 AM 11.2 52.16 0.092 7.15 14.79 10.05
5/3/2022 2:45:00 AM 11.12 52.016 0.092 7.15 16.18 10.1
5/3/2022 3:00:00 AM 11.03 51.854 0.092 7.14 23.76 10.1
5/3/2022 3:15:00 AM 10.95 51.71 0.092 7.14 24.06 10.12
5/3/2022 3:30:00 AM 10.87 51.566 0.092 7.14 23.63 10.14
5/3/2022 3:45:00 AM 10.79 51.422 0.092 7.14 23.78 10.17
5/3/2022 4:00:00 AM 10.7 51.26 0.092 7.14 23.72 10.18
5/3/2022 4:15:00 AM 10.62 51.116 0.093 7.14 23.8 10.22
5/3/2022 4:30:00 AM 10.54 50.972 0.093 7.14 23.85 10.24
5/3/2022 4:45:00 AM 10.46 50.828 0.092 7.13 23.87 10.26
5/3/2022 5:00:00 AM 10.38 50.684 0.092 7.13 23.65 10.28
5/3/2022 5:15:00 AM 10.31 50.558 0.093 7.13 24.09 10.31
5/3/2022 5:30:00 AM 10.23 50.414 0.093 7.13 24.06 10.32
5/3/2022 5:45:00 AM 10.16 50.288 0.093 7.13 23.94 10.35
5/3/2022 6:00:00 AM 10.08 50.144 0.093 7.13 23.71 10.38
5/3/2022 6:15:00 AM 10 50 0.093 7.13 23.71 10.41
5/3/2022 6:30:00 AM 9.95 49.91 0.093 7.14 23.58 10.47
5/3/2022 6:45:00 AM 9.9 49.82 0.093 7.15 23.82 10.54
5/3/2022 7:00:00 AM 9.86 49.748 0.093 7.17 23.58 10.62
5/3/2022 7:15:00 AM 9.84 49.712 0.093 7.18 23.52 10.71
5/3/2022 7:30:00 AM 9.82 49.676 0.093 7.2 23.6 10.81
5/3/2022 7:45:00 AM 9.84 49.712 0.093 7.22 23.64 10.89
5/3/2022 8:00:00 AM 9.87 49.766 0.093 7.24 23.99 10.99
5/3/2022 8:15:00 AM 9.9 49.82 0.093 7.27 23.93 11.07
5/3/2022 8:30:00 AM 9.92 49.856 0.093 7.3 23.79 11.15
5/3/2022 8:45:00 AM 10.01 50.018 0.093 7.33 23.86 11.22
5/3/2022 9:00:00 AM 10.14 50.252 0.093 7.36 23.76 11.28
5/3/2022 9:15:00 AM 10.15 50.27 0.092 7.39 23.79 11.33
5/3/2022 9:30:00 AM 10.31 50.558 0.092 7.42 23.74 11.39
5/3/2022 9:45:00 AM 10.49 50.882 0.092 7.45 23.74 11.43
5/3/2022 10:00:00 AM 10.65 51.17 0.092 7.48 23.79 11.46
5/3/2022 10:15:00 AM 10.77 51.386 0.092 7.52 23.6 11.48
5/3/2022 10:30:00 AM 10.97 51.746 0.092 7.55 23.86 11.51
5/3/2022 10:45:00 AM 11.09 51.962 0.092 7.58 25.15 11.51
5/3/2022 11:00:00 AM 11.25 52.25 0.092 7.61 23.64 11.52
5/3/2022 11:15:00 AM 11.47 52.646 0.092 7.64 23.52 11.53
5/3/2022 11:30:00 AM 11.65 52.97 0.092 7.67 23.55 11.52
5/3/2022 11:45:00 AM 11.87 53.366 0.092 7.7 23.68 11.51
5/3/2022 12:00:00 PM 12.16 53.888 0.092 7.72 23.68 11.49
5/3/2022 12:15:00 PM 12.42 54.356 0.092 7.75 23.65 11.46
5/3/2022 12:30:00 PM 12.73 54.914 0.091 7.78 23.6 11.44
5/3/2022 12:45:00 PM 12.96 55.328 0.091 7.79 23.59 11.4
5/3/2022 1:00:00 PM 13.2 55.76 0.091 7.83 24.6 11.37
5/3/2022 1:15:00 PM 13.43 56.174 0.091 7.85 23.35 11.33
5/3/2022 1:30:00 PM 13.6 56.48 0.091 7.88 23.36 11.3
5/3/2022 1:45:00 PM 13.77 56.786 0.091 7.9 23.33 11.25
5/3/2022 2:00:00 PM 13.97 57.146 0.091 7.92 23.58 11.21
5/3/2022 2:15:00 PM 14.15 57.47 0.091 7.95 23.51 11.19
5/3/2022 2:30:00 PM 14.39 57.902 0.091 7.97 23.57 11.13
5/3/2022 2:45:00 PM 14.52 58.136 0.091 8 23.65 11.1
5/3/2022 3:00:00 PM 14.61 58.298 0.091 8.01 23.5 11.05
5/3/2022 3:15:00 PM 14.65 58.37 0.091 8.01 23.51 11
5/3/2022 3:30:00 PM 14.72 58.496 0.091 8.03 23.58 10.95
5/3/2022 3:45:00 PM 14.76 58.568 0.091 8.02 23.41 10.88
5/3/2022 4:00:00 PM 14.81 58.658 0.09 8.01 23.39 10.83
5/3/2022 4:15:00 PM 14.85 58.73 0.091 7.99 23.14 10.75
5/3/2022 4:30:00 PM 14.89 58.802 0.09 7.97 23.45 10.69
5/3/2022 4:45:00 PM 14.95 58.91 0.091 7.95 22.94 10.63
5/3/2022 5:00:00 PM 14.96 58.928 0.09 7.91 23.39 10.55
5/3/2022 5:15:00 PM 14.98 58.964 0.09 7.87 23.52 10.48
5/3/2022 5:30:00 PM 15.03 59.054 0.09 7.86 23.66 10.47
5/3/2022 5:45:00 PM 15.06 59.108 0.09 7.84 23.45 10.39
5/3/2022 6:00:00 PM 15.08 59.144 0.09 7.82 23.38 10.36
5/3/2022 6:15:00 PM 15.12 59.216 0.09 7.81 23.39 10.33
5/3/2022 6:30:00 PM 15.09 59.162 0.09 7.77 23.52 10.27
5/3/2022 6:45:00 PM 15.05 59.09 0.09 7.72 23.48 10.17
5/3/2022 7:00:00 PM 15.01 59.018 0.09 7.66 23.57 10.07
5/3/2022 7:15:00 PM 14.98 58.964 0.09 7.61 23.66 9.99
5/3/2022 7:30:00 PM 14.96 58.928 0.09 7.57 23.64 9.91
5/3/2022 7:45:00 PM 14.92 58.856 0.091 7.52 23.71 9.82
5/3/2022 8:00:00 PM 14.89 58.802 0.091 7.48 23.84 9.73
5/3/2022 8:15:00 PM 14.86 58.748 0.091 7.44 23.79 9.65
5/3/2022 8:30:00 PM 14.83 58.694 0.091 7.41 23.72 9.56
5/3/2022 8:45:00 PM 14.79 58.622 0.091 7.38 24.15 9.51
5/3/2022 9:00:00 PM 14.76 58.568 0.091 7.36 24.29 9.47
5/3/2022 9:15:00 PM 14.72 58.496 0.091 7.34 24.42 9.43
5/3/2022 9:30:00 PM 14.69 58.442 0.091 7.31 24.5 9.39
5/3/2022 9:45:00 PM 14.67 58.406 0.091 7.3 24.24 9.37
5/3/2022 10:00:00 PM 14.65 58.37 0.091 7.28 24.39 9.34
5/3/2022 10:15:00 PM 14.62 58.316 0.091 7.27 24.29 9.32
5/3/2022 10:30:00 PM 14.59 58.262 0.091 7.26 24.63 9.31
5/3/2022 10:45:00 PM 14.56 58.208 0.092 7.25 25.33 9.3
5/3/2022 11:00:00 PM 14.52 58.136 0.092 7.23 22.25 9.29
5/3/2022 11:15:00 PM 14.48 58.064 0.092 7.23 15.26 9.28
5/3/2022 11:30:00 PM 14.44 57.992 0.092 7.22 22.55 9.25
5/3/2022 11:45:00 PM 14.39 57.902 0.092 7.22 16 9.26
5/4/2022 12:00:00 AM 14.34 57.812 0.092 7.21 26.76 9.27
5/4/2022 12:15:00 AM 14.28 57.704 0.092 7.21 26.85 9.31
5/4/2022 12:30:00 AM 14.21 57.578 0.091 7.21 34.65 9.31
5/4/2022 12:45:00 AM 14.15 57.47 0.091 7.2 33.77 9.31
5/4/2022 1:00:00 AM 14.09 57.362 0.092 7.2 32.46 9.33
5/4/2022 1:15:00 AM 14.02 57.236 0.092 7.19 28.56 9.34
5/4/2022 1:30:00 AM 13.94 57.092 0.092 7.19 27.96 9.33
5/4/2022 1:45:00 AM 13.87 56.966 0.092 7.18 29.13 9.34
5/4/2022 2:00:00 AM 13.79 56.822 0.092 7.18 27.9 9.36
5/4/2022 2:15:00 AM 13.73 56.714 0.092 7.18 27.9 9.38
5/4/2022 2:30:00 AM 13.66 56.588 0.093 7.18 27.82 9.38
5/4/2022 2:45:00 AM 13.6 56.48 0.093 7.18 27.82 9.39
5/4/2022 3:00:00 AM 13.53 56.354 0.093 7.18 28.38 9.41
5/4/2022 3:15:00 AM 13.47 56.246 0.093 7.18 27.67 9.43
5/4/2022 3:30:00 AM 13.39 56.102 0.093 7.18 27.48 9.45
5/4/2022 3:45:00 AM 13.33 55.994 0.094 7.18 28.92 9.46
5/4/2022 4:00:00 AM 13.27 55.886 0.094 7.18 29.16 9.48
5/4/2022 4:15:00 AM 13.21 55.778 0.094 7.18 28.98 9.5
5/4/2022 4:30:00 AM 13.15 55.67 0.095 7.18 29.3 9.52
5/4/2022 4:45:00 AM 13.1 55.58 0.095 7.19 29.44 9.53
5/4/2022 5:00:00 AM 13.04 55.472 0.095 7.19 27.55 9.55
5/4/2022 5:15:00 AM 12.99 55.382 0.095 7.19 29.73 9.57
5/4/2022 5:30:00 AM 12.94 55.292 0.095 7.19 22.07 9.59
5/4/2022 5:45:00 AM 12.88 55.184 0.095 7.18 20.43 9.58
5/4/2022 6:00:00 AM 12.83 55.094 0.095 7.19 22.85 9.62
5/4/2022 6:15:00 AM 12.78 55.004 0.095 7.2 16.87 9.64
5/4/2022 6:30:00 AM 12.71 54.878 0.094 7.2 22.42 9.69
5/4/2022 6:45:00 AM 12.66 54.788 0.095 7.2 19.19 9.71
5/4/2022 7:00:00 AM 12.62 54.716 0.095 7.21 19.26 9.73
5/4/2022 7:15:00 AM 12.58 54.644 0.095 7.21 16.91 9.77
5/4/2022 7:30:00 AM 12.54 54.572 0.095 7.22 16.44 9.81
5/4/2022 7:45:00 AM 12.5 54.5 0.095 7.23 16.82 9.85
5/4/2022 8:00:00 AM 12.46 54.428 0.094 7.23 17.49 9.88
5/4/2022 8:15:00 AM 12.43 54.374 0.095 7.24 18.04 9.94
5/4/2022 8:30:00 AM 12.41 54.338 0.094 7.25 17.97 9.99
5/4/2022 8:45:00 AM 12.37 54.266 0.094 7.26 17.71 10.04
5/4/2022 9:00:00 AM 12.36 54.248 0.094 7.28 18.31 10.12
5/4/2022 9:15:00 AM 12.33 54.194 0.094 7.29 19.18 10.17
5/4/2022 9:30:00 AM 12.31 54.158 0.094 7.31 18.53 10.23
5/4/2022 9:45:00 AM 12.31 54.158 0.094 7.33 18.53 10.29
5/4/2022 10:00:00 AM 12.3 54.14 0.094 7.35 19.78 10.35
5/4/2022 10:15:00 AM 12.28 54.104 0.094 7.37 19.9 10.39
5/4/2022 10:30:00 AM 12.28 54.104 0.094 7.38 20.18 10.44
5/4/2022 10:45:00 AM 12.27 54.086 0.093 7.39 20.35 10.47
5/4/2022 11:00:00 AM 12.28 54.104 0.093 7.41 18.28 10.53
5/4/2022 11:15:00 AM 12.3 54.14 0.093 7.43 18.67 10.58
5/4/2022 11:30:00 AM 12.3 54.14 0.093 7.45 18.94 10.61
5/4/2022 11:45:00 AM 12.32 54.176 0.093 7.47 19.49 10.66
5/4/2022 12:00:00 PM 12.35 54.23 0.094 7.49 18.89 10.72
5/4/2022 12:15:00 PM 12.36 54.248 0.093 7.51 17.52 10.74
5/4/2022 12:30:00 PM 12.39 54.302 0.093 7.54 17.37 10.79
5/4/2022 12:45:00 PM 12.45 54.41 0.093 7.56 18.16 10.83
5/4/2022 1:00:00 PM 12.56 54.608 0.093 7.6 18.02 10.9
5/4/2022 1:15:00 PM 12.6 54.68 0.093 7.62 17.95 10.91
5/4/2022 1:30:00 PM 12.64 54.752 0.093 7.64 18.23 10.92
5/4/2022 1:45:00 PM 12.7 54.86 0.092 7.67 17.97 10.95
5/4/2022 2:00:00 PM 12.73 54.914 0.092 7.67 17.78 10.92
5/4/2022 2:15:00 PM 12.85 55.13 0.092 7.71 17.97 10.96
5/4/2022 2:30:00 PM 12.99 55.382 0.092 7.74 17.79 10.97
5/4/2022 2:45:00 PM 12.99 55.382 0.092 7.75 18.02 10.94
5/4/2022 3:00:00 PM 13.05 55.49 0.092 7.76 18.71 10.92
5/4/2022 3:15:00 PM 13.1 55.58 0.092 7.75 21.4 10.9
5/4/2022 3:30:00 PM 13.28 55.904 0.092 7.79 18.37 10.92
5/4/2022 3:45:00 PM 13.5 56.3 0.092 7.84 18.53 10.95
5/4/2022 4:00:00 PM 13.58 56.444 0.092 7.86 18.56 10.94
5/4/2022 4:15:00 PM 13.55 56.39 0.091 7.83 18.58 10.86
5/4/2022 4:30:00 PM 13.53 56.354 0.092 7.8 18.65 10.79
5/4/2022 4:45:00 PM 13.52 56.336 0.092 7.75 18.84 10.67
5/4/2022 5:00:00 PM 13.54 56.372 0.091 7.69 19.4 10.57
5/4/2022 5:15:00 PM 13.58 56.444 0.091 7.67 18.82 10.51
5/4/2022 5:30:00 PM 13.61 56.498 0.092 7.65 18.77 10.48
5/4/2022 5:45:00 PM 13.63 56.534 0.092 7.64 18.86 10.45
5/4/2022 6:00:00 PM 13.66 56.588 0.092 7.63 18.98 10.42
5/4/2022 6:15:00 PM 13.66 56.588 0.092 7.6 19.64 10.35
5/4/2022 6:30:00 PM 13.66 56.588 0.092 7.57 19.42 10.27
5/4/2022 6:45:00 PM 13.64 56.552 0.092 7.54 19.94 10.21
5/4/2022 7:00:00 PM 13.62 56.516 0.092 7.51 19.25 10.17
5/4/2022 7:15:00 PM 13.58 56.444 0.092 7.48 21.03 10.1
5/4/2022 7:30:00 PM 13.53 56.354 0.092 7.45 19.51 10.06
5/4/2022 7:45:00 PM 13.49 56.282 0.092 7.42 17.22 10
5/4/2022 8:00:00 PM 13.44 56.192 0.092 7.4 16.96 9.95
5/4/2022 8:15:00 PM 13.4 56.12 0.092 7.38 17 9.91
5/4/2022 8:30:00 PM 13.36 56.048 0.092 7.35 17.12 9.86
5/4/2022 8:45:00 PM 13.32 55.976 0.092 7.34 17.33 9.81
5/4/2022 9:00:00 PM 13.29 55.922 0.092 7.32 17.55 9.79
5/4/2022 9:15:00 PM 13.24 55.832 0.092 7.31 17.31 9.76
5/4/2022 9:30:00 PM 13.21 55.778 0.092 7.3 17.51 9.75
5/4/2022 9:45:00 PM 13.17 55.706 0.092 7.29 17.45 9.74
5/4/2022 10:00:00 PM 13.13 55.634 0.093 7.27 17.37 9.73
5/4/2022 10:15:00 PM 13.1 55.58 0.092 7.27 17.73 9.72
5/4/2022 10:30:00 PM 13.07 55.526 0.093 7.26 17.61 9.72
5/4/2022 10:45:00 PM 13.04 55.472 0.093 7.25 17.69 9.71
5/4/2022 11:00:00 PM 13.02 55.436 0.093 7.25 17.66 9.7
5/4/2022 11:15:00 PM 12.99 55.382 0.093 7.24 17.95 9.71
5/4/2022 11:30:00 PM 12.96 55.328 0.093 7.24 17.31 9.69
5/4/2022 11:45:00 PM 12.93 55.274 0.093 7.23 17.58 9.71
5/5/2022 12:00:00 AM 12.9 55.22 0.094 7.23 17.37 9.71
5/5/2022 12:15:00 AM 12.86 55.148 0.094 7.23 17.15 9.71
5/5/2022 12:30:00 AM 12.83 55.094 0.094 7.22 17.4 9.71
5/5/2022 12:45:00 AM 12.79 55.022 0.094 7.22 17.51 9.7
5/5/2022 1:00:00 AM 12.75 54.95 0.094 7.22 17.54 9.72
5/5/2022 1:15:00 AM 12.7 54.86 0.095 7.22 17.8 9.73
5/5/2022 1:30:00 AM 12.65 54.77 0.095 7.21 17.61 9.75
5/5/2022 1:45:00 AM 12.61 54.698 0.095 7.21 17.93 9.75
5/5/2022 2:00:00 AM 12.56 54.608 0.095 7.21 17.7 9.76
5/5/2022 2:15:00 AM 12.51 54.518 0.096 7.2 18.16 9.77
5/5/2022 2:30:00 AM 12.48 54.464 0.096 7.2 18.33 9.78
5/5/2022 2:45:00 AM 12.44 54.392 0.096 7.2 18.21 9.78
5/5/2022 3:00:00 AM 12.4 54.32 0.096 7.2 19.04 9.81
5/5/2022 3:15:00 AM 12.36 54.248 0.097 7.19 17.97 9.8
5/5/2022 3:30:00 AM 12.31 54.158 0.097 7.2 18.3 9.82
5/5/2022 3:45:00 AM 12.26 54.068 0.097 7.19 17.98 9.83
5/5/2022 4:00:00 AM 12.2 53.96 0.097 7.19 18.55 9.84
5/5/2022 4:15:00 AM 12.14 53.852 0.098 7.19 19.79 9.85
5/5/2022 4:30:00 AM 12.07 53.726 0.098 7.19 16.93 9.86
5/5/2022 4:45:00 AM 12.01 53.618 0.098 7.19 17.6 9.87
5/5/2022 5:00:00 AM 11.95 53.51 0.099 7.18 17.47 9.89
5/5/2022 5:15:00 AM 11.88 53.384 0.099 7.18 17.46 9.9
5/5/2022 5:30:00 AM 11.83 53.294 0.099 7.18 17.33 9.91
5/5/2022 5:45:00 AM 11.79 53.222 0.099 7.18 17.25 9.93
5/5/2022 6:00:00 AM 11.74 53.132 0.099 7.18 17.14 9.94
5/5/2022 6:15:00 AM 11.69 53.042 0.099 7.18 17.1 9.97
5/5/2022 6:30:00 AM 11.64 52.952 0.1 7.19 17.25 10.02
5/5/2022 6:45:00 AM 11.59 52.862 0.1 7.2 17.41 10.07
5/5/2022 7:00:00 AM 11.54 52.772 0.1 7.21 18.56 10.14
5/5/2022 7:15:00 AM 11.52 52.736 0.099 7.22 18.93 10.23
5/5/2022 7:30:00 AM 11.51 52.718 0.1 7.24 20.29 10.31
5/5/2022 7:45:00 AM 11.51 52.718 0.1 7.26 19.91 10.39
5/5/2022 8:00:00 AM 11.52 52.736 0.1 7.28 19.9 10.48
5/5/2022 8:15:00 AM 11.55 52.79 0.1 7.31 21.74 10.57
5/5/2022 8:30:00 AM 11.59 52.862 0.1 7.33 21.03 10.66
5/5/2022 8:45:00 AM 11.64 52.952 0.1 7.36 20.49 10.72
5/5/2022 9:00:00 AM 11.71 53.078 0.1 7.4 20.74 10.81
5/5/2022 9:15:00 AM 11.79 53.222 0.1 7.42 20.86 10.91
5/5/2022 9:30:00 AM 11.9 53.42 0.1 7.46 21.3 10.95
5/5/2022 9:45:00 AM 12.03 53.654 0.1 7.5 21.55 11.02
5/5/2022 10:00:00 AM 12.15 53.87 0.1 7.53 21.87 11.06
5/5/2022 10:15:00 AM 12.32 54.176 0.1 7.57 22.25 11.09
5/5/2022 10:30:00 AM 12.5 54.5 0.1 7.61 22.37 11.15
5/5/2022 10:45:00 AM 12.69 54.842 0.099 7.65 23.1 11.19
5/5/2022 11:00:00 AM 12.88 55.184 0.099 7.7 23.42 11.21
5/5/2022 11:15:00 AM 13.03 55.454 0.099 7.73 24.3 11.24
5/5/2022 11:30:00 AM 13.18 55.724 0.099 7.78 23.78 11.26
5/5/2022 11:45:00 AM 13.36 56.048 0.098 7.81 23.64 11.26
5/5/2022 12:00:00 PM 13.59 56.462 0.098 7.85 23.62 11.25
5/5/2022 12:15:00 PM 13.84 56.912 0.098 7.89 23.89 11.26
5/5/2022 12:30:00 PM 14.04 57.272 0.097 7.94 23.48 11.27
5/5/2022 12:45:00 PM 14.21 57.578 0.097 7.96 23.44 11.22
5/5/2022 1:00:00 PM 14.36 57.848 0.096 8.02 23.03 11.22
5/5/2022 1:15:00 PM 14.53 58.154 0.097 8.05 23.03 11.19
5/5/2022 1:30:00 PM 14.7 58.46 0.096 8.09 25.01 11.18
5/5/2022 1:45:00 PM 15.01 59.018 0.097 8.13 21.87 11.16
5/5/2022 2:00:00 PM 15.28 59.504 0.097 8.15 22.21 11.12
5/5/2022 2:15:00 PM 15.53 59.954 0.096 8.18 21.91 11.09
5/5/2022 2:30:00 PM 15.76 60.368 0.096 8.21 21.53 11.04
5/5/2022 2:45:00 PM 16.03 60.854 0.096 8.23 21.91 11.02
5/5/2022 3:00:00 PM 16.2 61.16 0.096 8.26 22.3 10.94
5/5/2022 3:15:00 PM 16.22 61.196 0.096 8.26 21.63 10.87
5/5/2022 3:30:00 PM 16.19 61.142 0.096 8.25 21.23 10.78
5/5/2022 3:45:00 PM 16.33 61.394 0.095 8.26 20.78 10.74
5/5/2022 4:00:00 PM 16.47 61.646 0.096 8.27 20.52 10.72
5/5/2022 4:15:00 PM 16.49 61.682 0.096 8.27 20.78 10.65
5/5/2022 4:30:00 PM 16.5 61.7 0.096 8.25 20.97 10.58
5/5/2022 4:45:00 PM 16.54 61.772 0.096 8.23 19.98 10.51
5/5/2022 5:00:00 PM 16.56 61.808 0.094 8.2 20.02 10.42
5/5/2022 5:15:00 PM 16.56 61.808 0.094 8.16 18.57 10.34
5/5/2022 5:30:00 PM 16.52 61.736 0.094 8.11 20.12 10.25
5/5/2022 5:45:00 PM 16.5 61.7 0.097 8.04 21.21 10.16
5/5/2022 6:00:00 PM 16.5 61.7 0.096 7.99 20.07 10.09
5/5/2022 6:15:00 PM 16.5 61.7 0.094 7.94 20 10.01
5/5/2022 6:30:00 PM 16.51 61.718 0.094 7.89 19.88 9.93
5/5/2022 6:45:00 PM 16.52 61.736 0.094 7.84 20.27 9.86
5/5/2022 7:00:00 PM 16.53 61.754 0.094 7.78 19.96 9.79
5/5/2022 7:15:00 PM 16.54 61.772 0.094 7.73 20.01 9.69
5/5/2022 7:30:00 PM 16.53 61.754 0.094 7.69 19.95 9.63
5/5/2022 7:45:00 PM 16.5 61.7 0.094 7.63 20.33 9.53
5/5/2022 8:00:00 PM 16.46 61.628 0.094 7.58 32.61 9.43
5/5/2022 8:15:00 PM 16.4 61.52 0.094 7.53 21.15 9.33
5/5/2022 8:30:00 PM 16.34 61.412 0.094 7.48 20.77 9.25
5/5/2022 8:45:00 PM 16.28 61.304 0.094 7.44 20.68 9.19
5/5/2022 9:00:00 PM 16.21 61.178 0.094 7.4 21.06 9.13
5/5/2022 9:15:00 PM 16.13 61.034 0.094 7.37 20.24 9.09
5/5/2022 9:30:00 PM 16.06 60.908 0.095 7.34 19.95 9.05
5/5/2022 9:45:00 PM 15.99 60.782 0.094 7.32 19.64 9.02
5/5/2022 10:00:00 PM 15.92 60.656 0.095 7.3 20.23 9.01
5/5/2022 10:15:00 PM 15.84 60.512 0.094 7.28 19.88 8.99
5/5/2022 10:30:00 PM 15.77 60.386 0.095 7.27 20.6 8.97
5/5/2022 10:45:00 PM 15.69 60.242 0.094 7.25 20.5 8.97
5/5/2022 11:00:00 PM 15.62 60.116 0.095 7.24 19.98 8.98
5/5/2022 11:15:00 PM 15.55 59.99 0.096 7.22 20.03 8.97
5/5/2022 11:30:00 PM 15.48 59.864 0.095 7.21 20.03 8.96
5/5/2022 11:45:00 PM 15.4 59.72 0.095 7.2 20.08 8.97
5/6/2022 12:00:00 AM 15.32 59.576 0.095 7.19 19.83 8.97
5/6/2022 12:15:00 AM 15.24 59.432 0.095 7.19 19.7 8.99
5/6/2022 12:30:00 AM 15.16 59.288 0.096 7.19 19.98 9
5/6/2022 12:45:00 AM 15.07 59.126 0.097 7.18 19.79 9.01
5/6/2022 1:00:00 AM 14.99 58.982 0.096 7.18 20.06 9.03
5/6/2022 1:15:00 AM 14.9 58.82 0.096 7.18 19.98 9.06
5/6/2022 1:30:00 AM 14.82 58.676 0.097 7.17 19.97 9.06
5/6/2022 1:45:00 AM 14.74 58.532 0.097 7.17 19.93 9.07
5/6/2022 2:00:00 AM 14.65 58.37 0.096 7.16 19.93 9.1
5/6/2022 2:15:00 AM 14.57 58.226 0.097 7.16 20.2 9.12
5/6/2022 2:30:00 AM 14.5 58.1 0.097 7.16 21.57 9.13
5/6/2022 2:45:00 AM 14.42 57.956 0.098 7.17 20.54 9.15
5/6/2022 3:00:00 AM 14.35 57.83 0.099 7.16 20.18 9.17
5/6/2022 3:15:00 AM 14.28 57.704 0.1 7.16 20.25 9.17
5/6/2022 3:30:00 AM 14.2 57.56 0.098 7.16 20.18 9.2
5/6/2022 3:45:00 AM 14.12 57.416 0.098 7.16 19.09 9.22
5/6/2022 4:00:00 AM 14.05 57.29 0.098 7.16 18.17 9.25
5/6/2022 4:15:00 AM 13.97 57.146 0.098 7.17 17.75 9.26
5/6/2022 4:30:00 AM 13.9 57.02 0.098 7.17 17.38 9.27
5/6/2022 4:45:00 AM 13.82 56.876 0.099 7.17 18.15 9.3
5/6/2022 5:00:00 AM 13.75 56.75 0.1 7.17 19.01 9.31
5/6/2022 5:15:00 AM 13.67 56.606 0.1 7.17 18.54 9.33
5/6/2022 5:30:00 AM 13.6 56.48 0.101 7.17 18.86 9.34
5/6/2022 5:45:00 AM 13.53 56.354 0.101 7.17 18.6 9.35
5/6/2022 6:00:00 AM 13.46 56.228 0.102 7.18 18.64 9.38
5/6/2022 6:15:00 AM 13.4 56.12 0.101 7.18 18.84 9.4
5/6/2022 6:30:00 AM 13.32 55.976 0.101 7.18 18.64 9.44
5/6/2022 6:45:00 AM 13.26 55.868 0.102 7.19 18.72 9.47
5/6/2022 7:00:00 AM 13.2 55.76 0.099 7.19 19.01 9.49
5/6/2022 7:15:00 AM 13.14 55.652 0.1 7.2 18.81 9.53
5/6/2022 7:30:00 AM 13.09 55.562 0.099 7.2 18.85 9.59
5/6/2022 7:45:00 AM 13.04 55.472 0.099 7.21 19 9.63
5/6/2022 8:00:00 AM 12.98 55.364 0.1 7.22 19.15 9.66
5/6/2022 8:15:00 AM 12.94 55.292 0.1 7.23 19.03 9.72
5/6/2022 8:30:00 AM 12.9 55.22 0.1 7.23 19.06 9.76
5/6/2022 8:45:00 AM 12.85 55.13 0.101 7.24 19.19 9.83
5/6/2022 9:00:00 AM 12.81 55.058 0.102 7.25 19.1 9.87
5/6/2022 9:15:00 AM 12.79 55.022 0.101 7.28 19.09 9.98
5/6/2022 9:30:00 AM 12.78 55.004 0.101 7.3 19.04 10.09
5/6/2022 9:45:00 AM 12.74 54.932 0.1 7.32 19.12 10.17
5/6/2022 10:00:00 AM 12.72 54.896 0.101 7.34 19.29 10.22
5/6/2022 10:15:00 AM 12.7 54.86 0.1 7.36 19.04 10.3
5/6/2022 10:30:00 AM 12.67 54.806 0.1 7.37 19.21 10.31
5/6/2022 10:45:00 AM 12.66 54.788 0.101 7.39 19.12 10.38
5/6/2022 11:00:00 AM 12.64 54.752 0.101 7.41 20.84 10.42
5/6/2022 11:15:00 AM 12.62 54.716 0.101 7.43 19.05 10.46
5/6/2022 11:30:00 AM 12.61 54.698 0.101 7.44 19.08 10.46
5/6/2022 11:45:00 AM 12.6 54.68 0.101 7.45 19.17 10.51
5/6/2022 12:00:00 PM 12.59 54.662 0.101 7.47 19.31 10.53
5/6/2022 12:15:00 PM 12.58 54.644 0.1 7.49 19.49 10.58
5/6/2022 12:30:00 PM 12.57 54.626 0.101 7.49 19.11 10.59
5/6/2022 12:45:00 PM 12.55 54.59 0.101 7.51 19.37 10.59
5/6/2022 1:00:00 PM 12.55 54.59 0.102 7.51 19.59 10.6
5/6/2022 1:15:00 PM 12.53 54.554 0.101 7.53 19.67 10.63
5/6/2022 1:30:00 PM 12.52 54.536 0.102 7.54 19.12 10.64
5/6/2022 1:45:00 PM 12.51 54.518 0.102 7.54 20.23 10.63
5/6/2022 2:00:00 PM 12.5 54.5 0.101 7.55 19.02 10.65
5/6/2022 2:15:00 PM 12.49 54.482 0.101 7.55 19.16 10.64
5/6/2022 2:30:00 PM 12.48 54.464 0.101 7.56 19.38 10.65
5/6/2022 2:45:00 PM 12.47 54.446 0.101 7.57 19.59 10.66
5/6/2022 3:00:00 PM 12.46 54.428 0.1 7.57 20.15 10.66
5/6/2022 3:15:00 PM 12.45 54.41 0.1 7.57 20.27 10.64
5/6/2022 3:30:00 PM 12.43 54.374 0.101 7.56 20.14 10.62
5/6/2022 3:45:00 PM 12.42 54.356 0.102 7.55 20.67 10.57
5/6/2022 4:00:00 PM 12.4 54.32 0.102 7.55 21.83 10.56
5/6/2022 4:15:00 PM 12.38 54.284 0.103 7.53 22.2 10.51
5/6/2022 4:30:00 PM 12.37 54.266 0.105 7.53 25.18 10.49
5/6/2022 4:45:00 PM 12.35 54.23 0.106 7.52 25.8 10.48
5/6/2022 5:00:00 PM 12.33 54.194 0.108 7.51 27.6 10.47
5/6/2022 5:15:00 PM 12.31 54.158 0.108 7.5 31.18 10.44
5/6/2022 5:30:00 PM 12.3 54.14 0.109 7.49 42.59 10.4
5/6/2022 5:45:00 PM 12.28 54.104 0.11 7.48 35.35 10.36
5/6/2022 6:00:00 PM 12.25 54.05 0.109 7.45 40.88 10.29
5/6/2022 6:15:00 PM 12.23 54.014 0.11 7.43 27.74 10.25
5/6/2022 6:30:00 PM 12.2 53.96 0.107 7.42 43.3 10.23
5/6/2022 6:45:00 PM 12.17 53.906 0.106 7.4 43.41 10.2
5/6/2022 7:00:00 PM 12.13 53.834 0.106 7.39 53.36 10.17
5/6/2022 7:15:00 PM 12.1 53.78 0.105 7.37 40.6 10.15
5/6/2022 7:30:00 PM 12.06 53.708 0.104 7.36 40.87 10.13
5/6/2022 7:45:00 PM 12.03 53.654 0.105 7.34 47.34 10.11
5/6/2022 8:00:00 PM 11.99 53.582 0.106 7.33 49.96 10.09
5/6/2022 8:15:00 PM 11.95 53.51 0.102 7.31 50.04 10.07
5/6/2022 8:30:00 PM 11.92 53.456 0.103 7.3 41.35 10.05
5/6/2022 8:45:00 PM 11.88 53.384 0.104 7.29 38.55 10.04
5/6/2022 9:00:00 PM 11.83 53.294 0.095 7.29 42 10.04
5/6/2022 9:15:00 PM 11.79 53.222 0.094 7.28 50.69 10.03
5/6/2022 9:30:00 PM 11.75 53.15 0.094 7.27 42.87 10.04
5/6/2022 9:45:00 PM 11.71 53.078 0.093 7.26 35.76 10.03
5/6/2022 10:00:00 PM 11.67 53.006 0.093 7.26 43.93 10.04
5/6/2022 10:15:00 PM 11.63 52.934 0.088 7.25 51.74 10.04
5/6/2022 10:30:00 PM 11.59 52.862 0.093 7.25 41.39 10.04
5/6/2022 10:45:00 PM 11.56 52.808 0.093 7.25 48.14 10.05
5/6/2022 11:00:00 PM 11.52 52.736 0.093 7.24 43.99 10.06
5/6/2022 11:15:00 PM 11.49 52.682 0.094 7.24 57.84 10.07
5/6/2022 11:30:00 PM 11.45 52.61 0.094 7.24 40.82 10.07
5/6/2022 11:45:00 PM 11.41 52.538 0.094 7.24 37.96 10.08
5/7/2022 12:00:00 AM 11.37 52.466 0.094 7.24 39.95 10.08
5/7/2022 12:15:00 AM 11.34 52.412 0.095 7.24 50.31 10.09
5/7/2022 12:30:00 AM 11.3 52.34 0.095 7.23 38.71 10.1
5/7/2022 12:45:00 AM 11.27 52.286 0.095 7.23 34.05 10.1
5/7/2022 1:00:00 AM 11.24 52.232 0.096 7.23 42.57 10.11
5/7/2022 1:15:00 AM 11.2 52.16 0.096 7.23 49.5 10.12
5/7/2022 1:30:00 AM 11.17 52.106 0.095 7.23 50.54 10.11
5/7/2022 1:45:00 AM 11.14 52.052 0.095 7.23 39.46 10.13
5/7/2022 2:00:00 AM 11.11 51.998 0.095 7.23 43.25 10.13
5/7/2022 2:15:00 AM 11.08 51.944 0.095 7.22 43.22 10.14
5/7/2022 2:30:00 AM 11.05 51.89 0.095 7.22 43.26 10.16
5/7/2022 2:45:00 AM 11.03 51.854 0.094 7.22 42.44 10.15
5/7/2022 3:00:00 AM 11 51.8 0.094 7.22 37.24 10.15
5/7/2022 3:15:00 AM 10.98 51.764 0.093 7.21 28.03 10.17
5/7/2022 3:30:00 AM 10.95 51.71 0.094 7.22 44.48 10.17
5/7/2022 3:45:00 AM 10.92 51.656 0.093 7.21 42.58 10.18
5/7/2022 4:00:00 AM 10.9 51.62 0.092 7.21 49.75 10.19
5/7/2022 4:15:00 AM 10.87 51.566 0.092 7.21 44.13 10.2
5/7/2022 4:30:00 AM 10.85 51.53 0.092 7.21 53.59 10.19
5/7/2022 4:45:00 AM 10.82 51.476 0.092 7.21 42.74 10.21
5/7/2022 5:00:00 AM 10.79 51.422 0.092 7.21 39.79 10.22
5/7/2022 5:15:00 AM 10.77 51.386 0.091 7.21 40.12 10.23
5/7/2022 5:30:00 AM 10.75 51.35 0.09 7.2 37.85 10.23
5/7/2022 5:45:00 AM 10.72 51.296 0.091 7.2 39.78 10.23
5/7/2022 6:00:00 AM 10.7 51.26 0.09 7.2 42.38 10.24
5/7/2022 6:15:00 AM 10.68 51.224 0.091 7.2 41.98 10.24
5/7/2022 6:30:00 AM 10.66 51.188 0.091 7.2 41.25 10.26
5/7/2022 6:45:00 AM 10.64 51.152 0.091 7.2 41.3 10.28
5/7/2022 7:00:00 AM 10.62 51.116 0.091 7.2 39.86 10.29
5/7/2022 7:15:00 AM 10.6 51.08 0.091 7.21 41.28 10.3
5/7/2022 7:30:00 AM 10.59 51.062 0.091 7.21 36.99 10.33
5/7/2022 7:45:00 AM 10.57 51.026 0.091 7.21 41.46 10.35
5/7/2022 8:00:00 AM 10.56 51.008 0.091 7.22 33.49 10.37
5/7/2022 8:15:00 AM 10.55 50.99 0.091 7.22 39.83 10.4
5/7/2022 8:30:00 AM 10.55 50.99 0.091 7.22 38.38 10.42
5/7/2022 8:45:00 AM 10.54 50.972 0.09 7.23 39.01 10.45
5/7/2022 9:00:00 AM 10.53